<?xml version="1.0" encoding="UTF-8" standalone="no" ?>
<gpx xmlns="http://www.topografix.com/GPX/1/1" xmlns:xsi="http://www.w3.org/2001/XMLSchema-instance" xsi:schemaLocation="http://www.topografix.com/GPX/1/1 http://www.topografix.com/GPX/1/1/gpx.xsd" version="1.1" creator="VisuGPX - https://www.visugpx.com">
  <metadata>
    <name>Les sources de la crise</name>
    <desc><![CDATA[Variante de la randonnée des sources de la crise réalisée par les randonneurs de Bezannes]]></desc>
  </metadata>
  <wpt lat="49.2845" lon="3.41705">
    <ele>90</ele>
  </wpt>
  <wpt lat="49.29993" lon="3.4265">
    <ele>90</ele>
    <name><![CDATA[GITE]]></name>
  </wpt>
  <wpt lat="49.28452" lon="3.41706">
    <ele>96</ele>
  </wpt>
  <trk>
    <name><![CDATA[Les sources de la crise_1]]></name>
    <trkseg>
      <trkpt lat="49.2845" lon="3.41705">
        <ele>90</ele>
        <time>2009-06-14T08:02:03Z</time>
      </trkpt>
      <trkpt lat="49.28459" lon="3.41707">
        <ele>90</ele>
        <time>2009-06-14T08:02:08Z</time>
      </trkpt>
      <trkpt lat="49.28449" lon="3.41704">
        <ele>97</ele>
        <time>2009-06-14T08:02:17Z</time>
      </trkpt>
      <trkpt lat="49.28458" lon="3.41698">
        <ele>97</ele>
        <time>2009-06-14T08:02:29Z</time>
      </trkpt>
      <trkpt lat="49.28464" lon="3.41685">
        <ele>97</ele>
        <time>2009-06-14T08:02:37Z</time>
      </trkpt>
      <trkpt lat="49.28472" lon="3.41677">
        <ele>97</ele>
        <time>2009-06-14T08:02:45Z</time>
      </trkpt>
      <trkpt lat="49.28478" lon="3.41666">
        <ele>92</ele>
        <time>2009-06-14T08:02:53Z</time>
      </trkpt>
      <trkpt lat="49.28487" lon="3.41663">
        <ele>92</ele>
        <time>2009-06-14T08:03:02Z</time>
      </trkpt>
      <trkpt lat="49.28496" lon="3.41666">
        <ele>92</ele>
        <time>2009-06-14T08:03:12Z</time>
      </trkpt>
      <trkpt lat="49.28502" lon="3.41677">
        <ele>92</ele>
        <time>2009-06-14T08:03:23Z</time>
      </trkpt>
      <trkpt lat="49.28496" lon="3.41665">
        <ele>79</ele>
        <time>2009-06-14T08:03:40Z</time>
      </trkpt>
      <trkpt lat="49.28504" lon="3.41674">
        <ele>86</ele>
        <time>2009-06-14T08:03:56Z</time>
      </trkpt>
      <trkpt lat="49.28511" lon="3.41684">
        <ele>97</ele>
        <time>2009-06-14T08:04:06Z</time>
      </trkpt>
      <trkpt lat="49.28517" lon="3.41695">
        <ele>90</ele>
        <time>2009-06-14T08:04:23Z</time>
      </trkpt>
      <trkpt lat="49.2852" lon="3.41713">
        <ele>90</ele>
        <time>2009-06-14T08:04:27Z</time>
      </trkpt>
      <trkpt lat="49.28525" lon="3.41725">
        <ele>90</ele>
        <time>2009-06-14T08:04:31Z</time>
      </trkpt>
      <trkpt lat="49.28531" lon="3.41738">
        <ele>90</ele>
        <time>2009-06-14T08:04:38Z</time>
      </trkpt>
      <trkpt lat="49.28535" lon="3.41751">
        <ele>90</ele>
        <time>2009-06-14T08:04:46Z</time>
      </trkpt>
      <trkpt lat="49.28538" lon="3.41764">
        <ele>96</ele>
        <time>2009-06-14T08:04:52Z</time>
      </trkpt>
      <trkpt lat="49.28544" lon="3.41775">
        <ele>96</ele>
        <time>2009-06-14T08:04:59Z</time>
      </trkpt>
      <trkpt lat="49.28552" lon="3.41785">
        <ele>86</ele>
        <time>2009-06-14T08:05:07Z</time>
      </trkpt>
      <trkpt lat="49.28558" lon="3.41796">
        <ele>86</ele>
        <time>2009-06-14T08:05:13Z</time>
      </trkpt>
      <trkpt lat="49.28564" lon="3.41808">
        <ele>86</ele>
        <time>2009-06-14T08:05:20Z</time>
      </trkpt>
      <trkpt lat="49.28569" lon="3.41821">
        <ele>86</ele>
        <time>2009-06-14T08:05:27Z</time>
      </trkpt>
      <trkpt lat="49.28575" lon="3.41832">
        <ele>86</ele>
        <time>2009-06-14T08:05:35Z</time>
      </trkpt>
      <trkpt lat="49.28582" lon="3.41841">
        <ele>86</ele>
        <time>2009-06-14T08:05:42Z</time>
      </trkpt>
      <trkpt lat="49.28588" lon="3.41853">
        <ele>86</ele>
        <time>2009-06-14T08:05:50Z</time>
      </trkpt>
      <trkpt lat="49.28594" lon="3.41865">
        <ele>86</ele>
        <time>2009-06-14T08:05:58Z</time>
      </trkpt>
      <trkpt lat="49.286" lon="3.41875">
        <ele>86</ele>
        <time>2009-06-14T08:06:06Z</time>
      </trkpt>
      <trkpt lat="49.28607" lon="3.41885">
        <ele>86</ele>
        <time>2009-06-14T08:06:13Z</time>
      </trkpt>
      <trkpt lat="49.28613" lon="3.41896">
        <ele>86</ele>
        <time>2009-06-14T08:06:20Z</time>
      </trkpt>
      <trkpt lat="49.2862" lon="3.41905">
        <ele>86</ele>
        <time>2009-06-14T08:06:27Z</time>
      </trkpt>
      <trkpt lat="49.28627" lon="3.41916">
        <ele>86</ele>
        <time>2009-06-14T08:06:35Z</time>
      </trkpt>
      <trkpt lat="49.28632" lon="3.41928">
        <ele>86</ele>
        <time>2009-06-14T08:06:43Z</time>
      </trkpt>
      <trkpt lat="49.28636" lon="3.41942">
        <ele>86</ele>
        <time>2009-06-14T08:06:51Z</time>
      </trkpt>
      <trkpt lat="49.28641" lon="3.41955">
        <ele>86</ele>
        <time>2009-06-14T08:06:59Z</time>
      </trkpt>
      <trkpt lat="49.28647" lon="3.41965">
        <ele>86</ele>
        <time>2009-06-14T08:07:06Z</time>
      </trkpt>
      <trkpt lat="49.28652" lon="3.41977">
        <ele>86</ele>
        <time>2009-06-14T08:07:14Z</time>
      </trkpt>
      <trkpt lat="49.28656" lon="3.4199">
        <ele>86</ele>
        <time>2009-06-14T08:07:21Z</time>
      </trkpt>
      <trkpt lat="49.28659" lon="3.42005">
        <ele>86</ele>
        <time>2009-06-14T08:07:28Z</time>
      </trkpt>
      <trkpt lat="49.2866" lon="3.42019">
        <ele>86</ele>
        <time>2009-06-14T08:07:36Z</time>
      </trkpt>
      <trkpt lat="49.28655" lon="3.42033">
        <ele>86</ele>
        <time>2009-06-14T08:08:12Z</time>
      </trkpt>
      <trkpt lat="49.28649" lon="3.42044">
        <ele>92</ele>
        <time>2009-06-14T08:08:21Z</time>
      </trkpt>
      <trkpt lat="49.28643" lon="3.42055">
        <ele>97</ele>
        <time>2009-06-14T08:08:29Z</time>
      </trkpt>
      <trkpt lat="49.28635" lon="3.42061">
        <ele>97</ele>
        <time>2009-06-14T08:08:35Z</time>
      </trkpt>
      <trkpt lat="49.28627" lon="3.4207">
        <ele>91</ele>
        <time>2009-06-14T08:08:43Z</time>
      </trkpt>
      <trkpt lat="49.28617" lon="3.42077">
        <ele>91</ele>
        <time>2009-06-14T08:08:52Z</time>
      </trkpt>
      <trkpt lat="49.28609" lon="3.4208">
        <ele>91</ele>
        <time>2009-06-14T08:08:59Z</time>
      </trkpt>
      <trkpt lat="49.28601" lon="3.42089">
        <ele>91</ele>
        <time>2009-06-14T08:09:08Z</time>
      </trkpt>
      <trkpt lat="49.28597" lon="3.42103">
        <ele>91</ele>
        <time>2009-06-14T08:09:16Z</time>
      </trkpt>
      <trkpt lat="49.28594" lon="3.42117">
        <ele>101</ele>
        <time>2009-06-14T08:09:28Z</time>
      </trkpt>
      <trkpt lat="49.28586" lon="3.42126">
        <ele>101</ele>
        <time>2009-06-14T08:09:36Z</time>
      </trkpt>
      <trkpt lat="49.28578" lon="3.42134">
        <ele>101</ele>
        <time>2009-06-14T08:09:47Z</time>
      </trkpt>
      <trkpt lat="49.28572" lon="3.42145">
        <ele>101</ele>
        <time>2009-06-14T08:09:56Z</time>
      </trkpt>
      <trkpt lat="49.28565" lon="3.42156">
        <ele>101</ele>
        <time>2009-06-14T08:10:07Z</time>
      </trkpt>
      <trkpt lat="49.28556" lon="3.42161">
        <ele>101</ele>
        <time>2009-06-14T08:10:15Z</time>
      </trkpt>
      <trkpt lat="49.28549" lon="3.4217">
        <ele>101</ele>
        <time>2009-06-14T08:10:24Z</time>
      </trkpt>
      <trkpt lat="49.28541" lon="3.42176">
        <ele>101</ele>
        <time>2009-06-14T08:10:33Z</time>
      </trkpt>
      <trkpt lat="49.28539" lon="3.42192">
        <ele>101</ele>
        <time>2009-06-14T08:10:40Z</time>
      </trkpt>
      <trkpt lat="49.28533" lon="3.42204">
        <ele>112</ele>
        <time>2009-06-14T08:10:49Z</time>
      </trkpt>
      <trkpt lat="49.28531" lon="3.42218">
        <ele>112</ele>
        <time>2009-06-14T08:10:59Z</time>
      </trkpt>
      <trkpt lat="49.28531" lon="3.42233">
        <ele>112</ele>
        <time>2009-06-14T08:11:09Z</time>
      </trkpt>
      <trkpt lat="49.28531" lon="3.42249">
        <ele>112</ele>
        <time>2009-06-14T08:11:18Z</time>
      </trkpt>
      <trkpt lat="49.2853" lon="3.42264">
        <ele>112</ele>
        <time>2009-06-14T08:11:26Z</time>
      </trkpt>
      <trkpt lat="49.28528" lon="3.42279">
        <ele>112</ele>
        <time>2009-06-14T08:11:35Z</time>
      </trkpt>
      <trkpt lat="49.28529" lon="3.42294">
        <ele>118</ele>
        <time>2009-06-14T08:11:43Z</time>
      </trkpt>
      <trkpt lat="49.28532" lon="3.4231">
        <ele>118</ele>
        <time>2009-06-14T08:11:58Z</time>
      </trkpt>
      <trkpt lat="49.28525" lon="3.42321">
        <ele>126</ele>
        <time>2009-06-14T08:12:10Z</time>
      </trkpt>
      <trkpt lat="49.28527" lon="3.42336">
        <ele>120</ele>
        <time>2009-06-14T08:12:18Z</time>
      </trkpt>
      <trkpt lat="49.28523" lon="3.4235">
        <ele>120</ele>
        <time>2009-06-14T08:12:29Z</time>
      </trkpt>
      <trkpt lat="49.28521" lon="3.42366">
        <ele>120</ele>
        <time>2009-06-14T08:12:37Z</time>
      </trkpt>
      <trkpt lat="49.28516" lon="3.42379">
        <ele>120</ele>
        <time>2009-06-14T08:12:49Z</time>
      </trkpt>
      <trkpt lat="49.28515" lon="3.42394">
        <ele>120</ele>
        <time>2009-06-14T08:13:02Z</time>
      </trkpt>
      <trkpt lat="49.28511" lon="3.42407">
        <ele>120</ele>
        <time>2009-06-14T08:13:18Z</time>
      </trkpt>
      <trkpt lat="49.28506" lon="3.42421">
        <ele>126</ele>
        <time>2009-06-14T08:13:32Z</time>
      </trkpt>
      <trkpt lat="49.28498" lon="3.4243">
        <ele>126</ele>
        <time>2009-06-14T08:13:41Z</time>
      </trkpt>
      <trkpt lat="49.28496" lon="3.42445">
        <ele>131</ele>
        <time>2009-06-14T08:13:51Z</time>
      </trkpt>
      <trkpt lat="49.28492" lon="3.42459">
        <ele>131</ele>
        <time>2009-06-14T08:14:03Z</time>
      </trkpt>
      <trkpt lat="49.28484" lon="3.42467">
        <ele>131</ele>
        <time>2009-06-14T08:14:14Z</time>
      </trkpt>
      <trkpt lat="49.28486" lon="3.42481">
        <ele>131</ele>
        <time>2009-06-14T08:14:27Z</time>
      </trkpt>
      <trkpt lat="49.28492" lon="3.42493">
        <ele>131</ele>
        <time>2009-06-14T08:14:35Z</time>
      </trkpt>
      <trkpt lat="49.28493" lon="3.42507">
        <ele>131</ele>
        <time>2009-06-14T08:14:43Z</time>
      </trkpt>
      <trkpt lat="49.28503" lon="3.42505">
        <ele>131</ele>
        <time>2009-06-14T08:14:52Z</time>
      </trkpt>
      <trkpt lat="49.28512" lon="3.425">
        <ele>131</ele>
        <time>2009-06-14T08:15:02Z</time>
      </trkpt>
      <trkpt lat="49.2852" lon="3.42492">
        <ele>131</ele>
        <time>2009-06-14T08:15:10Z</time>
      </trkpt>
      <trkpt lat="49.28527" lon="3.42483">
        <ele>131</ele>
        <time>2009-06-14T08:15:17Z</time>
      </trkpt>
      <trkpt lat="49.28535" lon="3.42476">
        <ele>131</ele>
        <time>2009-06-14T08:15:24Z</time>
      </trkpt>
      <trkpt lat="49.28541" lon="3.42466">
        <ele>131</ele>
        <time>2009-06-14T08:15:33Z</time>
      </trkpt>
      <trkpt lat="49.28549" lon="3.42459">
        <ele>131</ele>
        <time>2009-06-14T08:15:41Z</time>
      </trkpt>
      <trkpt lat="49.28557" lon="3.42451">
        <ele>131</ele>
        <time>2009-06-14T08:15:50Z</time>
      </trkpt>
      <trkpt lat="49.28565" lon="3.42441">
        <ele>131</ele>
        <time>2009-06-14T08:15:58Z</time>
      </trkpt>
      <trkpt lat="49.28573" lon="3.42436">
        <ele>131</ele>
        <time>2009-06-14T08:16:06Z</time>
      </trkpt>
      <trkpt lat="49.28582" lon="3.42429">
        <ele>131</ele>
        <time>2009-06-14T08:16:19Z</time>
      </trkpt>
      <trkpt lat="49.28592" lon="3.42426">
        <ele>131</ele>
        <time>2009-06-14T08:16:30Z</time>
      </trkpt>
      <trkpt lat="49.286" lon="3.42421">
        <ele>131</ele>
        <time>2009-06-14T08:16:38Z</time>
      </trkpt>
      <trkpt lat="49.2861" lon="3.42417">
        <ele>131</ele>
        <time>2009-06-14T08:16:46Z</time>
      </trkpt>
      <trkpt lat="49.28619" lon="3.42415">
        <ele>131</ele>
        <time>2009-06-14T08:16:53Z</time>
      </trkpt>
      <trkpt lat="49.28629" lon="3.42415">
        <ele>131</ele>
        <time>2009-06-14T08:17:02Z</time>
      </trkpt>
      <trkpt lat="49.28639" lon="3.42416">
        <ele>131</ele>
        <time>2009-06-14T08:17:11Z</time>
      </trkpt>
      <trkpt lat="49.28649" lon="3.42416">
        <ele>131</ele>
        <time>2009-06-14T08:17:20Z</time>
      </trkpt>
      <trkpt lat="49.28659" lon="3.42415">
        <ele>131</ele>
        <time>2009-06-14T08:17:37Z</time>
      </trkpt>
      <trkpt lat="49.28668" lon="3.42414">
        <ele>131</ele>
        <time>2009-06-14T08:17:44Z</time>
      </trkpt>
      <trkpt lat="49.28677" lon="3.42415">
        <ele>131</ele>
        <time>2009-06-14T08:17:51Z</time>
      </trkpt>
      <trkpt lat="49.28688" lon="3.42416">
        <ele>131</ele>
        <time>2009-06-14T08:17:59Z</time>
      </trkpt>
      <trkpt lat="49.28698" lon="3.42418">
        <ele>131</ele>
        <time>2009-06-14T08:18:08Z</time>
      </trkpt>
      <trkpt lat="49.28707" lon="3.4242">
        <ele>131</ele>
        <time>2009-06-14T08:18:16Z</time>
      </trkpt>
      <trkpt lat="49.28717" lon="3.42423">
        <ele>131</ele>
        <time>2009-06-14T08:18:25Z</time>
      </trkpt>
      <trkpt lat="49.28727" lon="3.42425">
        <ele>131</ele>
        <time>2009-06-14T08:18:33Z</time>
      </trkpt>
      <trkpt lat="49.28736" lon="3.42429">
        <ele>131</ele>
        <time>2009-06-14T08:18:41Z</time>
      </trkpt>
      <trkpt lat="49.28745" lon="3.42433">
        <ele>131</ele>
        <time>2009-06-14T08:18:49Z</time>
      </trkpt>
      <trkpt lat="49.28754" lon="3.42439">
        <ele>131</ele>
        <time>2009-06-14T08:18:58Z</time>
      </trkpt>
      <trkpt lat="49.28764" lon="3.42443">
        <ele>131</ele>
        <time>2009-06-14T08:19:07Z</time>
      </trkpt>
      <trkpt lat="49.28773" lon="3.4245">
        <ele>131</ele>
        <time>2009-06-14T08:19:16Z</time>
      </trkpt>
      <trkpt lat="49.28781" lon="3.42459">
        <ele>131</ele>
        <time>2009-06-14T08:19:34Z</time>
      </trkpt>
      <trkpt lat="49.2879" lon="3.42466">
        <ele>131</ele>
        <time>2009-06-14T08:19:41Z</time>
      </trkpt>
      <trkpt lat="49.28798" lon="3.42472">
        <ele>131</ele>
        <time>2009-06-14T08:19:51Z</time>
      </trkpt>
      <trkpt lat="49.28807" lon="3.42477">
        <ele>131</ele>
        <time>2009-06-14T08:20:03Z</time>
      </trkpt>
      <trkpt lat="49.28815" lon="3.42486">
        <ele>136</ele>
        <time>2009-06-14T08:20:24Z</time>
      </trkpt>
      <trkpt lat="49.28825" lon="3.42493">
        <ele>136</ele>
        <time>2009-06-14T08:20:40Z</time>
      </trkpt>
      <trkpt lat="49.28834" lon="3.42498">
        <ele>136</ele>
        <time>2009-06-14T08:20:48Z</time>
      </trkpt>
      <trkpt lat="49.28844" lon="3.42503">
        <ele>136</ele>
        <time>2009-06-14T08:20:56Z</time>
      </trkpt>
      <trkpt lat="49.28852" lon="3.42511">
        <ele>136</ele>
        <time>2009-06-14T08:21:05Z</time>
      </trkpt>
      <trkpt lat="49.28861" lon="3.42514">
        <ele>136</ele>
        <time>2009-06-14T08:21:20Z</time>
      </trkpt>
      <trkpt lat="49.28869" lon="3.4252">
        <ele>136</ele>
        <time>2009-06-14T08:21:26Z</time>
      </trkpt>
      <trkpt lat="49.28878" lon="3.42527">
        <ele>131</ele>
        <time>2009-06-14T08:21:34Z</time>
      </trkpt>
      <trkpt lat="49.28887" lon="3.42531">
        <ele>131</ele>
        <time>2009-06-14T08:21:42Z</time>
      </trkpt>
      <trkpt lat="49.28896" lon="3.42536">
        <ele>131</ele>
        <time>2009-06-14T08:21:49Z</time>
      </trkpt>
      <trkpt lat="49.28905" lon="3.42541">
        <ele>131</ele>
        <time>2009-06-14T08:21:57Z</time>
      </trkpt>
      <trkpt lat="49.28915" lon="3.42547">
        <ele>131</ele>
        <time>2009-06-14T08:22:05Z</time>
      </trkpt>
      <trkpt lat="49.28924" lon="3.42552">
        <ele>125</ele>
        <time>2009-06-14T08:22:13Z</time>
      </trkpt>
      <trkpt lat="49.28934" lon="3.42557">
        <ele>125</ele>
        <time>2009-06-14T08:22:21Z</time>
      </trkpt>
      <trkpt lat="49.28942" lon="3.42564">
        <ele>125</ele>
        <time>2009-06-14T08:22:28Z</time>
      </trkpt>
      <trkpt lat="49.28951" lon="3.42566">
        <ele>125</ele>
        <time>2009-06-14T08:22:35Z</time>
      </trkpt>
      <trkpt lat="49.2896" lon="3.4257">
        <ele>119</ele>
        <time>2009-06-14T08:22:42Z</time>
      </trkpt>
      <trkpt lat="49.28969" lon="3.42574">
        <ele>119</ele>
        <time>2009-06-14T08:22:49Z</time>
      </trkpt>
      <trkpt lat="49.28978" lon="3.42578">
        <ele>119</ele>
        <time>2009-06-14T08:22:58Z</time>
      </trkpt>
      <trkpt lat="49.28987" lon="3.42582">
        <ele>119</ele>
        <time>2009-06-14T08:23:05Z</time>
      </trkpt>
      <trkpt lat="49.28998" lon="3.42582">
        <ele>119</ele>
        <time>2009-06-14T08:23:13Z</time>
      </trkpt>
      <trkpt lat="49.29007" lon="3.4258">
        <ele>119</ele>
        <time>2009-06-14T08:23:20Z</time>
      </trkpt>
      <trkpt lat="49.29016" lon="3.42585">
        <ele>119</ele>
        <time>2009-06-14T08:23:31Z</time>
      </trkpt>
      <trkpt lat="49.29025" lon="3.42591">
        <ele>119</ele>
        <time>2009-06-14T08:23:44Z</time>
      </trkpt>
      <trkpt lat="49.29035" lon="3.42593">
        <ele>119</ele>
        <time>2009-06-14T08:23:55Z</time>
      </trkpt>
      <trkpt lat="49.29042" lon="3.42603">
        <ele>119</ele>
        <time>2009-06-14T08:24:16Z</time>
      </trkpt>
      <trkpt lat="49.29051" lon="3.42608">
        <ele>119</ele>
        <time>2009-06-14T08:24:25Z</time>
      </trkpt>
      <trkpt lat="49.29061" lon="3.42612">
        <ele>119</ele>
        <time>2009-06-14T08:24:32Z</time>
      </trkpt>
      <trkpt lat="49.29069" lon="3.42617">
        <ele>119</ele>
        <time>2009-06-14T08:24:42Z</time>
      </trkpt>
      <trkpt lat="49.29078" lon="3.42621">
        <ele>119</ele>
        <time>2009-06-14T08:24:57Z</time>
      </trkpt>
      <trkpt lat="49.29088" lon="3.42624">
        <ele>119</ele>
        <time>2009-06-14T08:25:05Z</time>
      </trkpt>
      <trkpt lat="49.29096" lon="3.42628">
        <ele>114</ele>
        <time>2009-06-14T08:25:14Z</time>
      </trkpt>
      <trkpt lat="49.29105" lon="3.42634">
        <ele>114</ele>
        <time>2009-06-14T08:25:27Z</time>
      </trkpt>
      <trkpt lat="49.29115" lon="3.42635">
        <ele>114</ele>
        <time>2009-06-14T08:25:38Z</time>
      </trkpt>
      <trkpt lat="49.29124" lon="3.42638">
        <ele>114</ele>
        <time>2009-06-14T08:25:48Z</time>
      </trkpt>
      <trkpt lat="49.29133" lon="3.42635">
        <ele>114</ele>
        <time>2009-06-14T08:26:02Z</time>
      </trkpt>
      <trkpt lat="49.29143" lon="3.42633">
        <ele>114</ele>
        <time>2009-06-14T08:26:10Z</time>
      </trkpt>
      <trkpt lat="49.29153" lon="3.42631">
        <ele>114</ele>
        <time>2009-06-14T08:26:19Z</time>
      </trkpt>
      <trkpt lat="49.29163" lon="3.42628">
        <ele>114</ele>
        <time>2009-06-14T08:26:28Z</time>
      </trkpt>
      <trkpt lat="49.29172" lon="3.42625">
        <ele>114</ele>
        <time>2009-06-14T08:26:37Z</time>
      </trkpt>
      <trkpt lat="49.29181" lon="3.42622">
        <ele>109</ele>
        <time>2009-06-14T08:26:46Z</time>
      </trkpt>
      <trkpt lat="49.2919" lon="3.42618">
        <ele>109</ele>
        <time>2009-06-14T08:26:55Z</time>
      </trkpt>
      <trkpt lat="49.292" lon="3.42616">
        <ele>109</ele>
        <time>2009-06-14T08:27:04Z</time>
      </trkpt>
      <trkpt lat="49.29209" lon="3.42613">
        <ele>109</ele>
        <time>2009-06-14T08:27:13Z</time>
      </trkpt>
      <trkpt lat="49.29218" lon="3.42609">
        <ele>109</ele>
        <time>2009-06-14T08:27:22Z</time>
      </trkpt>
      <trkpt lat="49.29228" lon="3.42606">
        <ele>109</ele>
        <time>2009-06-14T08:27:31Z</time>
      </trkpt>
      <trkpt lat="49.29237" lon="3.42602">
        <ele>109</ele>
        <time>2009-06-14T08:27:40Z</time>
      </trkpt>
      <trkpt lat="49.29247" lon="3.42599">
        <ele>109</ele>
        <time>2009-06-14T08:27:49Z</time>
      </trkpt>
      <trkpt lat="49.29256" lon="3.42594">
        <ele>109</ele>
        <time>2009-06-14T08:27:58Z</time>
      </trkpt>
      <trkpt lat="49.29265" lon="3.42591">
        <ele>103</ele>
        <time>2009-06-14T08:28:08Z</time>
      </trkpt>
      <trkpt lat="49.29274" lon="3.42586">
        <ele>103</ele>
        <time>2009-06-14T08:28:17Z</time>
      </trkpt>
      <trkpt lat="49.29283" lon="3.42582">
        <ele>103</ele>
        <time>2009-06-14T08:28:26Z</time>
      </trkpt>
      <trkpt lat="49.29292" lon="3.4258">
        <ele>103</ele>
        <time>2009-06-14T08:28:35Z</time>
      </trkpt>
      <trkpt lat="49.29302" lon="3.42576">
        <ele>103</ele>
        <time>2009-06-14T08:28:44Z</time>
      </trkpt>
      <trkpt lat="49.29311" lon="3.42573">
        <ele>103</ele>
        <time>2009-06-14T08:28:53Z</time>
      </trkpt>
      <trkpt lat="49.29321" lon="3.42569">
        <ele>103</ele>
        <time>2009-06-14T08:29:03Z</time>
      </trkpt>
      <trkpt lat="49.29331" lon="3.42565">
        <ele>103</ele>
        <time>2009-06-14T08:29:13Z</time>
      </trkpt>
      <trkpt lat="49.29341" lon="3.42565">
        <ele>97</ele>
        <time>2009-06-14T08:29:24Z</time>
      </trkpt>
      <trkpt lat="49.29351" lon="3.42564">
        <ele>97</ele>
        <time>2009-06-14T08:29:35Z</time>
      </trkpt>
      <trkpt lat="49.29361" lon="3.42565">
        <ele>97</ele>
        <time>2009-06-14T08:29:44Z</time>
      </trkpt>
      <trkpt lat="49.2937" lon="3.42566">
        <ele>97</ele>
        <time>2009-06-14T08:29:53Z</time>
      </trkpt>
      <trkpt lat="49.2938" lon="3.42566">
        <ele>97</ele>
        <time>2009-06-14T08:30:02Z</time>
      </trkpt>
      <trkpt lat="49.2939" lon="3.42566">
        <ele>97</ele>
        <time>2009-06-14T08:30:11Z</time>
      </trkpt>
      <trkpt lat="49.29401" lon="3.42569">
        <ele>97</ele>
        <time>2009-06-14T08:30:34Z</time>
      </trkpt>
      <trkpt lat="49.29411" lon="3.42567">
        <ele>97</ele>
        <time>2009-06-14T08:30:41Z</time>
      </trkpt>
      <trkpt lat="49.29421" lon="3.42566">
        <ele>97</ele>
        <time>2009-06-14T08:30:49Z</time>
      </trkpt>
      <trkpt lat="49.29431" lon="3.42565">
        <ele>97</ele>
        <time>2009-06-14T08:30:57Z</time>
      </trkpt>
      <trkpt lat="49.2944" lon="3.42566">
        <ele>92</ele>
        <time>2009-06-14T08:31:05Z</time>
      </trkpt>
      <trkpt lat="49.2945" lon="3.42566">
        <ele>92</ele>
        <time>2009-06-14T08:31:13Z</time>
      </trkpt>
      <trkpt lat="49.29459" lon="3.42567">
        <ele>92</ele>
        <time>2009-06-14T08:31:21Z</time>
      </trkpt>
      <trkpt lat="49.29469" lon="3.42568">
        <ele>92</ele>
        <time>2009-06-14T08:31:29Z</time>
      </trkpt>
      <trkpt lat="49.29479" lon="3.42569">
        <ele>92</ele>
        <time>2009-06-14T08:31:38Z</time>
      </trkpt>
      <trkpt lat="49.29488" lon="3.42571">
        <ele>92</ele>
        <time>2009-06-14T08:31:46Z</time>
      </trkpt>
      <trkpt lat="49.29498" lon="3.42571">
        <ele>92</ele>
        <time>2009-06-14T08:31:54Z</time>
      </trkpt>
      <trkpt lat="49.29508" lon="3.42572">
        <ele>92</ele>
        <time>2009-06-14T08:32:03Z</time>
      </trkpt>
      <trkpt lat="49.29517" lon="3.42571">
        <ele>92</ele>
        <time>2009-06-14T08:32:12Z</time>
      </trkpt>
      <trkpt lat="49.29526" lon="3.42566">
        <ele>92</ele>
        <time>2009-06-14T08:32:20Z</time>
      </trkpt>
      <trkpt lat="49.29535" lon="3.42561">
        <ele>85</ele>
        <time>2009-06-14T08:32:29Z</time>
      </trkpt>
      <trkpt lat="49.29544" lon="3.42556">
        <ele>85</ele>
        <time>2009-06-14T08:32:37Z</time>
      </trkpt>
      <trkpt lat="49.29554" lon="3.42551">
        <ele>85</ele>
        <time>2009-06-14T08:32:45Z</time>
      </trkpt>
      <trkpt lat="49.29563" lon="3.4255">
        <ele>85</ele>
        <time>2009-06-14T08:32:53Z</time>
      </trkpt>
      <trkpt lat="49.29572" lon="3.42554">
        <ele>85</ele>
        <time>2009-06-14T08:33:03Z</time>
      </trkpt>
      <trkpt lat="49.29581" lon="3.42557">
        <ele>85</ele>
        <time>2009-06-14T08:33:12Z</time>
      </trkpt>
      <trkpt lat="49.29589" lon="3.42564">
        <ele>85</ele>
        <time>2009-06-14T08:33:22Z</time>
      </trkpt>
      <trkpt lat="49.29598" lon="3.42573">
        <ele>85</ele>
        <time>2009-06-14T08:33:33Z</time>
      </trkpt>
      <trkpt lat="49.29605" lon="3.42582">
        <ele>85</ele>
        <time>2009-06-14T08:33:42Z</time>
      </trkpt>
      <trkpt lat="49.29612" lon="3.42592">
        <ele>85</ele>
        <time>2009-06-14T08:33:51Z</time>
      </trkpt>
      <trkpt lat="49.29618" lon="3.42603">
        <ele>85</ele>
        <time>2009-06-14T08:33:59Z</time>
      </trkpt>
      <trkpt lat="49.29625" lon="3.42613">
        <ele>85</ele>
        <time>2009-06-14T08:34:08Z</time>
      </trkpt>
      <trkpt lat="49.29631" lon="3.42624">
        <ele>80</ele>
        <time>2009-06-14T08:34:16Z</time>
      </trkpt>
      <trkpt lat="49.29637" lon="3.42635">
        <ele>80</ele>
        <time>2009-06-14T08:34:24Z</time>
      </trkpt>
      <trkpt lat="49.29644" lon="3.42645">
        <ele>80</ele>
        <time>2009-06-14T08:34:32Z</time>
      </trkpt>
      <trkpt lat="49.2965" lon="3.42656">
        <ele>80</ele>
        <time>2009-06-14T08:34:40Z</time>
      </trkpt>
      <trkpt lat="49.29656" lon="3.42666">
        <ele>80</ele>
        <time>2009-06-14T08:34:48Z</time>
      </trkpt>
      <trkpt lat="49.29665" lon="3.42674">
        <ele>80</ele>
        <time>2009-06-14T08:34:55Z</time>
      </trkpt>
      <trkpt lat="49.29674" lon="3.42678">
        <ele>80</ele>
        <time>2009-06-14T08:35:03Z</time>
      </trkpt>
      <trkpt lat="49.29684" lon="3.42678">
        <ele>80</ele>
        <time>2009-06-14T08:35:11Z</time>
      </trkpt>
      <trkpt lat="49.29693" lon="3.42676">
        <ele>80</ele>
        <time>2009-06-14T08:35:19Z</time>
      </trkpt>
      <trkpt lat="49.29703" lon="3.42672">
        <ele>80</ele>
        <time>2009-06-14T08:35:28Z</time>
      </trkpt>
      <trkpt lat="49.29712" lon="3.42668">
        <ele>80</ele>
        <time>2009-06-14T08:35:36Z</time>
      </trkpt>
      <trkpt lat="49.29722" lon="3.42662">
        <ele>80</ele>
        <time>2009-06-14T08:35:44Z</time>
      </trkpt>
      <trkpt lat="49.29731" lon="3.42655">
        <ele>80</ele>
        <time>2009-06-14T08:35:53Z</time>
      </trkpt>
      <trkpt lat="49.2974" lon="3.42648">
        <ele>80</ele>
        <time>2009-06-14T08:36:01Z</time>
      </trkpt>
      <trkpt lat="49.29748" lon="3.4264">
        <ele>80</ele>
        <time>2009-06-14T08:36:09Z</time>
      </trkpt>
      <trkpt lat="49.29756" lon="3.42631">
        <ele>80</ele>
        <time>2009-06-14T08:36:16Z</time>
      </trkpt>
      <trkpt lat="49.29763" lon="3.42623">
        <ele>80</ele>
        <time>2009-06-14T08:36:23Z</time>
      </trkpt>
      <trkpt lat="49.29771" lon="3.42614">
        <ele>80</ele>
        <time>2009-06-14T08:36:31Z</time>
      </trkpt>
      <trkpt lat="49.2978" lon="3.42606">
        <ele>80</ele>
        <time>2009-06-14T08:36:39Z</time>
      </trkpt>
      <trkpt lat="49.29788" lon="3.42598">
        <ele>75</ele>
        <time>2009-06-14T08:36:48Z</time>
      </trkpt>
      <trkpt lat="49.29796" lon="3.42589">
        <ele>75</ele>
        <time>2009-06-14T08:37:31Z</time>
      </trkpt>
      <trkpt lat="49.29804" lon="3.4258">
        <ele>75</ele>
        <time>2009-06-14T08:37:38Z</time>
      </trkpt>
      <trkpt lat="49.29812" lon="3.42572">
        <ele>75</ele>
        <time>2009-06-14T08:37:45Z</time>
      </trkpt>
      <trkpt lat="49.2982" lon="3.42564">
        <ele>75</ele>
        <time>2009-06-14T08:38:20Z</time>
      </trkpt>
      <trkpt lat="49.29827" lon="3.42553">
        <ele>75</ele>
        <time>2009-06-14T08:38:28Z</time>
      </trkpt>
      <trkpt lat="49.29836" lon="3.42546">
        <ele>75</ele>
        <time>2009-06-14T08:38:37Z</time>
      </trkpt>
      <trkpt lat="49.29841" lon="3.42533">
        <ele>75</ele>
        <time>2009-06-14T08:38:46Z</time>
      </trkpt>
      <trkpt lat="49.29846" lon="3.42521">
        <ele>75</ele>
        <time>2009-06-14T08:38:54Z</time>
      </trkpt>
      <trkpt lat="49.29851" lon="3.4251">
        <ele>75</ele>
        <time>2009-06-14T08:39:02Z</time>
      </trkpt>
      <trkpt lat="49.29857" lon="3.42498">
        <ele>75</ele>
        <time>2009-06-14T08:39:11Z</time>
      </trkpt>
      <trkpt lat="49.29864" lon="3.42488">
        <ele>75</ele>
        <time>2009-06-14T08:40:04Z</time>
      </trkpt>
      <trkpt lat="49.29872" lon="3.42479">
        <ele>75</ele>
        <time>2009-06-14T08:40:13Z</time>
      </trkpt>
      <trkpt lat="49.2988" lon="3.42473">
        <ele>75</ele>
        <time>2009-06-14T08:40:21Z</time>
      </trkpt>
      <trkpt lat="49.29889" lon="3.42466">
        <ele>75</ele>
        <time>2009-06-14T08:40:29Z</time>
      </trkpt>
      <trkpt lat="49.29898" lon="3.42462">
        <ele>75</ele>
        <time>2009-06-14T08:40:37Z</time>
      </trkpt>
      <trkpt lat="49.29907" lon="3.42458">
        <ele>75</ele>
        <time>2009-06-14T08:41:01Z</time>
      </trkpt>
      <trkpt lat="49.29916" lon="3.42466">
        <ele>75</ele>
        <time>2009-06-14T08:41:08Z</time>
      </trkpt>
      <trkpt lat="49.29925" lon="3.42472">
        <ele>75</ele>
        <time>2009-06-14T08:41:16Z</time>
      </trkpt>
      <trkpt lat="49.29934" lon="3.42479">
        <ele>75</ele>
        <time>2009-06-14T08:41:24Z</time>
      </trkpt>
      <trkpt lat="49.29942" lon="3.42487">
        <ele>75</ele>
        <time>2009-06-14T08:41:32Z</time>
      </trkpt>
      <trkpt lat="49.29949" lon="3.42496">
        <ele>75</ele>
        <time>2009-06-14T08:41:39Z</time>
      </trkpt>
      <trkpt lat="49.29958" lon="3.42504">
        <ele>75</ele>
        <time>2009-06-14T08:41:45Z</time>
      </trkpt>
      <trkpt lat="49.29967" lon="3.42513">
        <ele>75</ele>
        <time>2009-06-14T08:41:52Z</time>
      </trkpt>
      <trkpt lat="49.29975" lon="3.42522">
        <ele>75</ele>
        <time>2009-06-14T08:41:59Z</time>
      </trkpt>
      <trkpt lat="49.29982" lon="3.42532">
        <ele>80</ele>
        <time>2009-06-14T08:42:06Z</time>
      </trkpt>
      <trkpt lat="49.29989" lon="3.42543">
        <ele>80</ele>
        <time>2009-06-14T08:42:13Z</time>
      </trkpt>
      <trkpt lat="49.29994" lon="3.42556">
        <ele>80</ele>
        <time>2009-06-14T08:42:21Z</time>
      </trkpt>
      <trkpt lat="49.30001" lon="3.42566">
        <ele>80</ele>
        <time>2009-06-14T08:42:28Z</time>
      </trkpt>
      <trkpt lat="49.30006" lon="3.42577">
        <ele>80</ele>
        <time>2009-06-14T08:42:36Z</time>
      </trkpt>
      <trkpt lat="49.30007" lon="3.42591">
        <ele>80</ele>
        <time>2009-06-14T08:43:09Z</time>
      </trkpt>
      <trkpt lat="49.30005" lon="3.42606">
        <ele>80</ele>
        <time>2009-06-14T08:43:17Z</time>
      </trkpt>
      <trkpt lat="49.30001" lon="3.42618">
        <ele>88</ele>
        <time>2009-06-14T08:43:28Z</time>
      </trkpt>
      <trkpt lat="49.29996" lon="3.42632">
        <ele>88</ele>
        <time>2009-06-14T08:43:37Z</time>
      </trkpt>
      <trkpt lat="49.2999" lon="3.42643">
        <ele>79</ele>
        <time>2009-06-14T08:44:05Z</time>
      </trkpt>
      <trkpt lat="49.29993" lon="3.4265">
        <ele>90</ele>
        <time>2009-06-14T08:46:19Z</time>
      </trkpt>
      <trkpt lat="49.29989" lon="3.42662">
        <ele>79</ele>
        <time>2009-06-14T08:47:56Z</time>
      </trkpt>
      <trkpt lat="49.29982" lon="3.42673">
        <ele>79</ele>
        <time>2009-06-14T08:48:04Z</time>
      </trkpt>
      <trkpt lat="49.29972" lon="3.42679">
        <ele>91</ele>
        <time>2009-06-14T08:48:10Z</time>
      </trkpt>
      <trkpt lat="49.29964" lon="3.42685">
        <ele>91</ele>
        <time>2009-06-14T08:48:16Z</time>
      </trkpt>
      <trkpt lat="49.29955" lon="3.42691">
        <ele>91</ele>
        <time>2009-06-14T08:48:23Z</time>
      </trkpt>
      <trkpt lat="49.29947" lon="3.42699">
        <ele>91</ele>
        <time>2009-06-14T08:48:29Z</time>
      </trkpt>
      <trkpt lat="49.29938" lon="3.42706">
        <ele>85</ele>
        <time>2009-06-14T08:48:36Z</time>
      </trkpt>
      <trkpt lat="49.2993" lon="3.42714">
        <ele>85</ele>
        <time>2009-06-14T08:48:43Z</time>
      </trkpt>
      <trkpt lat="49.29921" lon="3.42721">
        <ele>85</ele>
        <time>2009-06-14T08:48:50Z</time>
      </trkpt>
      <trkpt lat="49.29913" lon="3.42729">
        <ele>85</ele>
        <time>2009-06-14T08:48:57Z</time>
      </trkpt>
      <trkpt lat="49.29909" lon="3.42741">
        <ele>85</ele>
        <time>2009-06-14T08:49:03Z</time>
      </trkpt>
      <trkpt lat="49.29905" lon="3.42755">
        <ele>85</ele>
        <time>2009-06-14T08:49:09Z</time>
      </trkpt>
      <trkpt lat="49.29903" lon="3.42769">
        <ele>85</ele>
        <time>2009-06-14T08:49:16Z</time>
      </trkpt>
      <trkpt lat="49.29903" lon="3.42785">
        <ele>85</ele>
        <time>2009-06-14T08:49:23Z</time>
      </trkpt>
      <trkpt lat="49.29903" lon="3.42799">
        <ele>85</ele>
        <time>2009-06-14T08:49:30Z</time>
      </trkpt>
      <trkpt lat="49.29904" lon="3.42814">
        <ele>91</ele>
        <time>2009-06-14T08:49:37Z</time>
      </trkpt>
      <trkpt lat="49.29904" lon="3.42829">
        <ele>91</ele>
        <time>2009-06-14T08:49:44Z</time>
      </trkpt>
      <trkpt lat="49.29907" lon="3.42844">
        <ele>91</ele>
        <time>2009-06-14T08:49:51Z</time>
      </trkpt>
      <trkpt lat="49.29907" lon="3.42859">
        <ele>91</ele>
        <time>2009-06-14T08:49:58Z</time>
      </trkpt>
      <trkpt lat="49.29905" lon="3.42875">
        <ele>91</ele>
        <time>2009-06-14T08:50:07Z</time>
      </trkpt>
      <trkpt lat="49.29905" lon="3.42891">
        <ele>84</ele>
        <time>2009-06-14T08:50:15Z</time>
      </trkpt>
      <trkpt lat="49.29907" lon="3.42906">
        <ele>84</ele>
        <time>2009-06-14T08:50:23Z</time>
      </trkpt>
      <trkpt lat="49.29907" lon="3.42922">
        <ele>84</ele>
        <time>2009-06-14T08:50:31Z</time>
      </trkpt>
      <trkpt lat="49.29907" lon="3.42937">
        <ele>84</ele>
        <time>2009-06-14T08:50:39Z</time>
      </trkpt>
      <trkpt lat="49.29907" lon="3.42953">
        <ele>84</ele>
        <time>2009-06-14T08:50:47Z</time>
      </trkpt>
      <trkpt lat="49.29908" lon="3.42967">
        <ele>84</ele>
        <time>2009-06-14T08:50:55Z</time>
      </trkpt>
      <trkpt lat="49.29908" lon="3.42981">
        <ele>84</ele>
        <time>2009-06-14T08:51:03Z</time>
      </trkpt>
      <trkpt lat="49.2991" lon="3.42996">
        <ele>84</ele>
        <time>2009-06-14T08:51:11Z</time>
      </trkpt>
      <trkpt lat="49.29911" lon="3.43011">
        <ele>84</ele>
        <time>2009-06-14T08:51:20Z</time>
      </trkpt>
      <trkpt lat="49.29915" lon="3.43024">
        <ele>84</ele>
        <time>2009-06-14T08:51:29Z</time>
      </trkpt>
      <trkpt lat="49.29918" lon="3.43039">
        <ele>84</ele>
        <time>2009-06-14T08:51:37Z</time>
      </trkpt>
      <trkpt lat="49.2992" lon="3.43053">
        <ele>84</ele>
        <time>2009-06-14T08:51:45Z</time>
      </trkpt>
      <trkpt lat="49.29922" lon="3.43068">
        <ele>84</ele>
        <time>2009-06-14T08:51:53Z</time>
      </trkpt>
      <trkpt lat="49.29925" lon="3.43082">
        <ele>84</ele>
        <time>2009-06-14T08:52:01Z</time>
      </trkpt>
      <trkpt lat="49.29927" lon="3.43097">
        <ele>84</ele>
        <time>2009-06-14T08:52:09Z</time>
      </trkpt>
      <trkpt lat="49.29929" lon="3.43111">
        <ele>84</ele>
        <time>2009-06-14T08:52:16Z</time>
      </trkpt>
      <trkpt lat="49.29932" lon="3.43124">
        <ele>84</ele>
        <time>2009-06-14T08:52:23Z</time>
      </trkpt>
      <trkpt lat="49.29937" lon="3.43138">
        <ele>84</ele>
        <time>2009-06-14T08:52:30Z</time>
      </trkpt>
      <trkpt lat="49.29942" lon="3.43151">
        <ele>84</ele>
        <time>2009-06-14T08:52:38Z</time>
      </trkpt>
      <trkpt lat="49.29948" lon="3.43163">
        <ele>84</ele>
        <time>2009-06-14T08:52:45Z</time>
      </trkpt>
      <trkpt lat="49.29954" lon="3.43174">
        <ele>84</ele>
        <time>2009-06-14T08:52:52Z</time>
      </trkpt>
      <trkpt lat="49.29961" lon="3.43184">
        <ele>84</ele>
        <time>2009-06-14T08:52:59Z</time>
      </trkpt>
      <trkpt lat="49.29967" lon="3.43195">
        <ele>84</ele>
        <time>2009-06-14T08:53:06Z</time>
      </trkpt>
      <trkpt lat="49.29974" lon="3.43205">
        <ele>84</ele>
        <time>2009-06-14T08:53:13Z</time>
      </trkpt>
      <trkpt lat="49.29981" lon="3.43215">
        <ele>84</ele>
        <time>2009-06-14T08:53:20Z</time>
      </trkpt>
      <trkpt lat="49.29987" lon="3.43226">
        <ele>84</ele>
        <time>2009-06-14T08:53:27Z</time>
      </trkpt>
      <trkpt lat="49.29993" lon="3.43236">
        <ele>84</ele>
        <time>2009-06-14T08:53:34Z</time>
      </trkpt>
      <trkpt lat="49.3" lon="3.43247">
        <ele>84</ele>
        <time>2009-06-14T08:53:41Z</time>
      </trkpt>
      <trkpt lat="49.30006" lon="3.43257">
        <ele>84</ele>
        <time>2009-06-14T08:53:48Z</time>
      </trkpt>
      <trkpt lat="49.30014" lon="3.43268">
        <ele>84</ele>
        <time>2009-06-14T08:53:55Z</time>
      </trkpt>
      <trkpt lat="49.3002" lon="3.43279">
        <ele>84</ele>
        <time>2009-06-14T08:54:02Z</time>
      </trkpt>
      <trkpt lat="49.30028" lon="3.43289">
        <ele>84</ele>
        <time>2009-06-14T08:54:14Z</time>
      </trkpt>
      <trkpt lat="49.30035" lon="3.43298">
        <ele>84</ele>
        <time>2009-06-14T08:54:21Z</time>
      </trkpt>
      <trkpt lat="49.30042" lon="3.43308">
        <ele>84</ele>
        <time>2009-06-14T08:54:28Z</time>
      </trkpt>
      <trkpt lat="49.30048" lon="3.43318">
        <ele>84</ele>
        <time>2009-06-14T08:54:35Z</time>
      </trkpt>
      <trkpt lat="49.30055" lon="3.43328">
        <ele>84</ele>
        <time>2009-06-14T08:54:43Z</time>
      </trkpt>
      <trkpt lat="49.30059" lon="3.43341">
        <ele>84</ele>
        <time>2009-06-14T08:54:51Z</time>
      </trkpt>
      <trkpt lat="49.30053" lon="3.43353">
        <ele>84</ele>
        <time>2009-06-14T08:55:00Z</time>
      </trkpt>
      <trkpt lat="49.30045" lon="3.43361">
        <ele>84</ele>
        <time>2009-06-14T08:55:08Z</time>
      </trkpt>
      <trkpt lat="49.30038" lon="3.4337">
        <ele>84</ele>
        <time>2009-06-14T08:55:15Z</time>
      </trkpt>
      <trkpt lat="49.30031" lon="3.43379">
        <ele>84</ele>
        <time>2009-06-14T08:55:23Z</time>
      </trkpt>
      <trkpt lat="49.30023" lon="3.43387">
        <ele>84</ele>
        <time>2009-06-14T08:55:30Z</time>
      </trkpt>
      <trkpt lat="49.30014" lon="3.43395">
        <ele>84</ele>
        <time>2009-06-14T08:55:39Z</time>
      </trkpt>
      <trkpt lat="49.30005" lon="3.43402">
        <ele>84</ele>
        <time>2009-06-14T08:55:47Z</time>
      </trkpt>
      <trkpt lat="49.29996" lon="3.43408">
        <ele>84</ele>
        <time>2009-06-14T08:55:56Z</time>
      </trkpt>
      <trkpt lat="49.29988" lon="3.43414">
        <ele>84</ele>
        <time>2009-06-14T08:56:05Z</time>
      </trkpt>
      <trkpt lat="49.29979" lon="3.43421">
        <ele>84</ele>
        <time>2009-06-14T08:56:13Z</time>
      </trkpt>
      <trkpt lat="49.29971" lon="3.43428">
        <ele>84</ele>
        <time>2009-06-14T08:56:22Z</time>
      </trkpt>
      <trkpt lat="49.29962" lon="3.43437">
        <ele>84</ele>
        <time>2009-06-14T08:56:30Z</time>
      </trkpt>
      <trkpt lat="49.29954" lon="3.43445">
        <ele>84</ele>
        <time>2009-06-14T08:56:38Z</time>
      </trkpt>
      <trkpt lat="49.29946" lon="3.43454">
        <ele>84</ele>
        <time>2009-06-14T08:56:45Z</time>
      </trkpt>
      <trkpt lat="49.29939" lon="3.43465">
        <ele>84</ele>
        <time>2009-06-14T08:56:53Z</time>
      </trkpt>
      <trkpt lat="49.29934" lon="3.43475">
        <ele>84</ele>
        <time>2009-06-14T08:57:00Z</time>
      </trkpt>
      <trkpt lat="49.29928" lon="3.43487">
        <ele>84</ele>
        <time>2009-06-14T08:57:07Z</time>
      </trkpt>
      <trkpt lat="49.29924" lon="3.435">
        <ele>84</ele>
        <time>2009-06-14T08:57:15Z</time>
      </trkpt>
      <trkpt lat="49.2992" lon="3.43512">
        <ele>90</ele>
        <time>2009-06-14T08:57:24Z</time>
      </trkpt>
      <trkpt lat="49.29915" lon="3.43525">
        <ele>90</ele>
        <time>2009-06-14T08:57:32Z</time>
      </trkpt>
      <trkpt lat="49.2991" lon="3.43537">
        <ele>90</ele>
        <time>2009-06-14T08:57:40Z</time>
      </trkpt>
      <trkpt lat="49.29905" lon="3.4355">
        <ele>90</ele>
        <time>2009-06-14T08:57:48Z</time>
      </trkpt>
      <trkpt lat="49.29898" lon="3.4356">
        <ele>84</ele>
        <time>2009-06-14T08:57:57Z</time>
      </trkpt>
      <trkpt lat="49.29889" lon="3.43566">
        <ele>84</ele>
        <time>2009-06-14T08:58:06Z</time>
      </trkpt>
      <trkpt lat="49.2988" lon="3.43568">
        <ele>84</ele>
        <time>2009-06-14T08:58:14Z</time>
      </trkpt>
      <trkpt lat="49.2987" lon="3.43571">
        <ele>84</ele>
        <time>2009-06-14T08:58:23Z</time>
      </trkpt>
      <trkpt lat="49.29861" lon="3.43575">
        <ele>84</ele>
        <time>2009-06-14T08:58:31Z</time>
      </trkpt>
      <trkpt lat="49.29853" lon="3.43584">
        <ele>84</ele>
        <time>2009-06-14T08:58:39Z</time>
      </trkpt>
      <trkpt lat="49.29847" lon="3.43596">
        <ele>84</ele>
        <time>2009-06-14T08:58:48Z</time>
      </trkpt>
      <trkpt lat="49.29841" lon="3.43608">
        <ele>84</ele>
        <time>2009-06-14T08:58:57Z</time>
      </trkpt>
      <trkpt lat="49.29833" lon="3.43615">
        <ele>91</ele>
        <time>2009-06-14T08:59:05Z</time>
      </trkpt>
      <trkpt lat="49.29823" lon="3.43611">
        <ele>91</ele>
        <time>2009-06-14T08:59:14Z</time>
      </trkpt>
      <trkpt lat="49.29814" lon="3.43606">
        <ele>91</ele>
        <time>2009-06-14T08:59:22Z</time>
      </trkpt>
      <trkpt lat="49.29806" lon="3.436">
        <ele>91</ele>
        <time>2009-06-14T08:59:30Z</time>
      </trkpt>
      <trkpt lat="49.29796" lon="3.43596">
        <ele>91</ele>
        <time>2009-06-14T08:59:38Z</time>
      </trkpt>
      <trkpt lat="49.29787" lon="3.43591">
        <ele>91</ele>
        <time>2009-06-14T08:59:46Z</time>
      </trkpt>
      <trkpt lat="49.29777" lon="3.43588">
        <ele>96</ele>
        <time>2009-06-14T08:59:54Z</time>
      </trkpt>
      <trkpt lat="49.29767" lon="3.43586">
        <ele>96</ele>
        <time>2009-06-14T09:00:02Z</time>
      </trkpt>
      <trkpt lat="49.29757" lon="3.43585">
        <ele>96</ele>
        <time>2009-06-14T09:00:10Z</time>
      </trkpt>
      <trkpt lat="49.29748" lon="3.43587">
        <ele>96</ele>
        <time>2009-06-14T09:00:18Z</time>
      </trkpt>
      <trkpt lat="49.29738" lon="3.43589">
        <ele>96</ele>
        <time>2009-06-14T09:00:26Z</time>
      </trkpt>
      <trkpt lat="49.29729" lon="3.43591">
        <ele>96</ele>
        <time>2009-06-14T09:00:34Z</time>
      </trkpt>
      <trkpt lat="49.2972" lon="3.43596">
        <ele>96</ele>
        <time>2009-06-14T09:00:41Z</time>
      </trkpt>
      <trkpt lat="49.2971" lon="3.43599">
        <ele>96</ele>
        <time>2009-06-14T09:00:49Z</time>
      </trkpt>
      <trkpt lat="49.297" lon="3.43602">
        <ele>96</ele>
        <time>2009-06-14T09:00:57Z</time>
      </trkpt>
      <trkpt lat="49.2969" lon="3.43604">
        <ele>96</ele>
        <time>2009-06-14T09:01:05Z</time>
      </trkpt>
      <trkpt lat="49.2968" lon="3.43605">
        <ele>96</ele>
        <time>2009-06-14T09:01:13Z</time>
      </trkpt>
      <trkpt lat="49.29671" lon="3.43606">
        <ele>96</ele>
        <time>2009-06-14T09:01:21Z</time>
      </trkpt>
      <trkpt lat="49.29661" lon="3.43604">
        <ele>96</ele>
        <time>2009-06-14T09:01:29Z</time>
      </trkpt>
      <trkpt lat="49.29652" lon="3.43602">
        <ele>96</ele>
        <time>2009-06-14T09:01:37Z</time>
      </trkpt>
      <trkpt lat="49.29642" lon="3.436">
        <ele>96</ele>
        <time>2009-06-14T09:01:45Z</time>
      </trkpt>
      <trkpt lat="49.29632" lon="3.43598">
        <ele>96</ele>
        <time>2009-06-14T09:01:53Z</time>
      </trkpt>
      <trkpt lat="49.29622" lon="3.43598">
        <ele>96</ele>
        <time>2009-06-14T09:02:01Z</time>
      </trkpt>
      <trkpt lat="49.29612" lon="3.43597">
        <ele>96</ele>
        <time>2009-06-14T09:02:09Z</time>
      </trkpt>
      <trkpt lat="49.29602" lon="3.43598">
        <ele>96</ele>
        <time>2009-06-14T09:02:17Z</time>
      </trkpt>
      <trkpt lat="49.29593" lon="3.43602">
        <ele>96</ele>
        <time>2009-06-14T09:02:25Z</time>
      </trkpt>
      <trkpt lat="49.29583" lon="3.43605">
        <ele>90</ele>
        <time>2009-06-14T09:02:33Z</time>
      </trkpt>
      <trkpt lat="49.29575" lon="3.43609">
        <ele>90</ele>
        <time>2009-06-14T09:02:40Z</time>
      </trkpt>
      <trkpt lat="49.29566" lon="3.43615">
        <ele>90</ele>
        <time>2009-06-14T09:02:48Z</time>
      </trkpt>
      <trkpt lat="49.29556" lon="3.43621">
        <ele>90</ele>
        <time>2009-06-14T09:02:56Z</time>
      </trkpt>
      <trkpt lat="49.29548" lon="3.43629">
        <ele>90</ele>
        <time>2009-06-14T09:03:04Z</time>
      </trkpt>
      <trkpt lat="49.29541" lon="3.43638">
        <ele>90</ele>
        <time>2009-06-14T09:03:13Z</time>
      </trkpt>
      <trkpt lat="49.29533" lon="3.43648">
        <ele>90</ele>
        <time>2009-06-14T09:03:21Z</time>
      </trkpt>
      <trkpt lat="49.29525" lon="3.43658">
        <ele>90</ele>
        <time>2009-06-14T09:03:29Z</time>
      </trkpt>
      <trkpt lat="49.29519" lon="3.43668">
        <ele>90</ele>
        <time>2009-06-14T09:03:37Z</time>
      </trkpt>
      <trkpt lat="49.29512" lon="3.43678">
        <ele>90</ele>
        <time>2009-06-14T09:03:45Z</time>
      </trkpt>
      <trkpt lat="49.29505" lon="3.43689">
        <ele>90</ele>
        <time>2009-06-14T09:03:53Z</time>
      </trkpt>
      <trkpt lat="49.29498" lon="3.437">
        <ele>90</ele>
        <time>2009-06-14T09:04:01Z</time>
      </trkpt>
      <trkpt lat="49.29491" lon="3.43711">
        <ele>90</ele>
        <time>2009-06-14T09:04:09Z</time>
      </trkpt>
      <trkpt lat="49.29485" lon="3.43722">
        <ele>90</ele>
        <time>2009-06-14T09:04:17Z</time>
      </trkpt>
      <trkpt lat="49.29478" lon="3.43733">
        <ele>90</ele>
        <time>2009-06-14T09:04:25Z</time>
      </trkpt>
      <trkpt lat="49.29472" lon="3.43744">
        <ele>90</ele>
        <time>2009-06-14T09:04:33Z</time>
      </trkpt>
      <trkpt lat="49.29466" lon="3.43756">
        <ele>90</ele>
        <time>2009-06-14T09:04:41Z</time>
      </trkpt>
      <trkpt lat="49.29459" lon="3.43767">
        <ele>90</ele>
        <time>2009-06-14T09:04:50Z</time>
      </trkpt>
      <trkpt lat="49.29453" lon="3.43778">
        <ele>90</ele>
        <time>2009-06-14T09:04:58Z</time>
      </trkpt>
      <trkpt lat="49.29447" lon="3.4379">
        <ele>90</ele>
        <time>2009-06-14T09:05:06Z</time>
      </trkpt>
      <trkpt lat="49.29441" lon="3.43801">
        <ele>90</ele>
        <time>2009-06-14T09:05:14Z</time>
      </trkpt>
      <trkpt lat="49.29434" lon="3.43813">
        <ele>90</ele>
        <time>2009-06-14T09:05:23Z</time>
      </trkpt>
      <trkpt lat="49.29429" lon="3.43827">
        <ele>90</ele>
        <time>2009-06-14T09:05:32Z</time>
      </trkpt>
      <trkpt lat="49.29425" lon="3.4384">
        <ele>90</ele>
        <time>2009-06-14T09:05:40Z</time>
      </trkpt>
      <trkpt lat="49.29421" lon="3.43854">
        <ele>90</ele>
        <time>2009-06-14T09:05:48Z</time>
      </trkpt>
      <trkpt lat="49.29417" lon="3.43866">
        <ele>90</ele>
        <time>2009-06-14T09:05:56Z</time>
      </trkpt>
      <trkpt lat="49.29414" lon="3.4388">
        <ele>90</ele>
        <time>2009-06-14T09:06:04Z</time>
      </trkpt>
      <trkpt lat="49.29412" lon="3.43893">
        <ele>90</ele>
        <time>2009-06-14T09:06:12Z</time>
      </trkpt>
      <trkpt lat="49.29409" lon="3.43907">
        <ele>90</ele>
        <time>2009-06-14T09:06:20Z</time>
      </trkpt>
      <trkpt lat="49.29407" lon="3.43922">
        <ele>90</ele>
        <time>2009-06-14T09:06:28Z</time>
      </trkpt>
      <trkpt lat="49.29405" lon="3.43936">
        <ele>90</ele>
        <time>2009-06-14T09:06:35Z</time>
      </trkpt>
      <trkpt lat="49.29404" lon="3.43951">
        <ele>90</ele>
        <time>2009-06-14T09:06:43Z</time>
      </trkpt>
      <trkpt lat="49.29403" lon="3.43967">
        <ele>90</ele>
        <time>2009-06-14T09:06:51Z</time>
      </trkpt>
      <trkpt lat="49.29403" lon="3.43982">
        <ele>90</ele>
        <time>2009-06-14T09:06:59Z</time>
      </trkpt>
      <trkpt lat="49.29403" lon="3.43997">
        <ele>90</ele>
        <time>2009-06-14T09:07:07Z</time>
      </trkpt>
      <trkpt lat="49.29402" lon="3.44013">
        <ele>90</ele>
        <time>2009-06-14T09:07:15Z</time>
      </trkpt>
      <trkpt lat="49.29401" lon="3.44027">
        <ele>90</ele>
        <time>2009-06-14T09:07:23Z</time>
      </trkpt>
      <trkpt lat="49.294" lon="3.44041">
        <ele>90</ele>
        <time>2009-06-14T09:07:31Z</time>
      </trkpt>
      <trkpt lat="49.29397" lon="3.44057">
        <ele>90</ele>
        <time>2009-06-14T09:07:40Z</time>
      </trkpt>
      <trkpt lat="49.29395" lon="3.44072">
        <ele>90</ele>
        <time>2009-06-14T09:07:48Z</time>
      </trkpt>
      <trkpt lat="49.29391" lon="3.44085">
        <ele>90</ele>
        <time>2009-06-14T09:07:56Z</time>
      </trkpt>
      <trkpt lat="49.29387" lon="3.44098">
        <ele>90</ele>
        <time>2009-06-14T09:08:04Z</time>
      </trkpt>
      <trkpt lat="49.29381" lon="3.4411">
        <ele>90</ele>
        <time>2009-06-14T09:08:13Z</time>
      </trkpt>
      <trkpt lat="49.29375" lon="3.4412">
        <ele>90</ele>
        <time>2009-06-14T09:08:22Z</time>
      </trkpt>
      <trkpt lat="49.29368" lon="3.44131">
        <ele>90</ele>
        <time>2009-06-14T09:08:29Z</time>
      </trkpt>
      <trkpt lat="49.29361" lon="3.4414">
        <ele>90</ele>
        <time>2009-06-14T09:08:36Z</time>
      </trkpt>
      <trkpt lat="49.29354" lon="3.4415">
        <ele>90</ele>
        <time>2009-06-14T09:08:45Z</time>
      </trkpt>
      <trkpt lat="49.29344" lon="3.44158">
        <ele>90</ele>
        <time>2009-06-14T09:08:53Z</time>
      </trkpt>
      <trkpt lat="49.29338" lon="3.44169">
        <ele>90</ele>
        <time>2009-06-14T09:09:00Z</time>
      </trkpt>
      <trkpt lat="49.2933" lon="3.44174">
        <ele>90</ele>
        <time>2009-06-14T09:09:10Z</time>
      </trkpt>
      <trkpt lat="49.2932" lon="3.44177">
        <ele>90</ele>
        <time>2009-06-14T09:09:20Z</time>
      </trkpt>
      <trkpt lat="49.29311" lon="3.44183">
        <ele>90</ele>
        <time>2009-06-14T09:09:29Z</time>
      </trkpt>
      <trkpt lat="49.29302" lon="3.4419">
        <ele>90</ele>
        <time>2009-06-14T09:09:36Z</time>
      </trkpt>
      <trkpt lat="49.29294" lon="3.44199">
        <ele>90</ele>
        <time>2009-06-14T09:09:44Z</time>
      </trkpt>
      <trkpt lat="49.29286" lon="3.44209">
        <ele>90</ele>
        <time>2009-06-14T09:09:52Z</time>
      </trkpt>
      <trkpt lat="49.29279" lon="3.44217">
        <ele>90</ele>
        <time>2009-06-14T09:09:59Z</time>
      </trkpt>
      <trkpt lat="49.29272" lon="3.44227">
        <ele>90</ele>
        <time>2009-06-14T09:10:06Z</time>
      </trkpt>
      <trkpt lat="49.29264" lon="3.44237">
        <ele>96</ele>
        <time>2009-06-14T09:10:14Z</time>
      </trkpt>
      <trkpt lat="49.29257" lon="3.44247">
        <ele>96</ele>
        <time>2009-06-14T09:10:23Z</time>
      </trkpt>
      <trkpt lat="49.29253" lon="3.4426">
        <ele>96</ele>
        <time>2009-06-14T09:10:30Z</time>
      </trkpt>
      <trkpt lat="49.29247" lon="3.44272">
        <ele>103</ele>
        <time>2009-06-14T09:10:38Z</time>
      </trkpt>
      <trkpt lat="49.29242" lon="3.44285">
        <ele>103</ele>
        <time>2009-06-14T09:10:47Z</time>
      </trkpt>
      <trkpt lat="49.29238" lon="3.443">
        <ele>103</ele>
        <time>2009-06-14T09:10:55Z</time>
      </trkpt>
      <trkpt lat="49.29233" lon="3.44313">
        <ele>98</ele>
        <time>2009-06-14T09:11:02Z</time>
      </trkpt>
      <trkpt lat="49.2923" lon="3.44327">
        <ele>98</ele>
        <time>2009-06-14T09:11:10Z</time>
      </trkpt>
      <trkpt lat="49.29227" lon="3.44342">
        <ele>98</ele>
        <time>2009-06-14T09:11:18Z</time>
      </trkpt>
      <trkpt lat="49.29225" lon="3.44357">
        <ele>98</ele>
        <time>2009-06-14T09:11:25Z</time>
      </trkpt>
      <trkpt lat="49.29223" lon="3.44372">
        <ele>98</ele>
        <time>2009-06-14T09:11:33Z</time>
      </trkpt>
      <trkpt lat="49.29222" lon="3.44387">
        <ele>98</ele>
        <time>2009-06-14T09:11:43Z</time>
      </trkpt>
      <trkpt lat="49.29221" lon="3.44402">
        <ele>98</ele>
        <time>2009-06-14T09:11:51Z</time>
      </trkpt>
      <trkpt lat="49.29219" lon="3.44416">
        <ele>98</ele>
        <time>2009-06-14T09:11:59Z</time>
      </trkpt>
      <trkpt lat="49.29217" lon="3.44431">
        <ele>92</ele>
        <time>2009-06-14T09:12:09Z</time>
      </trkpt>
      <trkpt lat="49.29216" lon="3.44446">
        <ele>92</ele>
        <time>2009-06-14T09:12:16Z</time>
      </trkpt>
      <trkpt lat="49.29216" lon="3.44461">
        <ele>92</ele>
        <time>2009-06-14T09:12:24Z</time>
      </trkpt>
      <trkpt lat="49.29217" lon="3.44476">
        <ele>92</ele>
        <time>2009-06-14T09:12:32Z</time>
      </trkpt>
      <trkpt lat="49.29217" lon="3.44491">
        <ele>92</ele>
        <time>2009-06-14T09:12:40Z</time>
      </trkpt>
      <trkpt lat="49.29217" lon="3.44506">
        <ele>92</ele>
        <time>2009-06-14T09:12:48Z</time>
      </trkpt>
      <trkpt lat="49.29218" lon="3.4452">
        <ele>92</ele>
        <time>2009-06-14T09:12:56Z</time>
      </trkpt>
      <trkpt lat="49.29219" lon="3.44535">
        <ele>92</ele>
        <time>2009-06-14T09:13:04Z</time>
      </trkpt>
      <trkpt lat="49.2922" lon="3.44551">
        <ele>92</ele>
        <time>2009-06-14T09:13:12Z</time>
      </trkpt>
      <trkpt lat="49.29221" lon="3.44565">
        <ele>92</ele>
        <time>2009-06-14T09:13:20Z</time>
      </trkpt>
      <trkpt lat="49.29223" lon="3.4458">
        <ele>92</ele>
        <time>2009-06-14T09:13:28Z</time>
      </trkpt>
      <trkpt lat="49.29224" lon="3.44595">
        <ele>92</ele>
        <time>2009-06-14T09:13:36Z</time>
      </trkpt>
      <trkpt lat="49.29226" lon="3.44609">
        <ele>92</ele>
        <time>2009-06-14T09:13:44Z</time>
      </trkpt>
      <trkpt lat="49.29229" lon="3.44623">
        <ele>92</ele>
        <time>2009-06-14T09:13:52Z</time>
      </trkpt>
      <trkpt lat="49.29232" lon="3.44637">
        <ele>92</ele>
        <time>2009-06-14T09:14:00Z</time>
      </trkpt>
      <trkpt lat="49.29234" lon="3.4465">
        <ele>92</ele>
        <time>2009-06-14T09:14:08Z</time>
      </trkpt>
      <trkpt lat="49.29238" lon="3.44665">
        <ele>92</ele>
        <time>2009-06-14T09:14:17Z</time>
      </trkpt>
      <trkpt lat="49.29242" lon="3.44679">
        <ele>92</ele>
        <time>2009-06-14T09:14:27Z</time>
      </trkpt>
      <trkpt lat="49.29251" lon="3.44685">
        <ele>92</ele>
        <time>2009-06-14T09:14:37Z</time>
      </trkpt>
      <trkpt lat="49.2926" lon="3.44684">
        <ele>92</ele>
        <time>2009-06-14T09:14:45Z</time>
      </trkpt>
      <trkpt lat="49.2927" lon="3.44681">
        <ele>92</ele>
        <time>2009-06-14T09:14:53Z</time>
      </trkpt>
      <trkpt lat="49.2928" lon="3.4468">
        <ele>92</ele>
        <time>2009-06-14T09:15:01Z</time>
      </trkpt>
      <trkpt lat="49.2929" lon="3.44682">
        <ele>92</ele>
        <time>2009-06-14T09:15:09Z</time>
      </trkpt>
      <trkpt lat="49.29299" lon="3.44689">
        <ele>92</ele>
        <time>2009-06-14T09:15:18Z</time>
      </trkpt>
      <trkpt lat="49.29302" lon="3.44702">
        <ele>92</ele>
        <time>2009-06-14T09:15:27Z</time>
      </trkpt>
      <trkpt lat="49.29297" lon="3.44715">
        <ele>92</ele>
        <time>2009-06-14T09:15:35Z</time>
      </trkpt>
      <trkpt lat="49.29289" lon="3.44723">
        <ele>98</ele>
        <time>2009-06-14T09:15:54Z</time>
      </trkpt>
      <trkpt lat="49.29283" lon="3.44733">
        <ele>98</ele>
        <time>2009-06-14T09:16:01Z</time>
      </trkpt>
      <trkpt lat="49.29274" lon="3.44741">
        <ele>98</ele>
        <time>2009-06-14T09:16:10Z</time>
      </trkpt>
      <trkpt lat="49.29266" lon="3.44749">
        <ele>98</ele>
        <time>2009-06-14T09:16:18Z</time>
      </trkpt>
      <trkpt lat="49.29258" lon="3.44759">
        <ele>104</ele>
        <time>2009-06-14T09:16:26Z</time>
      </trkpt>
      <trkpt lat="49.2925" lon="3.44766">
        <ele>104</ele>
        <time>2009-06-14T09:16:33Z</time>
      </trkpt>
      <trkpt lat="49.29241" lon="3.44775">
        <ele>104</ele>
        <time>2009-06-14T09:16:41Z</time>
      </trkpt>
      <trkpt lat="49.29232" lon="3.44783">
        <ele>104</ele>
        <time>2009-06-14T09:16:51Z</time>
      </trkpt>
      <trkpt lat="49.29223" lon="3.4479">
        <ele>104</ele>
        <time>2009-06-14T09:17:00Z</time>
      </trkpt>
      <trkpt lat="49.29214" lon="3.44796">
        <ele>113</ele>
        <time>2009-06-14T09:17:10Z</time>
      </trkpt>
      <trkpt lat="49.29206" lon="3.448">
        <ele>113</ele>
        <time>2009-06-14T09:17:19Z</time>
      </trkpt>
      <trkpt lat="49.29196" lon="3.44805">
        <ele>113</ele>
        <time>2009-06-14T09:17:28Z</time>
      </trkpt>
      <trkpt lat="49.29187" lon="3.4481">
        <ele>113</ele>
        <time>2009-06-14T09:17:37Z</time>
      </trkpt>
      <trkpt lat="49.29179" lon="3.44817">
        <ele>113</ele>
        <time>2009-06-14T09:17:47Z</time>
      </trkpt>
      <trkpt lat="49.29172" lon="3.44827">
        <ele>113</ele>
        <time>2009-06-14T09:17:56Z</time>
      </trkpt>
      <trkpt lat="49.29166" lon="3.4484">
        <ele>113</ele>
        <time>2009-06-14T09:18:04Z</time>
      </trkpt>
      <trkpt lat="49.29161" lon="3.44852">
        <ele>113</ele>
        <time>2009-06-14T09:18:12Z</time>
      </trkpt>
      <trkpt lat="49.29156" lon="3.44864">
        <ele>113</ele>
        <time>2009-06-14T09:18:22Z</time>
      </trkpt>
      <trkpt lat="49.29151" lon="3.44878">
        <ele>113</ele>
        <time>2009-06-14T09:18:47Z</time>
      </trkpt>
      <trkpt lat="49.29146" lon="3.4489">
        <ele>113</ele>
        <time>2009-06-14T09:19:02Z</time>
      </trkpt>
      <trkpt lat="49.29144" lon="3.44905">
        <ele>113</ele>
        <time>2009-06-14T09:19:39Z</time>
      </trkpt>
      <trkpt lat="49.29144" lon="3.44919">
        <ele>113</ele>
        <time>2009-06-14T09:21:10Z</time>
      </trkpt>
      <trkpt lat="49.29145" lon="3.44934">
        <ele>113</ele>
        <time>2009-06-14T09:21:33Z</time>
      </trkpt>
      <trkpt lat="49.29144" lon="3.4495">
        <ele>113</ele>
        <time>2009-06-14T09:21:42Z</time>
      </trkpt>
      <trkpt lat="49.29142" lon="3.44964">
        <ele>113</ele>
        <time>2009-06-14T09:21:50Z</time>
      </trkpt>
      <trkpt lat="49.29139" lon="3.44977">
        <ele>113</ele>
        <time>2009-06-14T09:21:58Z</time>
      </trkpt>
      <trkpt lat="49.29135" lon="3.44992">
        <ele>113</ele>
        <time>2009-06-14T09:22:07Z</time>
      </trkpt>
      <trkpt lat="49.29129" lon="3.45005">
        <ele>119</ele>
        <time>2009-06-14T09:22:16Z</time>
      </trkpt>
      <trkpt lat="49.29124" lon="3.45019">
        <ele>119</ele>
        <time>2009-06-14T09:22:24Z</time>
      </trkpt>
      <trkpt lat="49.29118" lon="3.45029">
        <ele>119</ele>
        <time>2009-06-14T09:22:31Z</time>
      </trkpt>
      <trkpt lat="49.29112" lon="3.45039">
        <ele>119</ele>
        <time>2009-06-14T09:22:38Z</time>
      </trkpt>
      <trkpt lat="49.29105" lon="3.45051">
        <ele>119</ele>
        <time>2009-06-14T09:22:45Z</time>
      </trkpt>
      <trkpt lat="49.29099" lon="3.45063">
        <ele>119</ele>
        <time>2009-06-14T09:22:52Z</time>
      </trkpt>
      <trkpt lat="49.29095" lon="3.45076">
        <ele>119</ele>
        <time>2009-06-14T09:23:00Z</time>
      </trkpt>
      <trkpt lat="49.29093" lon="3.4509">
        <ele>119</ele>
        <time>2009-06-14T09:23:07Z</time>
      </trkpt>
      <trkpt lat="49.29089" lon="3.45104">
        <ele>119</ele>
        <time>2009-06-14T09:23:15Z</time>
      </trkpt>
      <trkpt lat="49.29086" lon="3.45118">
        <ele>119</ele>
        <time>2009-06-14T09:23:23Z</time>
      </trkpt>
      <trkpt lat="49.29081" lon="3.45131">
        <ele>119</ele>
        <time>2009-06-14T09:23:31Z</time>
      </trkpt>
      <trkpt lat="49.29077" lon="3.45144">
        <ele>119</ele>
        <time>2009-06-14T09:23:38Z</time>
      </trkpt>
      <trkpt lat="49.29073" lon="3.45158">
        <ele>119</ele>
        <time>2009-06-14T09:23:46Z</time>
      </trkpt>
      <trkpt lat="49.2907" lon="3.45172">
        <ele>119</ele>
        <time>2009-06-14T09:23:55Z</time>
      </trkpt>
      <trkpt lat="49.29068" lon="3.45187">
        <ele>119</ele>
        <time>2009-06-14T09:24:03Z</time>
      </trkpt>
      <trkpt lat="49.29066" lon="3.45202">
        <ele>119</ele>
        <time>2009-06-14T09:24:11Z</time>
      </trkpt>
      <trkpt lat="49.29065" lon="3.45217">
        <ele>119</ele>
        <time>2009-06-14T09:24:19Z</time>
      </trkpt>
      <trkpt lat="49.29064" lon="3.45232">
        <ele>113</ele>
        <time>2009-06-14T09:24:27Z</time>
      </trkpt>
      <trkpt lat="49.29062" lon="3.45248">
        <ele>113</ele>
        <time>2009-06-14T09:24:36Z</time>
      </trkpt>
      <trkpt lat="49.29053" lon="3.45241">
        <ele>113</ele>
        <time>2009-06-14T09:24:58Z</time>
      </trkpt>
      <trkpt lat="49.29049" lon="3.45228">
        <ele>108</ele>
        <time>2009-06-14T09:25:07Z</time>
      </trkpt>
      <trkpt lat="49.29044" lon="3.45215">
        <ele>108</ele>
        <time>2009-06-14T09:25:17Z</time>
      </trkpt>
      <trkpt lat="49.29036" lon="3.45209">
        <ele>108</ele>
        <time>2009-06-14T09:25:25Z</time>
      </trkpt>
      <trkpt lat="49.29026" lon="3.45205">
        <ele>98</ele>
        <time>2009-06-14T09:25:34Z</time>
      </trkpt>
      <trkpt lat="49.29018" lon="3.45198">
        <ele>98</ele>
        <time>2009-06-14T09:25:43Z</time>
      </trkpt>
      <trkpt lat="49.29009" lon="3.45194">
        <ele>98</ele>
        <time>2009-06-14T09:25:51Z</time>
      </trkpt>
      <trkpt lat="49.28999" lon="3.45189">
        <ele>90</ele>
        <time>2009-06-14T09:26:00Z</time>
      </trkpt>
      <trkpt lat="49.2899" lon="3.45186">
        <ele>90</ele>
        <time>2009-06-14T09:26:08Z</time>
      </trkpt>
      <trkpt lat="49.28981" lon="3.4518">
        <ele>90</ele>
        <time>2009-06-14T09:26:16Z</time>
      </trkpt>
      <trkpt lat="49.28971" lon="3.45177">
        <ele>90</ele>
        <time>2009-06-14T09:26:24Z</time>
      </trkpt>
      <trkpt lat="49.28962" lon="3.45173">
        <ele>90</ele>
        <time>2009-06-14T09:26:31Z</time>
      </trkpt>
      <trkpt lat="49.28953" lon="3.45169">
        <ele>90</ele>
        <time>2009-06-14T09:26:39Z</time>
      </trkpt>
      <trkpt lat="49.28943" lon="3.45165">
        <ele>90</ele>
        <time>2009-06-14T09:26:47Z</time>
      </trkpt>
      <trkpt lat="49.28934" lon="3.45162">
        <ele>90</ele>
        <time>2009-06-14T09:26:55Z</time>
      </trkpt>
      <trkpt lat="49.28925" lon="3.45158">
        <ele>90</ele>
        <time>2009-06-14T09:27:02Z</time>
      </trkpt>
      <trkpt lat="49.28915" lon="3.45154">
        <ele>90</ele>
        <time>2009-06-14T09:27:10Z</time>
      </trkpt>
      <trkpt lat="49.28905" lon="3.45152">
        <ele>90</ele>
        <time>2009-06-14T09:27:18Z</time>
      </trkpt>
      <trkpt lat="49.28895" lon="3.45148">
        <ele>90</ele>
        <time>2009-06-14T09:27:26Z</time>
      </trkpt>
      <trkpt lat="49.28885" lon="3.45145">
        <ele>90</ele>
        <time>2009-06-14T09:27:34Z</time>
      </trkpt>
      <trkpt lat="49.28876" lon="3.45143">
        <ele>90</ele>
        <time>2009-06-14T09:27:42Z</time>
      </trkpt>
      <trkpt lat="49.28867" lon="3.45141">
        <ele>90</ele>
        <time>2009-06-14T09:27:50Z</time>
      </trkpt>
      <trkpt lat="49.28857" lon="3.45137">
        <ele>90</ele>
        <time>2009-06-14T09:27:59Z</time>
      </trkpt>
      <trkpt lat="49.28846" lon="3.45135">
        <ele>90</ele>
        <time>2009-06-14T09:28:07Z</time>
      </trkpt>
      <trkpt lat="49.28836" lon="3.45135">
        <ele>85</ele>
        <time>2009-06-14T09:28:15Z</time>
      </trkpt>
      <trkpt lat="49.28826" lon="3.45132">
        <ele>85</ele>
        <time>2009-06-14T09:28:24Z</time>
      </trkpt>
      <trkpt lat="49.28816" lon="3.45131">
        <ele>85</ele>
        <time>2009-06-14T09:28:33Z</time>
      </trkpt>
      <trkpt lat="49.28806" lon="3.45132">
        <ele>85</ele>
        <time>2009-06-14T09:28:42Z</time>
      </trkpt>
      <trkpt lat="49.28797" lon="3.4513">
        <ele>85</ele>
        <time>2009-06-14T09:28:52Z</time>
      </trkpt>
      <trkpt lat="49.28787" lon="3.45126">
        <ele>92</ele>
        <time>2009-06-14T09:29:02Z</time>
      </trkpt>
      <trkpt lat="49.28782" lon="3.45112">
        <ele>92</ele>
        <time>2009-06-14T09:29:12Z</time>
      </trkpt>
      <trkpt lat="49.28778" lon="3.451">
        <ele>92</ele>
        <time>2009-06-14T09:29:20Z</time>
      </trkpt>
      <trkpt lat="49.28774" lon="3.45087">
        <ele>92</ele>
        <time>2009-06-14T09:29:28Z</time>
      </trkpt>
      <trkpt lat="49.28769" lon="3.45074">
        <ele>92</ele>
        <time>2009-06-14T09:29:37Z</time>
      </trkpt>
      <trkpt lat="49.28767" lon="3.4506">
        <ele>92</ele>
        <time>2009-06-14T09:29:45Z</time>
      </trkpt>
      <trkpt lat="49.28764" lon="3.45047">
        <ele>92</ele>
        <time>2009-06-14T09:29:52Z</time>
      </trkpt>
      <trkpt lat="49.28757" lon="3.45038">
        <ele>92</ele>
        <time>2009-06-14T09:30:13Z</time>
      </trkpt>
      <trkpt lat="49.28762" lon="3.45026">
        <ele>83</ele>
        <time>2009-06-14T09:35:03Z</time>
      </trkpt>
      <trkpt lat="49.28756" lon="3.45038">
        <ele>83</ele>
        <time>2009-06-14T09:36:32Z</time>
      </trkpt>
      <trkpt lat="49.28762" lon="3.45048">
        <ele>94</ele>
        <time>2009-06-14T09:39:31Z</time>
      </trkpt>
      <trkpt lat="49.28764" lon="3.45034">
        <ele>86</ele>
        <time>2009-06-14T09:39:55Z</time>
      </trkpt>
      <trkpt lat="49.28764" lon="3.45048">
        <ele>86</ele>
        <time>2009-06-14T09:41:00Z</time>
      </trkpt>
      <trkpt lat="49.28767" lon="3.45063">
        <ele>86</ele>
        <time>2009-06-14T09:41:08Z</time>
      </trkpt>
      <trkpt lat="49.28771" lon="3.45075">
        <ele>86</ele>
        <time>2009-06-14T09:41:15Z</time>
      </trkpt>
      <trkpt lat="49.28775" lon="3.45089">
        <ele>91</ele>
        <time>2009-06-14T09:41:22Z</time>
      </trkpt>
      <trkpt lat="49.2878" lon="3.45102">
        <ele>91</ele>
        <time>2009-06-14T09:41:30Z</time>
      </trkpt>
      <trkpt lat="49.28784" lon="3.45115">
        <ele>91</ele>
        <time>2009-06-14T09:41:38Z</time>
      </trkpt>
      <trkpt lat="49.28784" lon="3.45129">
        <ele>91</ele>
        <time>2009-06-14T09:41:46Z</time>
      </trkpt>
      <trkpt lat="49.28774" lon="3.45131">
        <ele>91</ele>
        <time>2009-06-14T09:41:55Z</time>
      </trkpt>
      <trkpt lat="49.28765" lon="3.4513">
        <ele>91</ele>
        <time>2009-06-14T09:42:03Z</time>
      </trkpt>
      <trkpt lat="49.28755" lon="3.45126">
        <ele>91</ele>
        <time>2009-06-14T09:42:12Z</time>
      </trkpt>
      <trkpt lat="49.28746" lon="3.45122">
        <ele>100</ele>
        <time>2009-06-14T09:42:20Z</time>
      </trkpt>
      <trkpt lat="49.28737" lon="3.45117">
        <ele>100</ele>
        <time>2009-06-14T09:42:29Z</time>
      </trkpt>
      <trkpt lat="49.28729" lon="3.45109">
        <ele>116</ele>
        <time>2009-06-14T09:42:39Z</time>
      </trkpt>
      <trkpt lat="49.2872" lon="3.45101">
        <ele>116</ele>
        <time>2009-06-14T09:42:47Z</time>
      </trkpt>
      <trkpt lat="49.28712" lon="3.45095">
        <ele>116</ele>
        <time>2009-06-14T09:42:55Z</time>
      </trkpt>
      <trkpt lat="49.28702" lon="3.45091">
        <ele>109</ele>
        <time>2009-06-14T09:43:03Z</time>
      </trkpt>
      <trkpt lat="49.28693" lon="3.45089">
        <ele>103</ele>
        <time>2009-06-14T09:43:11Z</time>
      </trkpt>
      <trkpt lat="49.28683" lon="3.45083">
        <ele>103</ele>
        <time>2009-06-14T09:43:19Z</time>
      </trkpt>
      <trkpt lat="49.28675" lon="3.45077">
        <ele>103</ele>
        <time>2009-06-14T09:43:27Z</time>
      </trkpt>
      <trkpt lat="49.28666" lon="3.45071">
        <ele>103</ele>
        <time>2009-06-14T09:43:36Z</time>
      </trkpt>
      <trkpt lat="49.28657" lon="3.45065">
        <ele>103</ele>
        <time>2009-06-14T09:43:43Z</time>
      </trkpt>
      <trkpt lat="49.28648" lon="3.45058">
        <ele>103</ele>
        <time>2009-06-14T09:43:52Z</time>
      </trkpt>
      <trkpt lat="49.28639" lon="3.45052">
        <ele>103</ele>
        <time>2009-06-14T09:44:01Z</time>
      </trkpt>
      <trkpt lat="49.28629" lon="3.45047">
        <ele>103</ele>
        <time>2009-06-14T09:44:10Z</time>
      </trkpt>
      <trkpt lat="49.2862" lon="3.45043">
        <ele>103</ele>
        <time>2009-06-14T09:44:19Z</time>
      </trkpt>
      <trkpt lat="49.28612" lon="3.45037">
        <ele>103</ele>
        <time>2009-06-14T09:44:27Z</time>
      </trkpt>
      <trkpt lat="49.28603" lon="3.45032">
        <ele>108</ele>
        <time>2009-06-14T09:44:36Z</time>
      </trkpt>
      <trkpt lat="49.28595" lon="3.45027">
        <ele>108</ele>
        <time>2009-06-14T09:44:45Z</time>
      </trkpt>
      <trkpt lat="49.28586" lon="3.45022">
        <ele>108</ele>
        <time>2009-06-14T09:44:53Z</time>
      </trkpt>
      <trkpt lat="49.28577" lon="3.45019">
        <ele>108</ele>
        <time>2009-06-14T09:45:01Z</time>
      </trkpt>
      <trkpt lat="49.28567" lon="3.45018">
        <ele>108</ele>
        <time>2009-06-14T09:45:09Z</time>
      </trkpt>
      <trkpt lat="49.28558" lon="3.45013">
        <ele>108</ele>
        <time>2009-06-14T09:45:19Z</time>
      </trkpt>
      <trkpt lat="49.28549" lon="3.45004">
        <ele>108</ele>
        <time>2009-06-14T09:45:28Z</time>
      </trkpt>
      <trkpt lat="49.28542" lon="3.44996">
        <ele>108</ele>
        <time>2009-06-14T09:45:36Z</time>
      </trkpt>
      <trkpt lat="49.28533" lon="3.44987">
        <ele>115</ele>
        <time>2009-06-14T09:45:45Z</time>
      </trkpt>
      <trkpt lat="49.28526" lon="3.44978">
        <ele>115</ele>
        <time>2009-06-14T09:45:53Z</time>
      </trkpt>
      <trkpt lat="49.2852" lon="3.44968">
        <ele>115</ele>
        <time>2009-06-14T09:46:01Z</time>
      </trkpt>
      <trkpt lat="49.28512" lon="3.44959">
        <ele>109</ele>
        <time>2009-06-14T09:46:10Z</time>
      </trkpt>
      <trkpt lat="49.28506" lon="3.44948">
        <ele>109</ele>
        <time>2009-06-14T09:46:18Z</time>
      </trkpt>
      <trkpt lat="49.285" lon="3.44937">
        <ele>109</ele>
        <time>2009-06-14T09:46:25Z</time>
      </trkpt>
      <trkpt lat="49.28493" lon="3.44927">
        <ele>109</ele>
        <time>2009-06-14T09:46:32Z</time>
      </trkpt>
      <trkpt lat="49.28486" lon="3.44917">
        <ele>109</ele>
        <time>2009-06-14T09:46:40Z</time>
      </trkpt>
      <trkpt lat="49.28478" lon="3.44908">
        <ele>109</ele>
        <time>2009-06-14T09:46:47Z</time>
      </trkpt>
      <trkpt lat="49.28468" lon="3.44906">
        <ele>109</ele>
        <time>2009-06-14T09:46:55Z</time>
      </trkpt>
      <trkpt lat="49.28459" lon="3.44908">
        <ele>109</ele>
        <time>2009-06-14T09:47:02Z</time>
      </trkpt>
      <trkpt lat="49.28449" lon="3.44911">
        <ele>109</ele>
        <time>2009-06-14T09:47:10Z</time>
      </trkpt>
      <trkpt lat="49.28441" lon="3.44916">
        <ele>109</ele>
        <time>2009-06-14T09:47:19Z</time>
      </trkpt>
      <trkpt lat="49.28432" lon="3.44921">
        <ele>109</ele>
        <time>2009-06-14T09:47:31Z</time>
      </trkpt>
      <trkpt lat="49.28421" lon="3.44924">
        <ele>103</ele>
        <time>2009-06-14T09:47:59Z</time>
      </trkpt>
      <trkpt lat="49.28428" lon="3.44937">
        <ele>123</ele>
        <time>2009-06-14T09:48:20Z</time>
      </trkpt>
      <trkpt lat="49.28432" lon="3.44923">
        <ele>123</ele>
        <time>2009-06-14T09:48:35Z</time>
      </trkpt>
      <trkpt lat="49.28439" lon="3.44914">
        <ele>112</ele>
        <time>2009-06-14T09:48:46Z</time>
      </trkpt>
      <trkpt lat="49.28435" lon="3.44901">
        <ele>112</ele>
        <time>2009-06-14T09:49:12Z</time>
      </trkpt>
      <trkpt lat="49.28427" lon="3.44893">
        <ele>112</ele>
        <time>2009-06-14T09:49:19Z</time>
      </trkpt>
      <trkpt lat="49.28416" lon="3.44896">
        <ele>112</ele>
        <time>2009-06-14T09:49:26Z</time>
      </trkpt>
      <trkpt lat="49.28405" lon="3.44898">
        <ele>112</ele>
        <time>2009-06-14T09:49:34Z</time>
      </trkpt>
      <trkpt lat="49.28395" lon="3.44899">
        <ele>112</ele>
        <time>2009-06-14T09:49:42Z</time>
      </trkpt>
      <trkpt lat="49.28385" lon="3.44897">
        <ele>112</ele>
        <time>2009-06-14T09:49:49Z</time>
      </trkpt>
      <trkpt lat="49.28375" lon="3.44899">
        <ele>112</ele>
        <time>2009-06-14T09:49:58Z</time>
      </trkpt>
      <trkpt lat="49.28366" lon="3.44903">
        <ele>112</ele>
        <time>2009-06-14T09:50:07Z</time>
      </trkpt>
      <trkpt lat="49.28357" lon="3.44907">
        <ele>112</ele>
        <time>2009-06-14T09:50:15Z</time>
      </trkpt>
      <trkpt lat="49.28348" lon="3.44914">
        <ele>112</ele>
        <time>2009-06-14T09:50:23Z</time>
      </trkpt>
      <trkpt lat="49.28339" lon="3.4492">
        <ele>112</ele>
        <time>2009-06-14T09:50:31Z</time>
      </trkpt>
      <trkpt lat="49.2833" lon="3.44924">
        <ele>112</ele>
        <time>2009-06-14T09:50:38Z</time>
      </trkpt>
      <trkpt lat="49.28321" lon="3.44929">
        <ele>112</ele>
        <time>2009-06-14T09:50:45Z</time>
      </trkpt>
      <trkpt lat="49.28312" lon="3.44934">
        <ele>112</ele>
        <time>2009-06-14T09:50:53Z</time>
      </trkpt>
      <trkpt lat="49.28303" lon="3.4494">
        <ele>112</ele>
        <time>2009-06-14T09:51:02Z</time>
      </trkpt>
      <trkpt lat="49.28294" lon="3.44945">
        <ele>112</ele>
        <time>2009-06-14T09:51:10Z</time>
      </trkpt>
      <trkpt lat="49.28284" lon="3.44948">
        <ele>112</ele>
        <time>2009-06-14T09:51:19Z</time>
      </trkpt>
      <trkpt lat="49.28275" lon="3.44951">
        <ele>112</ele>
        <time>2009-06-14T09:51:27Z</time>
      </trkpt>
      <trkpt lat="49.28266" lon="3.44953">
        <ele>112</ele>
        <time>2009-06-14T09:51:36Z</time>
      </trkpt>
      <trkpt lat="49.28257" lon="3.44957">
        <ele>112</ele>
        <time>2009-06-14T09:51:44Z</time>
      </trkpt>
      <trkpt lat="49.28248" lon="3.44961">
        <ele>112</ele>
        <time>2009-06-14T09:51:51Z</time>
      </trkpt>
      <trkpt lat="49.28238" lon="3.44963">
        <ele>112</ele>
        <time>2009-06-14T09:52:00Z</time>
      </trkpt>
      <trkpt lat="49.28229" lon="3.44958">
        <ele>112</ele>
        <time>2009-06-14T09:52:09Z</time>
      </trkpt>
      <trkpt lat="49.28221" lon="3.4495">
        <ele>112</ele>
        <time>2009-06-14T09:52:17Z</time>
      </trkpt>
      <trkpt lat="49.28215" lon="3.44939">
        <ele>112</ele>
        <time>2009-06-14T09:52:25Z</time>
      </trkpt>
      <trkpt lat="49.28208" lon="3.44926">
        <ele>117</ele>
        <time>2009-06-14T09:52:34Z</time>
      </trkpt>
      <trkpt lat="49.28199" lon="3.44921">
        <ele>117</ele>
        <time>2009-06-14T09:52:43Z</time>
      </trkpt>
      <trkpt lat="49.2819" lon="3.44928">
        <ele>117</ele>
        <time>2009-06-14T09:52:51Z</time>
      </trkpt>
      <trkpt lat="49.28183" lon="3.44937">
        <ele>117</ele>
        <time>2009-06-14T09:52:59Z</time>
      </trkpt>
      <trkpt lat="49.28176" lon="3.44946">
        <ele>117</ele>
        <time>2009-06-14T09:53:07Z</time>
      </trkpt>
      <trkpt lat="49.2817" lon="3.44958">
        <ele>117</ele>
        <time>2009-06-14T09:53:16Z</time>
      </trkpt>
      <trkpt lat="49.28164" lon="3.44968">
        <ele>117</ele>
        <time>2009-06-14T09:53:25Z</time>
      </trkpt>
      <trkpt lat="49.28157" lon="3.44978">
        <ele>117</ele>
        <time>2009-06-14T09:53:34Z</time>
      </trkpt>
      <trkpt lat="49.28153" lon="3.44966">
        <ele>117</ele>
        <time>2009-06-14T09:53:44Z</time>
      </trkpt>
      <trkpt lat="49.28154" lon="3.44951">
        <ele>117</ele>
        <time>2009-06-14T09:53:52Z</time>
      </trkpt>
      <trkpt lat="49.28154" lon="3.44937">
        <ele>117</ele>
        <time>2009-06-14T09:54:00Z</time>
      </trkpt>
      <trkpt lat="49.28156" lon="3.44921">
        <ele>117</ele>
        <time>2009-06-14T09:54:10Z</time>
      </trkpt>
      <trkpt lat="49.28155" lon="3.44906">
        <ele>117</ele>
        <time>2009-06-14T09:54:19Z</time>
      </trkpt>
      <trkpt lat="49.28155" lon="3.44891">
        <ele>117</ele>
        <time>2009-06-14T09:54:28Z</time>
      </trkpt>
      <trkpt lat="49.28157" lon="3.44876">
        <ele>117</ele>
        <time>2009-06-14T09:54:37Z</time>
      </trkpt>
      <trkpt lat="49.28156" lon="3.44861">
        <ele>117</ele>
        <time>2009-06-14T09:54:46Z</time>
      </trkpt>
      <trkpt lat="49.28156" lon="3.44845">
        <ele>122</ele>
        <time>2009-06-14T09:54:55Z</time>
      </trkpt>
      <trkpt lat="49.28154" lon="3.4483">
        <ele>122</ele>
        <time>2009-06-14T09:55:04Z</time>
      </trkpt>
      <trkpt lat="49.28153" lon="3.44815">
        <ele>122</ele>
        <time>2009-06-14T09:55:13Z</time>
      </trkpt>
      <trkpt lat="49.28148" lon="3.44801">
        <ele>122</ele>
        <time>2009-06-14T09:55:22Z</time>
      </trkpt>
      <trkpt lat="49.28142" lon="3.44789">
        <ele>122</ele>
        <time>2009-06-14T09:55:31Z</time>
      </trkpt>
      <trkpt lat="49.28136" lon="3.44778">
        <ele>122</ele>
        <time>2009-06-14T09:55:39Z</time>
      </trkpt>
      <trkpt lat="49.28131" lon="3.44766">
        <ele>122</ele>
        <time>2009-06-14T09:55:48Z</time>
      </trkpt>
      <trkpt lat="49.28123" lon="3.44757">
        <ele>122</ele>
        <time>2009-06-14T09:55:59Z</time>
      </trkpt>
      <trkpt lat="49.28119" lon="3.44745">
        <ele>122</ele>
        <time>2009-06-14T09:56:08Z</time>
      </trkpt>
      <trkpt lat="49.28115" lon="3.44731">
        <ele>122</ele>
        <time>2009-06-14T09:56:17Z</time>
      </trkpt>
      <trkpt lat="49.28112" lon="3.44717">
        <ele>122</ele>
        <time>2009-06-14T09:56:26Z</time>
      </trkpt>
      <trkpt lat="49.28107" lon="3.44704">
        <ele>122</ele>
        <time>2009-06-14T09:56:34Z</time>
      </trkpt>
      <trkpt lat="49.28103" lon="3.44692">
        <ele>122</ele>
        <time>2009-06-14T09:56:42Z</time>
      </trkpt>
      <trkpt lat="49.281" lon="3.44678">
        <ele>122</ele>
        <time>2009-06-14T09:56:50Z</time>
      </trkpt>
      <trkpt lat="49.28098" lon="3.44665">
        <ele>122</ele>
        <time>2009-06-14T09:56:58Z</time>
      </trkpt>
      <trkpt lat="49.28094" lon="3.44651">
        <ele>122</ele>
        <time>2009-06-14T09:57:06Z</time>
      </trkpt>
      <trkpt lat="49.28092" lon="3.44638">
        <ele>122</ele>
        <time>2009-06-14T09:57:14Z</time>
      </trkpt>
      <trkpt lat="49.28088" lon="3.44624">
        <ele>122</ele>
        <time>2009-06-14T09:57:22Z</time>
      </trkpt>
      <trkpt lat="49.28084" lon="3.44611">
        <ele>122</ele>
        <time>2009-06-14T09:57:30Z</time>
      </trkpt>
      <trkpt lat="49.28082" lon="3.44596">
        <ele>122</ele>
        <time>2009-06-14T09:57:38Z</time>
      </trkpt>
      <trkpt lat="49.28079" lon="3.44583">
        <ele>127</ele>
        <time>2009-06-14T09:57:46Z</time>
      </trkpt>
      <trkpt lat="49.28076" lon="3.44568">
        <ele>127</ele>
        <time>2009-06-14T09:57:54Z</time>
      </trkpt>
      <trkpt lat="49.28073" lon="3.44554">
        <ele>127</ele>
        <time>2009-06-14T09:58:02Z</time>
      </trkpt>
      <trkpt lat="49.2807" lon="3.44541">
        <ele>127</ele>
        <time>2009-06-14T09:58:10Z</time>
      </trkpt>
      <trkpt lat="49.28068" lon="3.44526">
        <ele>127</ele>
        <time>2009-06-14T09:58:18Z</time>
      </trkpt>
      <trkpt lat="49.28066" lon="3.44513">
        <ele>127</ele>
        <time>2009-06-14T09:58:26Z</time>
      </trkpt>
      <trkpt lat="49.28063" lon="3.44499">
        <ele>127</ele>
        <time>2009-06-14T09:58:34Z</time>
      </trkpt>
      <trkpt lat="49.2806" lon="3.44484">
        <ele>127</ele>
        <time>2009-06-14T09:58:42Z</time>
      </trkpt>
      <trkpt lat="49.28057" lon="3.44471">
        <ele>127</ele>
        <time>2009-06-14T09:58:50Z</time>
      </trkpt>
      <trkpt lat="49.28055" lon="3.44456">
        <ele>127</ele>
        <time>2009-06-14T09:58:58Z</time>
      </trkpt>
      <trkpt lat="49.28052" lon="3.44443">
        <ele>127</ele>
        <time>2009-06-14T09:59:06Z</time>
      </trkpt>
      <trkpt lat="49.2805" lon="3.44429">
        <ele>127</ele>
        <time>2009-06-14T09:59:14Z</time>
      </trkpt>
      <trkpt lat="49.28047" lon="3.44415">
        <ele>127</ele>
        <time>2009-06-14T09:59:22Z</time>
      </trkpt>
      <trkpt lat="49.28045" lon="3.44401">
        <ele>127</ele>
        <time>2009-06-14T09:59:30Z</time>
      </trkpt>
      <trkpt lat="49.28042" lon="3.44386">
        <ele>127</ele>
        <time>2009-06-14T09:59:38Z</time>
      </trkpt>
      <trkpt lat="49.28039" lon="3.44373">
        <ele>127</ele>
        <time>2009-06-14T09:59:46Z</time>
      </trkpt>
      <trkpt lat="49.28037" lon="3.44358">
        <ele>127</ele>
        <time>2009-06-14T09:59:54Z</time>
      </trkpt>
      <trkpt lat="49.28034" lon="3.44344">
        <ele>127</ele>
        <time>2009-06-14T10:00:02Z</time>
      </trkpt>
      <trkpt lat="49.28031" lon="3.4433">
        <ele>127</ele>
        <time>2009-06-14T10:00:10Z</time>
      </trkpt>
      <trkpt lat="49.28029" lon="3.44315">
        <ele>127</ele>
        <time>2009-06-14T10:00:18Z</time>
      </trkpt>
      <trkpt lat="49.28026" lon="3.44302">
        <ele>133</ele>
        <time>2009-06-14T10:00:26Z</time>
      </trkpt>
      <trkpt lat="49.28023" lon="3.44287">
        <ele>133</ele>
        <time>2009-06-14T10:00:34Z</time>
      </trkpt>
      <trkpt lat="49.28021" lon="3.44274">
        <ele>133</ele>
        <time>2009-06-14T10:00:42Z</time>
      </trkpt>
      <trkpt lat="49.28017" lon="3.4426">
        <ele>133</ele>
        <time>2009-06-14T10:00:50Z</time>
      </trkpt>
      <trkpt lat="49.28014" lon="3.44245">
        <ele>133</ele>
        <time>2009-06-14T10:00:58Z</time>
      </trkpt>
      <trkpt lat="49.2801" lon="3.44232">
        <ele>133</ele>
        <time>2009-06-14T10:01:06Z</time>
      </trkpt>
      <trkpt lat="49.28007" lon="3.44218">
        <ele>133</ele>
        <time>2009-06-14T10:01:14Z</time>
      </trkpt>
      <trkpt lat="49.28004" lon="3.44205">
        <ele>133</ele>
        <time>2009-06-14T10:01:22Z</time>
      </trkpt>
      <trkpt lat="49.28" lon="3.44191">
        <ele>133</ele>
        <time>2009-06-14T10:01:30Z</time>
      </trkpt>
      <trkpt lat="49.27996" lon="3.44178">
        <ele>133</ele>
        <time>2009-06-14T10:01:38Z</time>
      </trkpt>
      <trkpt lat="49.27992" lon="3.44163">
        <ele>133</ele>
        <time>2009-06-14T10:01:46Z</time>
      </trkpt>
      <trkpt lat="49.27988" lon="3.4415">
        <ele>133</ele>
        <time>2009-06-14T10:01:54Z</time>
      </trkpt>
      <trkpt lat="49.27983" lon="3.44137">
        <ele>133</ele>
        <time>2009-06-14T10:02:02Z</time>
      </trkpt>
      <trkpt lat="49.27979" lon="3.44123">
        <ele>133</ele>
        <time>2009-06-14T10:02:10Z</time>
      </trkpt>
      <trkpt lat="49.27975" lon="3.4411">
        <ele>133</ele>
        <time>2009-06-14T10:02:18Z</time>
      </trkpt>
      <trkpt lat="49.2797" lon="3.44097">
        <ele>133</ele>
        <time>2009-06-14T10:02:26Z</time>
      </trkpt>
      <trkpt lat="49.27966" lon="3.44084">
        <ele>133</ele>
        <time>2009-06-14T10:02:34Z</time>
      </trkpt>
      <trkpt lat="49.2796" lon="3.44071">
        <ele>133</ele>
        <time>2009-06-14T10:02:42Z</time>
      </trkpt>
      <trkpt lat="49.27955" lon="3.44058">
        <ele>133</ele>
        <time>2009-06-14T10:02:50Z</time>
      </trkpt>
      <trkpt lat="49.27949" lon="3.44046">
        <ele>133</ele>
        <time>2009-06-14T10:02:58Z</time>
      </trkpt>
      <trkpt lat="49.27943" lon="3.44035">
        <ele>133</ele>
        <time>2009-06-14T10:03:06Z</time>
      </trkpt>
      <trkpt lat="49.27936" lon="3.44023">
        <ele>133</ele>
        <time>2009-06-14T10:03:14Z</time>
      </trkpt>
      <trkpt lat="49.2793" lon="3.44012">
        <ele>138</ele>
        <time>2009-06-14T10:03:22Z</time>
      </trkpt>
      <trkpt lat="49.27923" lon="3.44001">
        <ele>138</ele>
        <time>2009-06-14T10:03:30Z</time>
      </trkpt>
      <trkpt lat="49.27917" lon="3.43989">
        <ele>138</ele>
        <time>2009-06-14T10:03:38Z</time>
      </trkpt>
      <trkpt lat="49.27911" lon="3.43978">
        <ele>138</ele>
        <time>2009-06-14T10:03:46Z</time>
      </trkpt>
      <trkpt lat="49.27905" lon="3.43967">
        <ele>138</ele>
        <time>2009-06-14T10:03:54Z</time>
      </trkpt>
      <trkpt lat="49.27899" lon="3.43956">
        <ele>138</ele>
        <time>2009-06-14T10:04:02Z</time>
      </trkpt>
      <trkpt lat="49.27892" lon="3.43945">
        <ele>138</ele>
        <time>2009-06-14T10:04:10Z</time>
      </trkpt>
      <trkpt lat="49.27886" lon="3.43933">
        <ele>138</ele>
        <time>2009-06-14T10:04:18Z</time>
      </trkpt>
      <trkpt lat="49.27879" lon="3.43923">
        <ele>138</ele>
        <time>2009-06-14T10:04:25Z</time>
      </trkpt>
      <trkpt lat="49.27873" lon="3.43912">
        <ele>138</ele>
        <time>2009-06-14T10:04:32Z</time>
      </trkpt>
      <trkpt lat="49.27866" lon="3.439">
        <ele>138</ele>
        <time>2009-06-14T10:04:40Z</time>
      </trkpt>
      <trkpt lat="49.2786" lon="3.43889">
        <ele>138</ele>
        <time>2009-06-14T10:04:48Z</time>
      </trkpt>
      <trkpt lat="49.27854" lon="3.43876">
        <ele>138</ele>
        <time>2009-06-14T10:04:56Z</time>
      </trkpt>
      <trkpt lat="49.27847" lon="3.43864">
        <ele>138</ele>
        <time>2009-06-14T10:05:04Z</time>
      </trkpt>
      <trkpt lat="49.27841" lon="3.43853">
        <ele>138</ele>
        <time>2009-06-14T10:05:12Z</time>
      </trkpt>
      <trkpt lat="49.27834" lon="3.43841">
        <ele>138</ele>
        <time>2009-06-14T10:05:20Z</time>
      </trkpt>
      <trkpt lat="49.27828" lon="3.4383">
        <ele>138</ele>
        <time>2009-06-14T10:05:27Z</time>
      </trkpt>
      <trkpt lat="49.27822" lon="3.43819">
        <ele>138</ele>
        <time>2009-06-14T10:05:35Z</time>
      </trkpt>
      <trkpt lat="49.27815" lon="3.43806">
        <ele>138</ele>
        <time>2009-06-14T10:05:43Z</time>
      </trkpt>
      <trkpt lat="49.27808" lon="3.43795">
        <ele>133</ele>
        <time>2009-06-14T10:05:51Z</time>
      </trkpt>
      <trkpt lat="49.27802" lon="3.43783">
        <ele>133</ele>
        <time>2009-06-14T10:05:59Z</time>
      </trkpt>
      <trkpt lat="49.27796" lon="3.43772">
        <ele>133</ele>
        <time>2009-06-14T10:06:06Z</time>
      </trkpt>
      <trkpt lat="49.27789" lon="3.4376">
        <ele>133</ele>
        <time>2009-06-14T10:06:14Z</time>
      </trkpt>
      <trkpt lat="49.27783" lon="3.4375">
        <ele>133</ele>
        <time>2009-06-14T10:06:21Z</time>
      </trkpt>
      <trkpt lat="49.27777" lon="3.43738">
        <ele>133</ele>
        <time>2009-06-14T10:06:29Z</time>
      </trkpt>
      <trkpt lat="49.2777" lon="3.43726">
        <ele>133</ele>
        <time>2009-06-14T10:06:37Z</time>
      </trkpt>
      <trkpt lat="49.27764" lon="3.43714">
        <ele>133</ele>
        <time>2009-06-14T10:06:45Z</time>
      </trkpt>
      <trkpt lat="49.27757" lon="3.43703">
        <ele>133</ele>
        <time>2009-06-14T10:06:53Z</time>
      </trkpt>
      <trkpt lat="49.27751" lon="3.43693">
        <ele>133</ele>
        <time>2009-06-14T10:07:00Z</time>
      </trkpt>
      <trkpt lat="49.27744" lon="3.43681">
        <ele>133</ele>
        <time>2009-06-14T10:07:08Z</time>
      </trkpt>
      <trkpt lat="49.27738" lon="3.43669">
        <ele>133</ele>
        <time>2009-06-14T10:07:16Z</time>
      </trkpt>
      <trkpt lat="49.27731" lon="3.43659">
        <ele>133</ele>
        <time>2009-06-14T10:07:24Z</time>
      </trkpt>
      <trkpt lat="49.27725" lon="3.43647">
        <ele>133</ele>
        <time>2009-06-14T10:07:32Z</time>
      </trkpt>
      <trkpt lat="49.27718" lon="3.43636">
        <ele>133</ele>
        <time>2009-06-14T10:07:40Z</time>
      </trkpt>
      <trkpt lat="49.27712" lon="3.43624">
        <ele>133</ele>
        <time>2009-06-14T10:07:48Z</time>
      </trkpt>
      <trkpt lat="49.27706" lon="3.43612">
        <ele>127</ele>
        <time>2009-06-14T10:07:56Z</time>
      </trkpt>
      <trkpt lat="49.27701" lon="3.43599">
        <ele>127</ele>
        <time>2009-06-14T10:08:04Z</time>
      </trkpt>
      <trkpt lat="49.27697" lon="3.43587">
        <ele>127</ele>
        <time>2009-06-14T10:08:11Z</time>
      </trkpt>
      <trkpt lat="49.27691" lon="3.43573">
        <ele>127</ele>
        <time>2009-06-14T10:08:19Z</time>
      </trkpt>
      <trkpt lat="49.27688" lon="3.4356">
        <ele>127</ele>
        <time>2009-06-14T10:08:27Z</time>
      </trkpt>
      <trkpt lat="49.27685" lon="3.43545">
        <ele>127</ele>
        <time>2009-06-14T10:08:35Z</time>
      </trkpt>
      <trkpt lat="49.27682" lon="3.43532">
        <ele>127</ele>
        <time>2009-06-14T10:08:42Z</time>
      </trkpt>
      <trkpt lat="49.2768" lon="3.43518">
        <ele>127</ele>
        <time>2009-06-14T10:08:50Z</time>
      </trkpt>
      <trkpt lat="49.27677" lon="3.43503">
        <ele>127</ele>
        <time>2009-06-14T10:08:58Z</time>
      </trkpt>
      <trkpt lat="49.27675" lon="3.43488">
        <ele>127</ele>
        <time>2009-06-14T10:09:06Z</time>
      </trkpt>
      <trkpt lat="49.27671" lon="3.43474">
        <ele>127</ele>
        <time>2009-06-14T10:09:14Z</time>
      </trkpt>
      <trkpt lat="49.27667" lon="3.43461">
        <ele>127</ele>
        <time>2009-06-14T10:09:22Z</time>
      </trkpt>
      <trkpt lat="49.27662" lon="3.43448">
        <ele>127</ele>
        <time>2009-06-14T10:09:29Z</time>
      </trkpt>
      <trkpt lat="49.27658" lon="3.43436">
        <ele>127</ele>
        <time>2009-06-14T10:09:37Z</time>
      </trkpt>
      <trkpt lat="49.27652" lon="3.43423">
        <ele>122</ele>
        <time>2009-06-14T10:09:45Z</time>
      </trkpt>
      <trkpt lat="49.27647" lon="3.43411">
        <ele>122</ele>
        <time>2009-06-14T10:09:53Z</time>
      </trkpt>
      <trkpt lat="49.27641" lon="3.43398">
        <ele>122</ele>
        <time>2009-06-14T10:10:01Z</time>
      </trkpt>
      <trkpt lat="49.27635" lon="3.43386">
        <ele>122</ele>
        <time>2009-06-14T10:10:09Z</time>
      </trkpt>
      <trkpt lat="49.2763" lon="3.43373">
        <ele>122</ele>
        <time>2009-06-14T10:10:17Z</time>
      </trkpt>
      <trkpt lat="49.27624" lon="3.4336">
        <ele>122</ele>
        <time>2009-06-14T10:10:25Z</time>
      </trkpt>
      <trkpt lat="49.27619" lon="3.43347">
        <ele>117</ele>
        <time>2009-06-14T10:10:33Z</time>
      </trkpt>
      <trkpt lat="49.27615" lon="3.43334">
        <ele>117</ele>
        <time>2009-06-14T10:10:40Z</time>
      </trkpt>
      <trkpt lat="49.27611" lon="3.4332">
        <ele>117</ele>
        <time>2009-06-14T10:10:48Z</time>
      </trkpt>
      <trkpt lat="49.27608" lon="3.43306">
        <ele>117</ele>
        <time>2009-06-14T10:10:56Z</time>
      </trkpt>
      <trkpt lat="49.27605" lon="3.43291">
        <ele>117</ele>
        <time>2009-06-14T10:11:04Z</time>
      </trkpt>
      <trkpt lat="49.27603" lon="3.43276">
        <ele>117</ele>
        <time>2009-06-14T10:11:12Z</time>
      </trkpt>
      <trkpt lat="49.27601" lon="3.43262">
        <ele>117</ele>
        <time>2009-06-14T10:11:20Z</time>
      </trkpt>
      <trkpt lat="49.27599" lon="3.43246">
        <ele>110</ele>
        <time>2009-06-14T10:11:28Z</time>
      </trkpt>
      <trkpt lat="49.27597" lon="3.4323">
        <ele>110</ele>
        <time>2009-06-14T10:11:37Z</time>
      </trkpt>
      <trkpt lat="49.27591" lon="3.43219">
        <ele>110</ele>
        <time>2009-06-14T10:11:46Z</time>
      </trkpt>
      <trkpt lat="49.27584" lon="3.4323">
        <ele>110</ele>
        <time>2009-06-14T10:11:54Z</time>
      </trkpt>
      <trkpt lat="49.27581" lon="3.43244">
        <ele>110</ele>
        <time>2009-06-14T10:12:01Z</time>
      </trkpt>
      <trkpt lat="49.27575" lon="3.43256">
        <ele>110</ele>
        <time>2009-06-14T10:12:09Z</time>
      </trkpt>
      <trkpt lat="49.2757" lon="3.43268">
        <ele>110</ele>
        <time>2009-06-14T10:12:16Z</time>
      </trkpt>
      <trkpt lat="49.27564" lon="3.4328">
        <ele>110</ele>
        <time>2009-06-14T10:12:24Z</time>
      </trkpt>
      <trkpt lat="49.27558" lon="3.4329">
        <ele>110</ele>
        <time>2009-06-14T10:12:31Z</time>
      </trkpt>
      <trkpt lat="49.27551" lon="3.43301">
        <ele>110</ele>
        <time>2009-06-14T10:12:39Z</time>
      </trkpt>
      <trkpt lat="49.27546" lon="3.43315">
        <ele>110</ele>
        <time>2009-06-14T10:12:47Z</time>
      </trkpt>
      <trkpt lat="49.27543" lon="3.43328">
        <ele>110</ele>
        <time>2009-06-14T10:12:54Z</time>
      </trkpt>
      <trkpt lat="49.27541" lon="3.43343">
        <ele>110</ele>
        <time>2009-06-14T10:13:02Z</time>
      </trkpt>
      <trkpt lat="49.2754" lon="3.43359">
        <ele>110</ele>
        <time>2009-06-14T10:13:10Z</time>
      </trkpt>
      <trkpt lat="49.27539" lon="3.43373">
        <ele>110</ele>
        <time>2009-06-14T10:13:18Z</time>
      </trkpt>
      <trkpt lat="49.27538" lon="3.43387">
        <ele>110</ele>
        <time>2009-06-14T10:13:26Z</time>
      </trkpt>
      <trkpt lat="49.27536" lon="3.43402">
        <ele>110</ele>
        <time>2009-06-14T10:13:34Z</time>
      </trkpt>
      <trkpt lat="49.27533" lon="3.43416">
        <ele>110</ele>
        <time>2009-06-14T10:13:42Z</time>
      </trkpt>
      <trkpt lat="49.27527" lon="3.4343">
        <ele>110</ele>
        <time>2009-06-14T10:13:51Z</time>
      </trkpt>
      <trkpt lat="49.27521" lon="3.43441">
        <ele>110</ele>
        <time>2009-06-14T10:14:00Z</time>
      </trkpt>
      <trkpt lat="49.27511" lon="3.43447">
        <ele>110</ele>
        <time>2009-06-14T10:14:08Z</time>
      </trkpt>
      <trkpt lat="49.27501" lon="3.43448">
        <ele>110</ele>
        <time>2009-06-14T10:14:17Z</time>
      </trkpt>
      <trkpt lat="49.27492" lon="3.43447">
        <ele>110</ele>
        <time>2009-06-14T10:14:25Z</time>
      </trkpt>
      <trkpt lat="49.27483" lon="3.43445">
        <ele>110</ele>
        <time>2009-06-14T10:14:33Z</time>
      </trkpt>
      <trkpt lat="49.27473" lon="3.43442">
        <ele>110</ele>
        <time>2009-06-14T10:14:42Z</time>
      </trkpt>
      <trkpt lat="49.27464" lon="3.43439">
        <ele>116</ele>
        <time>2009-06-14T10:14:50Z</time>
      </trkpt>
      <trkpt lat="49.27453" lon="3.4344">
        <ele>116</ele>
        <time>2009-06-14T10:14:59Z</time>
      </trkpt>
      <trkpt lat="49.27444" lon="3.4344">
        <ele>116</ele>
        <time>2009-06-14T10:15:07Z</time>
      </trkpt>
      <trkpt lat="49.27434" lon="3.43441">
        <ele>116</ele>
        <time>2009-06-14T10:15:16Z</time>
      </trkpt>
      <trkpt lat="49.27425" lon="3.43444">
        <ele>116</ele>
        <time>2009-06-14T10:15:23Z</time>
      </trkpt>
      <trkpt lat="49.27416" lon="3.43448">
        <ele>116</ele>
        <time>2009-06-14T10:15:30Z</time>
      </trkpt>
      <trkpt lat="49.27407" lon="3.43453">
        <ele>116</ele>
        <time>2009-06-14T10:15:37Z</time>
      </trkpt>
      <trkpt lat="49.27397" lon="3.43459">
        <ele>111</ele>
        <time>2009-06-14T10:15:45Z</time>
      </trkpt>
      <trkpt lat="49.27389" lon="3.43467">
        <ele>111</ele>
        <time>2009-06-14T10:15:53Z</time>
      </trkpt>
      <trkpt lat="49.2738" lon="3.43475">
        <ele>111</ele>
        <time>2009-06-14T10:16:02Z</time>
      </trkpt>
      <trkpt lat="49.27373" lon="3.43484">
        <ele>111</ele>
        <time>2009-06-14T10:16:10Z</time>
      </trkpt>
      <trkpt lat="49.27365" lon="3.43492">
        <ele>111</ele>
        <time>2009-06-14T10:16:18Z</time>
      </trkpt>
      <trkpt lat="49.27357" lon="3.43501">
        <ele>111</ele>
        <time>2009-06-14T10:16:26Z</time>
      </trkpt>
      <trkpt lat="49.27349" lon="3.43509">
        <ele>111</ele>
        <time>2009-06-14T10:16:32Z</time>
      </trkpt>
      <trkpt lat="49.27342" lon="3.43518">
        <ele>111</ele>
        <time>2009-06-14T10:16:40Z</time>
      </trkpt>
      <trkpt lat="49.27335" lon="3.43527">
        <ele>111</ele>
        <time>2009-06-14T10:16:47Z</time>
      </trkpt>
      <trkpt lat="49.27327" lon="3.43537">
        <ele>111</ele>
        <time>2009-06-14T10:16:54Z</time>
      </trkpt>
      <trkpt lat="49.2732" lon="3.43548">
        <ele>111</ele>
        <time>2009-06-14T10:17:02Z</time>
      </trkpt>
      <trkpt lat="49.27313" lon="3.43558">
        <ele>106</ele>
        <time>2009-06-14T10:17:10Z</time>
      </trkpt>
      <trkpt lat="49.27305" lon="3.43569">
        <ele>106</ele>
        <time>2009-06-14T10:17:18Z</time>
      </trkpt>
      <trkpt lat="49.27297" lon="3.43579">
        <ele>106</ele>
        <time>2009-06-14T10:17:26Z</time>
      </trkpt>
      <trkpt lat="49.2729" lon="3.43589">
        <ele>106</ele>
        <time>2009-06-14T10:17:34Z</time>
      </trkpt>
      <trkpt lat="49.27283" lon="3.43598">
        <ele>106</ele>
        <time>2009-06-14T10:17:42Z</time>
      </trkpt>
      <trkpt lat="49.27276" lon="3.43608">
        <ele>106</ele>
        <time>2009-06-14T10:17:51Z</time>
      </trkpt>
      <trkpt lat="49.27269" lon="3.43618">
        <ele>106</ele>
        <time>2009-06-14T10:17:58Z</time>
      </trkpt>
      <trkpt lat="49.27263" lon="3.43628">
        <ele>106</ele>
        <time>2009-06-14T10:18:05Z</time>
      </trkpt>
      <trkpt lat="49.27256" lon="3.43637">
        <ele>106</ele>
        <time>2009-06-14T10:18:12Z</time>
      </trkpt>
      <trkpt lat="49.2725" lon="3.43648">
        <ele>106</ele>
        <time>2009-06-14T10:18:20Z</time>
      </trkpt>
      <trkpt lat="49.27245" lon="3.4366">
        <ele>106</ele>
        <time>2009-06-14T10:18:28Z</time>
      </trkpt>
      <trkpt lat="49.27242" lon="3.43674">
        <ele>106</ele>
        <time>2009-06-14T10:18:36Z</time>
      </trkpt>
      <trkpt lat="49.27238" lon="3.43687">
        <ele>106</ele>
        <time>2009-06-14T10:18:44Z</time>
      </trkpt>
      <trkpt lat="49.27236" lon="3.43703">
        <ele>106</ele>
        <time>2009-06-14T10:18:53Z</time>
      </trkpt>
      <trkpt lat="49.27232" lon="3.43717">
        <ele>106</ele>
        <time>2009-06-14T10:19:00Z</time>
      </trkpt>
      <trkpt lat="49.27226" lon="3.4373">
        <ele>106</ele>
        <time>2009-06-14T10:19:08Z</time>
      </trkpt>
      <trkpt lat="49.2722" lon="3.43739">
        <ele>106</ele>
        <time>2009-06-14T10:19:16Z</time>
      </trkpt>
      <trkpt lat="49.2721" lon="3.43744">
        <ele>106</ele>
        <time>2009-06-14T10:19:25Z</time>
      </trkpt>
      <trkpt lat="49.27201" lon="3.43741">
        <ele>106</ele>
        <time>2009-06-14T10:19:35Z</time>
      </trkpt>
      <trkpt lat="49.27191" lon="3.43738">
        <ele>106</ele>
        <time>2009-06-14T10:19:45Z</time>
      </trkpt>
      <trkpt lat="49.27182" lon="3.43734">
        <ele>106</ele>
        <time>2009-06-14T10:19:54Z</time>
      </trkpt>
      <trkpt lat="49.27172" lon="3.43731">
        <ele>106</ele>
        <time>2009-06-14T10:20:02Z</time>
      </trkpt>
      <trkpt lat="49.27163" lon="3.43731">
        <ele>106</ele>
        <time>2009-06-14T10:20:08Z</time>
      </trkpt>
      <trkpt lat="49.27153" lon="3.43735">
        <ele>106</ele>
        <time>2009-06-14T10:20:15Z</time>
      </trkpt>
      <trkpt lat="49.27145" lon="3.43742">
        <ele>106</ele>
        <time>2009-06-14T10:20:23Z</time>
      </trkpt>
      <trkpt lat="49.27136" lon="3.4375">
        <ele>106</ele>
        <time>2009-06-14T10:20:31Z</time>
      </trkpt>
      <trkpt lat="49.27128" lon="3.4376">
        <ele>106</ele>
        <time>2009-06-14T10:20:39Z</time>
      </trkpt>
      <trkpt lat="49.27121" lon="3.43771">
        <ele>106</ele>
        <time>2009-06-14T10:20:48Z</time>
      </trkpt>
      <trkpt lat="49.27115" lon="3.43781">
        <ele>106</ele>
        <time>2009-06-14T10:20:56Z</time>
      </trkpt>
      <trkpt lat="49.27108" lon="3.43792">
        <ele>106</ele>
        <time>2009-06-14T10:21:04Z</time>
      </trkpt>
      <trkpt lat="49.27101" lon="3.43801">
        <ele>106</ele>
        <time>2009-06-14T10:21:13Z</time>
      </trkpt>
      <trkpt lat="49.27094" lon="3.4381">
        <ele>106</ele>
        <time>2009-06-14T10:21:21Z</time>
      </trkpt>
      <trkpt lat="49.27086" lon="3.43821">
        <ele>106</ele>
        <time>2009-06-14T10:21:29Z</time>
      </trkpt>
      <trkpt lat="49.27079" lon="3.43832">
        <ele>112</ele>
        <time>2009-06-14T10:21:37Z</time>
      </trkpt>
      <trkpt lat="49.27072" lon="3.43842">
        <ele>112</ele>
        <time>2009-06-14T10:21:45Z</time>
      </trkpt>
      <trkpt lat="49.27066" lon="3.43853">
        <ele>112</ele>
        <time>2009-06-14T10:21:53Z</time>
      </trkpt>
      <trkpt lat="49.27059" lon="3.43863">
        <ele>112</ele>
        <time>2009-06-14T10:22:01Z</time>
      </trkpt>
      <trkpt lat="49.27054" lon="3.43875">
        <ele>112</ele>
        <time>2009-06-14T10:22:09Z</time>
      </trkpt>
      <trkpt lat="49.27048" lon="3.43888">
        <ele>118</ele>
        <time>2009-06-14T10:22:17Z</time>
      </trkpt>
      <trkpt lat="49.27044" lon="3.439">
        <ele>125</ele>
        <time>2009-06-14T10:22:27Z</time>
      </trkpt>
      <trkpt lat="49.27038" lon="3.43911">
        <ele>125</ele>
        <time>2009-06-14T10:22:35Z</time>
      </trkpt>
      <trkpt lat="49.2703" lon="3.43919">
        <ele>125</ele>
        <time>2009-06-14T10:22:44Z</time>
      </trkpt>
      <trkpt lat="49.27024" lon="3.43932">
        <ele>125</ele>
        <time>2009-06-14T10:22:54Z</time>
      </trkpt>
      <trkpt lat="49.27019" lon="3.43944">
        <ele>131</ele>
        <time>2009-06-14T10:23:03Z</time>
      </trkpt>
      <trkpt lat="49.27013" lon="3.43955">
        <ele>131</ele>
        <time>2009-06-14T10:23:10Z</time>
      </trkpt>
      <trkpt lat="49.27007" lon="3.43966">
        <ele>131</ele>
        <time>2009-06-14T10:23:18Z</time>
      </trkpt>
      <trkpt lat="49.27001" lon="3.43978">
        <ele>131</ele>
        <time>2009-06-14T10:23:26Z</time>
      </trkpt>
      <trkpt lat="49.26994" lon="3.43989">
        <ele>131</ele>
        <time>2009-06-14T10:23:35Z</time>
      </trkpt>
      <trkpt lat="49.26988" lon="3.44">
        <ele>131</ele>
        <time>2009-06-14T10:23:44Z</time>
      </trkpt>
      <trkpt lat="49.26981" lon="3.4401">
        <ele>131</ele>
        <time>2009-06-14T10:23:52Z</time>
      </trkpt>
      <trkpt lat="49.26975" lon="3.44021">
        <ele>131</ele>
        <time>2009-06-14T10:24:01Z</time>
      </trkpt>
      <trkpt lat="49.26967" lon="3.44028">
        <ele>131</ele>
        <time>2009-06-14T10:24:09Z</time>
      </trkpt>
      <trkpt lat="49.26958" lon="3.44034">
        <ele>131</ele>
        <time>2009-06-14T10:24:17Z</time>
      </trkpt>
      <trkpt lat="49.26949" lon="3.44042">
        <ele>136</ele>
        <time>2009-06-14T10:24:27Z</time>
      </trkpt>
      <trkpt lat="49.2694" lon="3.44048">
        <ele>136</ele>
        <time>2009-06-14T10:24:35Z</time>
      </trkpt>
      <trkpt lat="49.26931" lon="3.44052">
        <ele>136</ele>
        <time>2009-06-14T10:24:44Z</time>
      </trkpt>
      <trkpt lat="49.26921" lon="3.44057">
        <ele>136</ele>
        <time>2009-06-14T10:24:53Z</time>
      </trkpt>
      <trkpt lat="49.26912" lon="3.44061">
        <ele>131</ele>
        <time>2009-06-14T10:25:00Z</time>
      </trkpt>
      <trkpt lat="49.26903" lon="3.44066">
        <ele>131</ele>
        <time>2009-06-14T10:25:08Z</time>
      </trkpt>
      <trkpt lat="49.26894" lon="3.44069">
        <ele>131</ele>
        <time>2009-06-14T10:25:16Z</time>
      </trkpt>
      <trkpt lat="49.26885" lon="3.44075">
        <ele>131</ele>
        <time>2009-06-14T10:25:23Z</time>
      </trkpt>
      <trkpt lat="49.26877" lon="3.44079">
        <ele>131</ele>
        <time>2009-06-14T10:25:30Z</time>
      </trkpt>
      <trkpt lat="49.26867" lon="3.44081">
        <ele>131</ele>
        <time>2009-06-14T10:25:38Z</time>
      </trkpt>
      <trkpt lat="49.26857" lon="3.44084">
        <ele>131</ele>
        <time>2009-06-14T10:25:51Z</time>
      </trkpt>
      <trkpt lat="49.26848" lon="3.44086">
        <ele>131</ele>
        <time>2009-06-14T10:25:59Z</time>
      </trkpt>
      <trkpt lat="49.26838" lon="3.44091">
        <ele>124</ele>
        <time>2009-06-14T10:26:07Z</time>
      </trkpt>
      <trkpt lat="49.26828" lon="3.44097">
        <ele>124</ele>
        <time>2009-06-14T10:26:15Z</time>
      </trkpt>
      <trkpt lat="49.2682" lon="3.44104">
        <ele>124</ele>
        <time>2009-06-14T10:26:22Z</time>
      </trkpt>
      <trkpt lat="49.26811" lon="3.44113">
        <ele>124</ele>
        <time>2009-06-14T10:26:30Z</time>
      </trkpt>
      <trkpt lat="49.26803" lon="3.4412">
        <ele>124</ele>
        <time>2009-06-14T10:26:37Z</time>
      </trkpt>
      <trkpt lat="49.26795" lon="3.4413">
        <ele>124</ele>
        <time>2009-06-14T10:26:45Z</time>
      </trkpt>
      <trkpt lat="49.26788" lon="3.44141">
        <ele>124</ele>
        <time>2009-06-14T10:26:53Z</time>
      </trkpt>
      <trkpt lat="49.26782" lon="3.44152">
        <ele>131</ele>
        <time>2009-06-14T10:27:01Z</time>
      </trkpt>
      <trkpt lat="49.26775" lon="3.44162">
        <ele>131</ele>
        <time>2009-06-14T10:27:08Z</time>
      </trkpt>
      <trkpt lat="49.26768" lon="3.44172">
        <ele>131</ele>
        <time>2009-06-14T10:27:16Z</time>
      </trkpt>
      <trkpt lat="49.26762" lon="3.44182">
        <ele>131</ele>
        <time>2009-06-14T10:27:24Z</time>
      </trkpt>
      <trkpt lat="49.26754" lon="3.44192">
        <ele>131</ele>
        <time>2009-06-14T10:27:33Z</time>
      </trkpt>
      <trkpt lat="49.26748" lon="3.44203">
        <ele>131</ele>
        <time>2009-06-14T10:27:42Z</time>
      </trkpt>
      <trkpt lat="49.26741" lon="3.44214">
        <ele>131</ele>
        <time>2009-06-14T10:27:51Z</time>
      </trkpt>
      <trkpt lat="49.26735" lon="3.44225">
        <ele>131</ele>
        <time>2009-06-14T10:27:59Z</time>
      </trkpt>
      <trkpt lat="49.26729" lon="3.44237">
        <ele>131</ele>
        <time>2009-06-14T10:28:06Z</time>
      </trkpt>
      <trkpt lat="49.2672" lon="3.44243">
        <ele>131</ele>
        <time>2009-06-14T10:28:15Z</time>
      </trkpt>
      <trkpt lat="49.26712" lon="3.44236">
        <ele>131</ele>
        <time>2009-06-14T10:28:24Z</time>
      </trkpt>
      <trkpt lat="49.26704" lon="3.44228">
        <ele>131</ele>
        <time>2009-06-14T10:28:33Z</time>
      </trkpt>
      <trkpt lat="49.26696" lon="3.4422">
        <ele>131</ele>
        <time>2009-06-14T10:28:41Z</time>
      </trkpt>
      <trkpt lat="49.26688" lon="3.44212">
        <ele>137</ele>
        <time>2009-06-14T10:28:49Z</time>
      </trkpt>
      <trkpt lat="49.2668" lon="3.44203">
        <ele>137</ele>
        <time>2009-06-14T10:28:58Z</time>
      </trkpt>
      <trkpt lat="49.26673" lon="3.44193">
        <ele>137</ele>
        <time>2009-06-14T10:29:06Z</time>
      </trkpt>
      <trkpt lat="49.26666" lon="3.44183">
        <ele>137</ele>
        <time>2009-06-14T10:29:14Z</time>
      </trkpt>
      <trkpt lat="49.26658" lon="3.44174">
        <ele>137</ele>
        <time>2009-06-14T10:29:22Z</time>
      </trkpt>
      <trkpt lat="49.2665" lon="3.44166">
        <ele>137</ele>
        <time>2009-06-14T10:29:30Z</time>
      </trkpt>
      <trkpt lat="49.26643" lon="3.44156">
        <ele>137</ele>
        <time>2009-06-14T10:29:38Z</time>
      </trkpt>
      <trkpt lat="49.26635" lon="3.44147">
        <ele>137</ele>
        <time>2009-06-14T10:29:46Z</time>
      </trkpt>
      <trkpt lat="49.26631" lon="3.44134">
        <ele>137</ele>
        <time>2009-06-14T10:29:54Z</time>
      </trkpt>
      <trkpt lat="49.26629" lon="3.44119">
        <ele>137</ele>
        <time>2009-06-14T10:30:03Z</time>
      </trkpt>
      <trkpt lat="49.26627" lon="3.44104">
        <ele>137</ele>
        <time>2009-06-14T10:30:11Z</time>
      </trkpt>
      <trkpt lat="49.26623" lon="3.44092">
        <ele>144</ele>
        <time>2009-06-14T10:30:18Z</time>
      </trkpt>
      <trkpt lat="49.2662" lon="3.44077">
        <ele>144</ele>
        <time>2009-06-14T10:30:28Z</time>
      </trkpt>
      <trkpt lat="49.26617" lon="3.44063">
        <ele>144</ele>
        <time>2009-06-14T10:30:37Z</time>
      </trkpt>
      <trkpt lat="49.26613" lon="3.4405">
        <ele>153</ele>
        <time>2009-06-14T10:30:47Z</time>
      </trkpt>
      <trkpt lat="49.2661" lon="3.44037">
        <ele>153</ele>
        <time>2009-06-14T10:30:54Z</time>
      </trkpt>
      <trkpt lat="49.26606" lon="3.44023">
        <ele>153</ele>
        <time>2009-06-14T10:31:01Z</time>
      </trkpt>
      <trkpt lat="49.26601" lon="3.4401">
        <ele>153</ele>
        <time>2009-06-14T10:31:07Z</time>
      </trkpt>
      <trkpt lat="49.26599" lon="3.43995">
        <ele>147</ele>
        <time>2009-06-14T10:31:14Z</time>
      </trkpt>
      <trkpt lat="49.26593" lon="3.4398">
        <ele>141</ele>
        <time>2009-06-14T10:31:22Z</time>
      </trkpt>
      <trkpt lat="49.26589" lon="3.43968">
        <ele>141</ele>
        <time>2009-06-14T10:31:29Z</time>
      </trkpt>
      <trkpt lat="49.26586" lon="3.43953">
        <ele>141</ele>
        <time>2009-06-14T10:31:39Z</time>
      </trkpt>
      <trkpt lat="49.26584" lon="3.43938">
        <ele>141</ele>
        <time>2009-06-14T10:31:53Z</time>
      </trkpt>
      <trkpt lat="49.2658" lon="3.43924">
        <ele>141</ele>
        <time>2009-06-14T10:32:05Z</time>
      </trkpt>
      <trkpt lat="49.26577" lon="3.4391">
        <ele>141</ele>
        <time>2009-06-14T10:32:14Z</time>
      </trkpt>
      <trkpt lat="49.26575" lon="3.43896">
        <ele>141</ele>
        <time>2009-06-14T10:32:23Z</time>
      </trkpt>
      <trkpt lat="49.26571" lon="3.43883">
        <ele>141</ele>
        <time>2009-06-14T10:32:32Z</time>
      </trkpt>
      <trkpt lat="49.26567" lon="3.4387">
        <ele>134</ele>
        <time>2009-06-14T10:32:41Z</time>
      </trkpt>
      <trkpt lat="49.26563" lon="3.43856">
        <ele>134</ele>
        <time>2009-06-14T10:32:50Z</time>
      </trkpt>
      <trkpt lat="49.2656" lon="3.43842">
        <ele>134</ele>
        <time>2009-06-14T10:32:57Z</time>
      </trkpt>
      <trkpt lat="49.26557" lon="3.43828">
        <ele>134</ele>
        <time>2009-06-14T10:33:05Z</time>
      </trkpt>
      <trkpt lat="49.26554" lon="3.43815">
        <ele>140</ele>
        <time>2009-06-14T10:33:14Z</time>
      </trkpt>
      <trkpt lat="49.2655" lon="3.43801">
        <ele>140</ele>
        <time>2009-06-14T10:33:22Z</time>
      </trkpt>
      <trkpt lat="49.26546" lon="3.43787">
        <ele>148</ele>
        <time>2009-06-14T10:33:31Z</time>
      </trkpt>
      <trkpt lat="49.26544" lon="3.43772">
        <ele>148</ele>
        <time>2009-06-14T10:33:36Z</time>
      </trkpt>
      <trkpt lat="49.26542" lon="3.43757">
        <ele>148</ele>
        <time>2009-06-14T10:33:45Z</time>
      </trkpt>
      <trkpt lat="49.26539" lon="3.43744">
        <ele>140</ele>
        <time>2009-06-14T10:33:57Z</time>
      </trkpt>
      <trkpt lat="49.26536" lon="3.43728">
        <ele>140</ele>
        <time>2009-06-14T10:34:06Z</time>
      </trkpt>
      <trkpt lat="49.26532" lon="3.43713">
        <ele>140</ele>
        <time>2009-06-14T10:34:14Z</time>
      </trkpt>
      <trkpt lat="49.26529" lon="3.437">
        <ele>140</ele>
        <time>2009-06-14T10:34:25Z</time>
      </trkpt>
      <trkpt lat="49.26526" lon="3.43686">
        <ele>140</ele>
        <time>2009-06-14T10:34:32Z</time>
      </trkpt>
      <trkpt lat="49.26524" lon="3.43673">
        <ele>140</ele>
        <time>2009-06-14T10:34:38Z</time>
      </trkpt>
      <trkpt lat="49.2652" lon="3.4366">
        <ele>140</ele>
        <time>2009-06-14T10:34:45Z</time>
      </trkpt>
      <trkpt lat="49.26517" lon="3.43646">
        <ele>140</ele>
        <time>2009-06-14T10:34:51Z</time>
      </trkpt>
      <trkpt lat="49.26514" lon="3.43632">
        <ele>140</ele>
        <time>2009-06-14T10:35:01Z</time>
      </trkpt>
      <trkpt lat="49.26513" lon="3.43614">
        <ele>150</ele>
        <time>2009-06-14T10:35:12Z</time>
      </trkpt>
      <trkpt lat="49.26511" lon="3.43599">
        <ele>150</ele>
        <time>2009-06-14T10:35:20Z</time>
      </trkpt>
      <trkpt lat="49.26507" lon="3.43586">
        <ele>143</ele>
        <time>2009-06-14T10:35:28Z</time>
      </trkpt>
      <trkpt lat="49.26504" lon="3.43572">
        <ele>143</ele>
        <time>2009-06-14T10:35:39Z</time>
      </trkpt>
      <trkpt lat="49.26501" lon="3.43557">
        <ele>143</ele>
        <time>2009-06-14T10:35:47Z</time>
      </trkpt>
      <trkpt lat="49.26499" lon="3.43544">
        <ele>143</ele>
        <time>2009-06-14T10:35:54Z</time>
      </trkpt>
      <trkpt lat="49.26496" lon="3.4353">
        <ele>143</ele>
        <time>2009-06-14T10:36:03Z</time>
      </trkpt>
      <trkpt lat="49.26491" lon="3.43518">
        <ele>143</ele>
        <time>2009-06-14T10:36:11Z</time>
      </trkpt>
      <trkpt lat="49.26488" lon="3.43504">
        <ele>143</ele>
        <time>2009-06-14T10:36:17Z</time>
      </trkpt>
      <trkpt lat="49.26484" lon="3.4349">
        <ele>143</ele>
        <time>2009-06-14T10:36:26Z</time>
      </trkpt>
      <trkpt lat="49.2648" lon="3.43476">
        <ele>143</ele>
        <time>2009-06-14T10:36:35Z</time>
      </trkpt>
      <trkpt lat="49.26477" lon="3.43462">
        <ele>149</ele>
        <time>2009-06-14T10:36:44Z</time>
      </trkpt>
      <trkpt lat="49.26474" lon="3.43447">
        <ele>149</ele>
        <time>2009-06-14T10:36:50Z</time>
      </trkpt>
      <trkpt lat="49.26468" lon="3.43434">
        <ele>149</ele>
        <time>2009-06-14T10:36:56Z</time>
      </trkpt>
      <trkpt lat="49.26467" lon="3.4342">
        <ele>149</ele>
        <time>2009-06-14T10:37:07Z</time>
      </trkpt>
      <trkpt lat="49.26466" lon="3.43404">
        <ele>149</ele>
        <time>2009-06-14T10:37:14Z</time>
      </trkpt>
      <trkpt lat="49.2646" lon="3.43394">
        <ele>139</ele>
        <time>2009-06-14T10:37:22Z</time>
      </trkpt>
      <trkpt lat="49.26457" lon="3.43379">
        <ele>139</ele>
        <time>2009-06-14T10:37:32Z</time>
      </trkpt>
      <trkpt lat="49.26456" lon="3.43365">
        <ele>139</ele>
        <time>2009-06-14T10:37:40Z</time>
      </trkpt>
      <trkpt lat="49.26454" lon="3.43351">
        <ele>139</ele>
        <time>2009-06-14T10:37:50Z</time>
      </trkpt>
      <trkpt lat="49.26447" lon="3.43339">
        <ele>139</ele>
        <time>2009-06-14T10:37:57Z</time>
      </trkpt>
      <trkpt lat="49.26447" lon="3.43324">
        <ele>146</ele>
        <time>2009-06-14T10:38:08Z</time>
      </trkpt>
      <trkpt lat="49.26442" lon="3.4331">
        <ele>146</ele>
        <time>2009-06-14T10:38:16Z</time>
      </trkpt>
      <trkpt lat="49.26441" lon="3.43295">
        <ele>138</ele>
        <time>2009-06-14T10:38:26Z</time>
      </trkpt>
      <trkpt lat="49.2644" lon="3.4328">
        <ele>138</ele>
        <time>2009-06-14T10:38:30Z</time>
      </trkpt>
      <trkpt lat="49.26435" lon="3.43267">
        <ele>143</ele>
        <time>2009-06-14T10:38:36Z</time>
      </trkpt>
      <trkpt lat="49.26432" lon="3.43254">
        <ele>143</ele>
        <time>2009-06-14T10:38:46Z</time>
      </trkpt>
      <trkpt lat="49.2643" lon="3.4324">
        <ele>143</ele>
        <time>2009-06-14T10:38:58Z</time>
      </trkpt>
      <trkpt lat="49.26427" lon="3.43227">
        <ele>143</ele>
        <time>2009-06-14T10:39:06Z</time>
      </trkpt>
      <trkpt lat="49.26424" lon="3.43211">
        <ele>143</ele>
        <time>2009-06-14T10:39:15Z</time>
      </trkpt>
      <trkpt lat="49.26426" lon="3.43198">
        <ele>143</ele>
        <time>2009-06-14T10:40:12Z</time>
      </trkpt>
      <trkpt lat="49.26422" lon="3.43183">
        <ele>138</ele>
        <time>2009-06-14T10:43:13Z</time>
      </trkpt>
      <trkpt lat="49.26416" lon="3.43171">
        <ele>148</ele>
        <time>2009-06-14T10:43:24Z</time>
      </trkpt>
      <trkpt lat="49.26411" lon="3.43158">
        <ele>160</ele>
        <time>2009-06-14T10:43:32Z</time>
      </trkpt>
      <trkpt lat="49.2641" lon="3.43143">
        <ele>168</ele>
        <time>2009-06-14T10:43:40Z</time>
      </trkpt>
      <trkpt lat="49.26412" lon="3.4313">
        <ele>168</ele>
        <time>2009-06-14T10:43:46Z</time>
      </trkpt>
      <trkpt lat="49.26409" lon="3.43115">
        <ele>174</ele>
        <time>2009-06-14T10:43:55Z</time>
      </trkpt>
      <trkpt lat="49.26405" lon="3.43102">
        <ele>174</ele>
        <time>2009-06-14T10:44:02Z</time>
      </trkpt>
      <trkpt lat="49.26402" lon="3.43086">
        <ele>166</ele>
        <time>2009-06-14T10:44:09Z</time>
      </trkpt>
      <trkpt lat="49.26398" lon="3.43071">
        <ele>166</ele>
        <time>2009-06-14T10:44:18Z</time>
      </trkpt>
      <trkpt lat="49.26393" lon="3.43059">
        <ele>166</ele>
        <time>2009-06-14T10:44:26Z</time>
      </trkpt>
      <trkpt lat="49.2639" lon="3.43045">
        <ele>166</ele>
        <time>2009-06-14T10:44:34Z</time>
      </trkpt>
      <trkpt lat="49.26391" lon="3.43031">
        <ele>166</ele>
        <time>2009-06-14T10:44:40Z</time>
      </trkpt>
      <trkpt lat="49.26386" lon="3.43018">
        <ele>173</ele>
        <time>2009-06-14T10:44:47Z</time>
      </trkpt>
      <trkpt lat="49.2638" lon="3.43007">
        <ele>167</ele>
        <time>2009-06-14T10:44:52Z</time>
      </trkpt>
      <trkpt lat="49.26376" lon="3.42995">
        <ele>167</ele>
        <time>2009-06-14T10:44:59Z</time>
      </trkpt>
      <trkpt lat="49.26376" lon="3.4298">
        <ele>167</ele>
        <time>2009-06-14T10:45:05Z</time>
      </trkpt>
      <trkpt lat="49.26373" lon="3.42967">
        <ele>154</ele>
        <time>2009-06-14T10:45:12Z</time>
      </trkpt>
      <trkpt lat="49.26366" lon="3.42956">
        <ele>145</ele>
        <time>2009-06-14T10:45:18Z</time>
      </trkpt>
      <trkpt lat="49.26369" lon="3.42942">
        <ele>145</ele>
        <time>2009-06-14T10:45:24Z</time>
      </trkpt>
      <trkpt lat="49.26366" lon="3.42926">
        <ele>145</ele>
        <time>2009-06-14T10:45:31Z</time>
      </trkpt>
      <trkpt lat="49.2636" lon="3.42912">
        <ele>145</ele>
        <time>2009-06-14T10:45:37Z</time>
      </trkpt>
      <trkpt lat="49.26358" lon="3.42897">
        <ele>145</ele>
        <time>2009-06-14T10:45:45Z</time>
      </trkpt>
      <trkpt lat="49.26355" lon="3.42883">
        <ele>139</ele>
        <time>2009-06-14T10:45:55Z</time>
      </trkpt>
      <trkpt lat="49.26352" lon="3.42869">
        <ele>139</ele>
        <time>2009-06-14T10:46:04Z</time>
      </trkpt>
      <trkpt lat="49.26349" lon="3.42855">
        <ele>139</ele>
        <time>2009-06-14T10:46:13Z</time>
      </trkpt>
      <trkpt lat="49.26345" lon="3.4284">
        <ele>139</ele>
        <time>2009-06-14T10:46:21Z</time>
      </trkpt>
      <trkpt lat="49.26341" lon="3.42826">
        <ele>139</ele>
        <time>2009-06-14T10:46:29Z</time>
      </trkpt>
      <trkpt lat="49.26338" lon="3.42812">
        <ele>139</ele>
        <time>2009-06-14T10:46:36Z</time>
      </trkpt>
      <trkpt lat="49.26334" lon="3.42798">
        <ele>147</ele>
        <time>2009-06-14T10:46:44Z</time>
      </trkpt>
      <trkpt lat="49.26331" lon="3.42785">
        <ele>155</ele>
        <time>2009-06-14T10:46:53Z</time>
      </trkpt>
      <trkpt lat="49.26333" lon="3.4277">
        <ele>168</ele>
        <time>2009-06-14T10:47:03Z</time>
      </trkpt>
      <trkpt lat="49.2633" lon="3.42756">
        <ele>168</ele>
        <time>2009-06-14T10:47:12Z</time>
      </trkpt>
      <trkpt lat="49.26326" lon="3.42741">
        <ele>160</ele>
        <time>2009-06-14T10:47:20Z</time>
      </trkpt>
      <trkpt lat="49.2632" lon="3.42729">
        <ele>160</ele>
        <time>2009-06-14T10:47:27Z</time>
      </trkpt>
      <trkpt lat="49.26316" lon="3.42715">
        <ele>155</ele>
        <time>2009-06-14T10:47:34Z</time>
      </trkpt>
      <trkpt lat="49.26316" lon="3.427">
        <ele>155</ele>
        <time>2009-06-14T10:47:40Z</time>
      </trkpt>
      <trkpt lat="49.26313" lon="3.42686">
        <ele>155</ele>
        <time>2009-06-14T10:47:49Z</time>
      </trkpt>
      <trkpt lat="49.2631" lon="3.42672">
        <ele>161</ele>
        <time>2009-06-14T10:47:56Z</time>
      </trkpt>
      <trkpt lat="49.26309" lon="3.42654">
        <ele>161</ele>
        <time>2009-06-14T10:48:09Z</time>
      </trkpt>
      <trkpt lat="49.26306" lon="3.42641">
        <ele>161</ele>
        <time>2009-06-14T10:48:17Z</time>
      </trkpt>
      <trkpt lat="49.26303" lon="3.42625">
        <ele>161</ele>
        <time>2009-06-14T10:48:23Z</time>
      </trkpt>
      <trkpt lat="49.263" lon="3.42609">
        <ele>151</ele>
        <time>2009-06-14T10:48:30Z</time>
      </trkpt>
      <trkpt lat="49.26297" lon="3.42596">
        <ele>151</ele>
        <time>2009-06-14T10:48:33Z</time>
      </trkpt>
      <trkpt lat="49.26292" lon="3.42582">
        <ele>151</ele>
        <time>2009-06-14T10:48:39Z</time>
      </trkpt>
      <trkpt lat="49.26289" lon="3.42569">
        <ele>151</ele>
        <time>2009-06-14T10:48:47Z</time>
      </trkpt>
      <trkpt lat="49.26284" lon="3.42554">
        <ele>151</ele>
        <time>2009-06-14T10:48:55Z</time>
      </trkpt>
      <trkpt lat="49.26285" lon="3.42539">
        <ele>151</ele>
        <time>2009-06-14T10:49:03Z</time>
      </trkpt>
      <trkpt lat="49.26279" lon="3.42528">
        <ele>151</ele>
        <time>2009-06-14T10:49:09Z</time>
      </trkpt>
      <trkpt lat="49.26274" lon="3.42515">
        <ele>151</ele>
        <time>2009-06-14T10:49:16Z</time>
      </trkpt>
      <trkpt lat="49.26271" lon="3.42502">
        <ele>151</ele>
        <time>2009-06-14T10:49:23Z</time>
      </trkpt>
      <trkpt lat="49.26269" lon="3.42488">
        <ele>143</ele>
        <time>2009-06-14T10:49:33Z</time>
      </trkpt>
      <trkpt lat="49.26267" lon="3.42473">
        <ele>143</ele>
        <time>2009-06-14T10:49:43Z</time>
      </trkpt>
      <trkpt lat="49.26265" lon="3.42458">
        <ele>143</ele>
        <time>2009-06-14T10:49:51Z</time>
      </trkpt>
      <trkpt lat="49.2626" lon="3.42443">
        <ele>143</ele>
        <time>2009-06-14T10:49:58Z</time>
      </trkpt>
      <trkpt lat="49.26258" lon="3.42428">
        <ele>143</ele>
        <time>2009-06-14T10:50:05Z</time>
      </trkpt>
      <trkpt lat="49.26258" lon="3.42411">
        <ele>143</ele>
        <time>2009-06-14T10:50:15Z</time>
      </trkpt>
      <trkpt lat="49.26251" lon="3.424">
        <ele>143</ele>
        <time>2009-06-14T10:50:26Z</time>
      </trkpt>
      <trkpt lat="49.26249" lon="3.42385">
        <ele>143</ele>
        <time>2009-06-14T10:50:36Z</time>
      </trkpt>
      <trkpt lat="49.26245" lon="3.42372">
        <ele>150</ele>
        <time>2009-06-14T10:50:45Z</time>
      </trkpt>
      <trkpt lat="49.26238" lon="3.42361">
        <ele>150</ele>
        <time>2009-06-14T10:50:51Z</time>
      </trkpt>
      <trkpt lat="49.26233" lon="3.42348">
        <ele>150</ele>
        <time>2009-06-14T10:50:57Z</time>
      </trkpt>
      <trkpt lat="49.26232" lon="3.42334">
        <ele>150</ele>
        <time>2009-06-14T10:51:04Z</time>
      </trkpt>
      <trkpt lat="49.2623" lon="3.42317">
        <ele>143</ele>
        <time>2009-06-14T10:51:14Z</time>
      </trkpt>
      <trkpt lat="49.26225" lon="3.423">
        <ele>143</ele>
        <time>2009-06-14T10:51:23Z</time>
      </trkpt>
      <trkpt lat="49.26228" lon="3.42285">
        <ele>143</ele>
        <time>2009-06-14T10:51:27Z</time>
      </trkpt>
      <trkpt lat="49.26221" lon="3.42276">
        <ele>143</ele>
        <time>2009-06-14T10:51:38Z</time>
      </trkpt>
      <trkpt lat="49.26217" lon="3.42263">
        <ele>143</ele>
        <time>2009-06-14T10:51:46Z</time>
      </trkpt>
      <trkpt lat="49.26212" lon="3.4225">
        <ele>143</ele>
        <time>2009-06-14T10:51:51Z</time>
      </trkpt>
      <trkpt lat="49.26212" lon="3.42235">
        <ele>143</ele>
        <time>2009-06-14T10:51:59Z</time>
      </trkpt>
      <trkpt lat="49.26212" lon="3.4222">
        <ele>143</ele>
        <time>2009-06-14T10:52:07Z</time>
      </trkpt>
      <trkpt lat="49.26213" lon="3.42202">
        <ele>143</ele>
        <time>2009-06-14T10:52:16Z</time>
      </trkpt>
      <trkpt lat="49.26208" lon="3.42189">
        <ele>143</ele>
        <time>2009-06-14T10:52:22Z</time>
      </trkpt>
      <trkpt lat="49.26201" lon="3.42178">
        <ele>143</ele>
        <time>2009-06-14T10:52:30Z</time>
      </trkpt>
      <trkpt lat="49.26196" lon="3.42166">
        <ele>143</ele>
        <time>2009-06-14T10:52:38Z</time>
      </trkpt>
      <trkpt lat="49.26191" lon="3.42149">
        <ele>143</ele>
        <time>2009-06-14T10:52:47Z</time>
      </trkpt>
      <trkpt lat="49.26192" lon="3.42134">
        <ele>143</ele>
        <time>2009-06-14T10:52:52Z</time>
      </trkpt>
      <trkpt lat="49.26188" lon="3.42122">
        <ele>143</ele>
        <time>2009-06-14T10:53:01Z</time>
      </trkpt>
      <trkpt lat="49.26185" lon="3.42108">
        <ele>137</ele>
        <time>2009-06-14T10:53:07Z</time>
      </trkpt>
      <trkpt lat="49.26181" lon="3.42095">
        <ele>137</ele>
        <time>2009-06-14T10:53:16Z</time>
      </trkpt>
      <trkpt lat="49.26181" lon="3.4208">
        <ele>144</ele>
        <time>2009-06-14T10:53:26Z</time>
      </trkpt>
      <trkpt lat="49.26177" lon="3.42066">
        <ele>144</ele>
        <time>2009-06-14T10:53:30Z</time>
      </trkpt>
      <trkpt lat="49.26176" lon="3.4205">
        <ele>144</ele>
        <time>2009-06-14T10:53:42Z</time>
      </trkpt>
      <trkpt lat="49.26173" lon="3.42034">
        <ele>144</ele>
        <time>2009-06-14T10:53:50Z</time>
      </trkpt>
      <trkpt lat="49.2617" lon="3.42021">
        <ele>144</ele>
        <time>2009-06-14T10:53:55Z</time>
      </trkpt>
      <trkpt lat="49.26165" lon="3.42008">
        <ele>144</ele>
        <time>2009-06-14T10:54:03Z</time>
      </trkpt>
      <trkpt lat="49.26162" lon="3.41994">
        <ele>144</ele>
        <time>2009-06-14T10:54:14Z</time>
      </trkpt>
      <trkpt lat="49.26158" lon="3.41981">
        <ele>144</ele>
        <time>2009-06-14T10:54:23Z</time>
      </trkpt>
      <trkpt lat="49.26154" lon="3.41967">
        <ele>138</ele>
        <time>2009-06-14T10:54:32Z</time>
      </trkpt>
      <trkpt lat="49.26152" lon="3.41954">
        <ele>138</ele>
        <time>2009-06-14T10:54:41Z</time>
      </trkpt>
      <trkpt lat="49.26151" lon="3.41938">
        <ele>138</ele>
        <time>2009-06-14T10:54:49Z</time>
      </trkpt>
      <trkpt lat="49.26149" lon="3.41923">
        <ele>145</ele>
        <time>2009-06-14T10:54:56Z</time>
      </trkpt>
      <trkpt lat="49.26148" lon="3.41908">
        <ele>145</ele>
        <time>2009-06-14T10:55:06Z</time>
      </trkpt>
      <trkpt lat="49.26143" lon="3.41895">
        <ele>145</ele>
        <time>2009-06-14T10:55:15Z</time>
      </trkpt>
      <trkpt lat="49.26135" lon="3.41885">
        <ele>145</ele>
        <time>2009-06-14T10:55:23Z</time>
      </trkpt>
      <trkpt lat="49.26138" lon="3.41872">
        <ele>136</ele>
        <time>2009-06-14T10:55:31Z</time>
      </trkpt>
      <trkpt lat="49.26146" lon="3.41875">
        <ele>136</ele>
        <time>2009-06-14T10:55:41Z</time>
      </trkpt>
      <trkpt lat="49.26155" lon="3.4187">
        <ele>143</ele>
        <time>2009-06-14T10:55:48Z</time>
      </trkpt>
      <trkpt lat="49.26166" lon="3.41875">
        <ele>143</ele>
        <time>2009-06-14T10:55:55Z</time>
      </trkpt>
      <trkpt lat="49.2618" lon="3.4188">
        <ele>149</ele>
        <time>2009-06-14T10:56:09Z</time>
      </trkpt>
      <trkpt lat="49.2619" lon="3.41879">
        <ele>149</ele>
        <time>2009-06-14T10:56:17Z</time>
      </trkpt>
      <trkpt lat="49.26199" lon="3.41882">
        <ele>144</ele>
        <time>2009-06-14T10:56:26Z</time>
      </trkpt>
      <trkpt lat="49.26208" lon="3.41885">
        <ele>144</ele>
        <time>2009-06-14T10:56:35Z</time>
      </trkpt>
      <trkpt lat="49.26218" lon="3.41889">
        <ele>150</ele>
        <time>2009-06-14T10:56:49Z</time>
      </trkpt>
      <trkpt lat="49.26227" lon="3.41889">
        <ele>150</ele>
        <time>2009-06-14T10:56:58Z</time>
      </trkpt>
      <trkpt lat="49.26237" lon="3.41889">
        <ele>150</ele>
        <time>2009-06-14T10:57:05Z</time>
      </trkpt>
      <trkpt lat="49.26245" lon="3.41895">
        <ele>150</ele>
        <time>2009-06-14T10:57:13Z</time>
      </trkpt>
      <trkpt lat="49.26256" lon="3.41896">
        <ele>150</ele>
        <time>2009-06-14T10:57:22Z</time>
      </trkpt>
      <trkpt lat="49.26266" lon="3.41895">
        <ele>143</ele>
        <time>2009-06-14T10:57:34Z</time>
      </trkpt>
      <trkpt lat="49.26275" lon="3.41899">
        <ele>143</ele>
        <time>2009-06-14T10:57:42Z</time>
      </trkpt>
      <trkpt lat="49.26285" lon="3.41896">
        <ele>150</ele>
        <time>2009-06-14T10:57:49Z</time>
      </trkpt>
      <trkpt lat="49.26295" lon="3.41893">
        <ele>150</ele>
        <time>2009-06-14T10:57:56Z</time>
      </trkpt>
      <trkpt lat="49.26304" lon="3.41886">
        <ele>150</ele>
        <time>2009-06-14T10:58:04Z</time>
      </trkpt>
      <trkpt lat="49.26314" lon="3.41884">
        <ele>150</ele>
        <time>2009-06-14T10:58:14Z</time>
      </trkpt>
      <trkpt lat="49.26325" lon="3.41879">
        <ele>150</ele>
        <time>2009-06-14T10:58:25Z</time>
      </trkpt>
      <trkpt lat="49.26334" lon="3.41875">
        <ele>143</ele>
        <time>2009-06-14T10:58:31Z</time>
      </trkpt>
      <trkpt lat="49.26346" lon="3.41875">
        <ele>143</ele>
        <time>2009-06-14T10:58:45Z</time>
      </trkpt>
      <trkpt lat="49.26356" lon="3.41873">
        <ele>143</ele>
        <time>2009-06-14T10:58:59Z</time>
      </trkpt>
      <trkpt lat="49.26365" lon="3.41875">
        <ele>143</ele>
        <time>2009-06-14T10:59:06Z</time>
      </trkpt>
      <trkpt lat="49.26374" lon="3.41879">
        <ele>143</ele>
        <time>2009-06-14T10:59:21Z</time>
      </trkpt>
      <trkpt lat="49.26383" lon="3.41883">
        <ele>148</ele>
        <time>2009-06-14T10:59:32Z</time>
      </trkpt>
      <trkpt lat="49.26392" lon="3.41891">
        <ele>148</ele>
        <time>2009-06-14T10:59:41Z</time>
      </trkpt>
      <trkpt lat="49.264" lon="3.41897">
        <ele>155</ele>
        <time>2009-06-14T10:59:50Z</time>
      </trkpt>
      <trkpt lat="49.26409" lon="3.41902">
        <ele>160</ele>
        <time>2009-06-14T11:00:10Z</time>
      </trkpt>
      <trkpt lat="49.26418" lon="3.41905">
        <ele>160</ele>
        <time>2009-06-14T11:00:18Z</time>
      </trkpt>
      <trkpt lat="49.26427" lon="3.41918">
        <ele>152</ele>
        <time>2009-06-14T11:00:37Z</time>
      </trkpt>
      <trkpt lat="49.2644" lon="3.41924">
        <ele>152</ele>
        <time>2009-06-14T11:00:50Z</time>
      </trkpt>
      <trkpt lat="49.2645" lon="3.41921">
        <ele>152</ele>
        <time>2009-06-14T11:00:54Z</time>
      </trkpt>
      <trkpt lat="49.2646" lon="3.41923">
        <ele>152</ele>
        <time>2009-06-14T11:01:02Z</time>
      </trkpt>
      <trkpt lat="49.26469" lon="3.41927">
        <ele>146</ele>
        <time>2009-06-14T11:01:12Z</time>
      </trkpt>
      <trkpt lat="49.26482" lon="3.41932">
        <ele>146</ele>
        <time>2009-06-14T11:01:27Z</time>
      </trkpt>
      <trkpt lat="49.26491" lon="3.4193">
        <ele>152</ele>
        <time>2009-06-14T11:01:31Z</time>
      </trkpt>
      <trkpt lat="49.26501" lon="3.41929">
        <ele>147</ele>
        <time>2009-06-14T11:01:39Z</time>
      </trkpt>
      <trkpt lat="49.2651" lon="3.41928">
        <ele>147</ele>
        <time>2009-06-14T11:01:46Z</time>
      </trkpt>
      <trkpt lat="49.2652" lon="3.4192">
        <ele>147</ele>
        <time>2009-06-14T11:01:56Z</time>
      </trkpt>
      <trkpt lat="49.26529" lon="3.41917">
        <ele>156</ele>
        <time>2009-06-14T11:02:03Z</time>
      </trkpt>
      <trkpt lat="49.26537" lon="3.4192">
        <ele>156</ele>
        <time>2009-06-14T11:02:11Z</time>
      </trkpt>
      <trkpt lat="49.26549" lon="3.41918">
        <ele>156</ele>
        <time>2009-06-14T11:02:23Z</time>
      </trkpt>
      <trkpt lat="49.26558" lon="3.41918">
        <ele>156</ele>
        <time>2009-06-14T11:02:43Z</time>
      </trkpt>
      <trkpt lat="49.2655" lon="3.41911">
        <ele>149</ele>
        <time>2009-06-14T11:03:28Z</time>
      </trkpt>
      <trkpt lat="49.2654" lon="3.4191">
        <ele>149</ele>
        <time>2009-06-14T11:04:07Z</time>
      </trkpt>
      <trkpt lat="49.26551" lon="3.41908">
        <ele>142</ele>
        <time>2009-06-14T11:05:51Z</time>
      </trkpt>
      <trkpt lat="49.26561" lon="3.41913">
        <ele>142</ele>
        <time>2009-06-14T11:05:59Z</time>
      </trkpt>
      <trkpt lat="49.26571" lon="3.41912">
        <ele>149</ele>
        <time>2009-06-14T11:06:10Z</time>
      </trkpt>
      <trkpt lat="49.26581" lon="3.4191">
        <ele>149</ele>
        <time>2009-06-14T11:06:17Z</time>
      </trkpt>
      <trkpt lat="49.26588" lon="3.41901">
        <ele>149</ele>
        <time>2009-06-14T11:06:23Z</time>
      </trkpt>
      <trkpt lat="49.26596" lon="3.41894">
        <ele>149</ele>
        <time>2009-06-14T11:06:28Z</time>
      </trkpt>
      <trkpt lat="49.26606" lon="3.41893">
        <ele>143</ele>
        <time>2009-06-14T11:06:34Z</time>
      </trkpt>
      <trkpt lat="49.26619" lon="3.41893">
        <ele>143</ele>
        <time>2009-06-14T11:06:41Z</time>
      </trkpt>
      <trkpt lat="49.26628" lon="3.41896">
        <ele>143</ele>
        <time>2009-06-14T11:06:43Z</time>
      </trkpt>
      <trkpt lat="49.26637" lon="3.419">
        <ele>143</ele>
        <time>2009-06-14T11:06:50Z</time>
      </trkpt>
      <trkpt lat="49.26647" lon="3.41902">
        <ele>143</ele>
        <time>2009-06-14T11:06:58Z</time>
      </trkpt>
      <trkpt lat="49.26658" lon="3.41902">
        <ele>143</ele>
        <time>2009-06-14T11:07:06Z</time>
      </trkpt>
      <trkpt lat="49.26667" lon="3.41907">
        <ele>143</ele>
        <time>2009-06-14T11:07:12Z</time>
      </trkpt>
      <trkpt lat="49.26676" lon="3.41906">
        <ele>143</ele>
        <time>2009-06-14T11:07:20Z</time>
      </trkpt>
      <trkpt lat="49.26686" lon="3.41911">
        <ele>143</ele>
        <time>2009-06-14T11:07:26Z</time>
      </trkpt>
      <trkpt lat="49.26695" lon="3.41913">
        <ele>138</ele>
        <time>2009-06-14T11:07:33Z</time>
      </trkpt>
      <trkpt lat="49.26705" lon="3.41914">
        <ele>138</ele>
        <time>2009-06-14T11:07:38Z</time>
      </trkpt>
      <trkpt lat="49.26715" lon="3.41913">
        <ele>138</ele>
        <time>2009-06-14T11:07:45Z</time>
      </trkpt>
      <trkpt lat="49.26724" lon="3.4191">
        <ele>138</ele>
        <time>2009-06-14T11:07:51Z</time>
      </trkpt>
      <trkpt lat="49.26735" lon="3.41908">
        <ele>138</ele>
        <time>2009-06-14T11:07:59Z</time>
      </trkpt>
      <trkpt lat="49.26744" lon="3.41907">
        <ele>138</ele>
        <time>2009-06-14T11:08:05Z</time>
      </trkpt>
      <trkpt lat="49.26753" lon="3.41902">
        <ele>138</ele>
        <time>2009-06-14T11:08:11Z</time>
      </trkpt>
      <trkpt lat="49.26763" lon="3.419">
        <ele>138</ele>
        <time>2009-06-14T11:08:18Z</time>
      </trkpt>
      <trkpt lat="49.26774" lon="3.41898">
        <ele>138</ele>
        <time>2009-06-14T11:08:25Z</time>
      </trkpt>
      <trkpt lat="49.26782" lon="3.41889">
        <ele>138</ele>
        <time>2009-06-14T11:08:29Z</time>
      </trkpt>
      <trkpt lat="49.26791" lon="3.41887">
        <ele>138</ele>
        <time>2009-06-14T11:08:35Z</time>
      </trkpt>
      <trkpt lat="49.268" lon="3.41879">
        <ele>138</ele>
        <time>2009-06-14T11:08:41Z</time>
      </trkpt>
      <trkpt lat="49.2681" lon="3.41878">
        <ele>138</ele>
        <time>2009-06-14T11:08:46Z</time>
      </trkpt>
      <trkpt lat="49.26821" lon="3.41875">
        <ele>130</ele>
        <time>2009-06-14T11:08:53Z</time>
      </trkpt>
      <trkpt lat="49.2683" lon="3.41872">
        <ele>130</ele>
        <time>2009-06-14T11:08:58Z</time>
      </trkpt>
      <trkpt lat="49.2684" lon="3.4187">
        <ele>130</ele>
        <time>2009-06-14T11:09:05Z</time>
      </trkpt>
      <trkpt lat="49.2685" lon="3.41868">
        <ele>130</ele>
        <time>2009-06-14T11:09:10Z</time>
      </trkpt>
      <trkpt lat="49.2686" lon="3.41866">
        <ele>130</ele>
        <time>2009-06-14T11:09:16Z</time>
      </trkpt>
      <trkpt lat="49.2687" lon="3.41866">
        <ele>130</ele>
        <time>2009-06-14T11:09:21Z</time>
      </trkpt>
      <trkpt lat="49.26879" lon="3.41867">
        <ele>130</ele>
        <time>2009-06-14T11:09:30Z</time>
      </trkpt>
      <trkpt lat="49.2689" lon="3.41867">
        <ele>130</ele>
        <time>2009-06-14T11:09:35Z</time>
      </trkpt>
      <trkpt lat="49.269" lon="3.41865">
        <ele>130</ele>
        <time>2009-06-14T11:09:41Z</time>
      </trkpt>
      <trkpt lat="49.26909" lon="3.41861">
        <ele>130</ele>
        <time>2009-06-14T11:09:47Z</time>
      </trkpt>
      <trkpt lat="49.26918" lon="3.41866">
        <ele>130</ele>
        <time>2009-06-14T11:09:54Z</time>
      </trkpt>
      <trkpt lat="49.26922" lon="3.41879">
        <ele>130</ele>
        <time>2009-06-14T11:10:01Z</time>
      </trkpt>
      <trkpt lat="49.26927" lon="3.41892">
        <ele>130</ele>
        <time>2009-06-14T11:10:08Z</time>
      </trkpt>
      <trkpt lat="49.26932" lon="3.41905">
        <ele>130</ele>
        <time>2009-06-14T11:10:16Z</time>
      </trkpt>
      <trkpt lat="49.26938" lon="3.41918">
        <ele>135</ele>
        <time>2009-06-14T11:10:23Z</time>
      </trkpt>
      <trkpt lat="49.26942" lon="3.4193">
        <ele>135</ele>
        <time>2009-06-14T11:10:29Z</time>
      </trkpt>
      <trkpt lat="49.26949" lon="3.41943">
        <ele>135</ele>
        <time>2009-06-14T11:10:35Z</time>
      </trkpt>
      <trkpt lat="49.26957" lon="3.41954">
        <ele>135</ele>
        <time>2009-06-14T11:10:41Z</time>
      </trkpt>
      <trkpt lat="49.26963" lon="3.41965">
        <ele>135</ele>
        <time>2009-06-14T11:10:46Z</time>
      </trkpt>
      <trkpt lat="49.26968" lon="3.41979">
        <ele>135</ele>
        <time>2009-06-14T11:10:53Z</time>
      </trkpt>
      <trkpt lat="49.26982" lon="3.41992">
        <ele>135</ele>
        <time>2009-06-14T11:11:00Z</time>
      </trkpt>
      <trkpt lat="49.26977" lon="3.42005">
        <ele>135</ele>
        <time>2009-06-14T11:11:05Z</time>
      </trkpt>
      <trkpt lat="49.26985" lon="3.42011">
        <ele>130</ele>
        <time>2009-06-14T11:11:09Z</time>
      </trkpt>
      <trkpt lat="49.26985" lon="3.42026">
        <ele>130</ele>
        <time>2009-06-14T11:11:16Z</time>
      </trkpt>
      <trkpt lat="49.26992" lon="3.42037">
        <ele>130</ele>
        <time>2009-06-14T11:11:23Z</time>
      </trkpt>
      <trkpt lat="49.27001" lon="3.42043">
        <ele>136</ele>
        <time>2009-06-14T11:11:26Z</time>
      </trkpt>
      <trkpt lat="49.27009" lon="3.42052">
        <ele>136</ele>
        <time>2009-06-14T11:11:34Z</time>
      </trkpt>
      <trkpt lat="49.27015" lon="3.42066">
        <ele>136</ele>
        <time>2009-06-14T11:11:41Z</time>
      </trkpt>
      <trkpt lat="49.27011" lon="3.42082">
        <ele>128</ele>
        <time>2009-06-14T11:11:48Z</time>
      </trkpt>
      <trkpt lat="49.27022" lon="3.42094">
        <ele>128</ele>
        <time>2009-06-14T11:11:58Z</time>
      </trkpt>
      <trkpt lat="49.27034" lon="3.42094">
        <ele>136</ele>
        <time>2009-06-14T11:12:01Z</time>
      </trkpt>
      <trkpt lat="49.27043" lon="3.421">
        <ele>136</ele>
        <time>2009-06-14T11:12:04Z</time>
      </trkpt>
      <trkpt lat="49.27038" lon="3.42119">
        <ele>136</ele>
        <time>2009-06-14T11:12:12Z</time>
      </trkpt>
      <trkpt lat="49.27034" lon="3.42132">
        <ele>136</ele>
        <time>2009-06-14T11:12:18Z</time>
      </trkpt>
      <trkpt lat="49.27035" lon="3.42146">
        <ele>126</ele>
        <time>2009-06-14T11:12:27Z</time>
      </trkpt>
      <trkpt lat="49.27045" lon="3.42151">
        <ele>133</ele>
        <time>2009-06-14T11:12:32Z</time>
      </trkpt>
      <trkpt lat="49.27053" lon="3.4216">
        <ele>133</ele>
        <time>2009-06-14T11:12:38Z</time>
      </trkpt>
      <trkpt lat="49.2706" lon="3.4217">
        <ele>133</ele>
        <time>2009-06-14T11:12:44Z</time>
      </trkpt>
      <trkpt lat="49.27066" lon="3.4218">
        <ele>133</ele>
        <time>2009-06-14T11:12:50Z</time>
      </trkpt>
      <trkpt lat="49.27072" lon="3.42191">
        <ele>133</ele>
        <time>2009-06-14T11:12:57Z</time>
      </trkpt>
      <trkpt lat="49.27078" lon="3.42202">
        <ele>133</ele>
        <time>2009-06-14T11:13:04Z</time>
      </trkpt>
      <trkpt lat="49.27085" lon="3.42214">
        <ele>133</ele>
        <time>2009-06-14T11:13:11Z</time>
      </trkpt>
      <trkpt lat="49.27091" lon="3.42227">
        <ele>133</ele>
        <time>2009-06-14T11:13:19Z</time>
      </trkpt>
      <trkpt lat="49.27098" lon="3.42238">
        <ele>133</ele>
        <time>2009-06-14T11:13:27Z</time>
      </trkpt>
      <trkpt lat="49.27104" lon="3.42249">
        <ele>133</ele>
        <time>2009-06-14T11:13:34Z</time>
      </trkpt>
      <trkpt lat="49.2711" lon="3.4226">
        <ele>133</ele>
        <time>2009-06-14T11:13:41Z</time>
      </trkpt>
      <trkpt lat="49.27116" lon="3.42272">
        <ele>133</ele>
        <time>2009-06-14T11:13:49Z</time>
      </trkpt>
      <trkpt lat="49.27122" lon="3.42283">
        <ele>133</ele>
        <time>2009-06-14T11:13:56Z</time>
      </trkpt>
      <trkpt lat="49.27129" lon="3.42294">
        <ele>133</ele>
        <time>2009-06-14T11:14:03Z</time>
      </trkpt>
      <trkpt lat="49.27135" lon="3.42306">
        <ele>133</ele>
        <time>2009-06-14T11:14:10Z</time>
      </trkpt>
      <trkpt lat="49.27141" lon="3.42317">
        <ele>133</ele>
        <time>2009-06-14T11:14:17Z</time>
      </trkpt>
      <trkpt lat="49.27147" lon="3.42328">
        <ele>133</ele>
        <time>2009-06-14T11:14:24Z</time>
      </trkpt>
      <trkpt lat="49.27153" lon="3.4234">
        <ele>133</ele>
        <time>2009-06-14T11:14:31Z</time>
      </trkpt>
      <trkpt lat="49.27159" lon="3.42352">
        <ele>133</ele>
        <time>2009-06-14T11:14:38Z</time>
      </trkpt>
      <trkpt lat="49.27165" lon="3.42364">
        <ele>133</ele>
        <time>2009-06-14T11:14:46Z</time>
      </trkpt>
      <trkpt lat="49.27171" lon="3.42375">
        <ele>133</ele>
        <time>2009-06-14T11:14:53Z</time>
      </trkpt>
      <trkpt lat="49.27177" lon="3.42388">
        <ele>133</ele>
        <time>2009-06-14T11:15:01Z</time>
      </trkpt>
      <trkpt lat="49.27183" lon="3.424">
        <ele>133</ele>
        <time>2009-06-14T11:15:10Z</time>
      </trkpt>
      <trkpt lat="49.27189" lon="3.42411">
        <ele>133</ele>
        <time>2009-06-14T11:15:17Z</time>
      </trkpt>
      <trkpt lat="49.27194" lon="3.42423">
        <ele>133</ele>
        <time>2009-06-14T11:15:24Z</time>
      </trkpt>
      <trkpt lat="49.27199" lon="3.42434">
        <ele>133</ele>
        <time>2009-06-14T11:15:31Z</time>
      </trkpt>
      <trkpt lat="49.27205" lon="3.42446">
        <ele>133</ele>
        <time>2009-06-14T11:15:38Z</time>
      </trkpt>
      <trkpt lat="49.2721" lon="3.42458">
        <ele>133</ele>
        <time>2009-06-14T11:15:45Z</time>
      </trkpt>
      <trkpt lat="49.27216" lon="3.42469">
        <ele>133</ele>
        <time>2009-06-14T11:15:54Z</time>
      </trkpt>
      <trkpt lat="49.27222" lon="3.42483">
        <ele>133</ele>
        <time>2009-06-14T11:16:02Z</time>
      </trkpt>
      <trkpt lat="49.27228" lon="3.42494">
        <ele>133</ele>
        <time>2009-06-14T11:16:10Z</time>
      </trkpt>
      <trkpt lat="49.27232" lon="3.42506">
        <ele>124</ele>
        <time>2009-06-14T11:16:16Z</time>
      </trkpt>
      <trkpt lat="49.27239" lon="3.4252">
        <ele>124</ele>
        <time>2009-06-14T11:16:23Z</time>
      </trkpt>
      <trkpt lat="49.27247" lon="3.42528">
        <ele>124</ele>
        <time>2009-06-14T11:16:29Z</time>
      </trkpt>
      <trkpt lat="49.27254" lon="3.42539">
        <ele>124</ele>
        <time>2009-06-14T11:16:38Z</time>
      </trkpt>
      <trkpt lat="49.27262" lon="3.42548">
        <ele>124</ele>
        <time>2009-06-14T11:16:47Z</time>
      </trkpt>
      <trkpt lat="49.27269" lon="3.42558">
        <ele>132</ele>
        <time>2009-06-14T11:16:53Z</time>
      </trkpt>
      <trkpt lat="49.27277" lon="3.42564">
        <ele>132</ele>
        <time>2009-06-14T11:17:01Z</time>
      </trkpt>
      <trkpt lat="49.27287" lon="3.42569">
        <ele>132</ele>
        <time>2009-06-14T11:17:07Z</time>
      </trkpt>
      <trkpt lat="49.27296" lon="3.42573">
        <ele>132</ele>
        <time>2009-06-14T11:17:13Z</time>
      </trkpt>
      <trkpt lat="49.27306" lon="3.42575">
        <ele>132</ele>
        <time>2009-06-14T11:17:23Z</time>
      </trkpt>
      <trkpt lat="49.27316" lon="3.42575">
        <ele>132</ele>
        <time>2009-06-14T11:17:30Z</time>
      </trkpt>
      <trkpt lat="49.27326" lon="3.42573">
        <ele>132</ele>
        <time>2009-06-14T11:17:39Z</time>
      </trkpt>
      <trkpt lat="49.27335" lon="3.42569">
        <ele>132</ele>
        <time>2009-06-14T11:17:47Z</time>
      </trkpt>
      <trkpt lat="49.27345" lon="3.42566">
        <ele>132</ele>
        <time>2009-06-14T11:17:54Z</time>
      </trkpt>
      <trkpt lat="49.27354" lon="3.42566">
        <ele>132</ele>
        <time>2009-06-14T11:18:02Z</time>
      </trkpt>
      <trkpt lat="49.27364" lon="3.42562">
        <ele>132</ele>
        <time>2009-06-14T11:18:09Z</time>
      </trkpt>
      <trkpt lat="49.27374" lon="3.42558">
        <ele>132</ele>
        <time>2009-06-14T11:18:18Z</time>
      </trkpt>
      <trkpt lat="49.27383" lon="3.42556">
        <ele>125</ele>
        <time>2009-06-14T11:18:25Z</time>
      </trkpt>
      <trkpt lat="49.27392" lon="3.42551">
        <ele>125</ele>
        <time>2009-06-14T11:18:33Z</time>
      </trkpt>
      <trkpt lat="49.27403" lon="3.4255">
        <ele>125</ele>
        <time>2009-06-14T11:18:39Z</time>
      </trkpt>
      <trkpt lat="49.27414" lon="3.4255">
        <ele>125</ele>
        <time>2009-06-14T11:18:46Z</time>
      </trkpt>
      <trkpt lat="49.27424" lon="3.42548">
        <ele>125</ele>
        <time>2009-06-14T11:18:55Z</time>
      </trkpt>
      <trkpt lat="49.27432" lon="3.42556">
        <ele>125</ele>
        <time>2009-06-14T11:19:39Z</time>
      </trkpt>
      <trkpt lat="49.27439" lon="3.42566">
        <ele>125</ele>
        <time>2009-06-14T11:19:52Z</time>
      </trkpt>
      <trkpt lat="49.27444" lon="3.42578">
        <ele>120</ele>
        <time>2009-06-14T11:20:00Z</time>
      </trkpt>
      <trkpt lat="49.27447" lon="3.42591">
        <ele>120</ele>
        <time>2009-06-14T11:20:07Z</time>
      </trkpt>
      <trkpt lat="49.27447" lon="3.42607">
        <ele>120</ele>
        <time>2009-06-14T11:20:14Z</time>
      </trkpt>
      <trkpt lat="49.27446" lon="3.42622">
        <ele>120</ele>
        <time>2009-06-14T11:20:21Z</time>
      </trkpt>
      <trkpt lat="49.27441" lon="3.42635">
        <ele>120</ele>
        <time>2009-06-14T11:20:27Z</time>
      </trkpt>
      <trkpt lat="49.27437" lon="3.42647">
        <ele>120</ele>
        <time>2009-06-14T11:20:34Z</time>
      </trkpt>
      <trkpt lat="49.27433" lon="3.4266">
        <ele>120</ele>
        <time>2009-06-14T11:20:40Z</time>
      </trkpt>
      <trkpt lat="49.27429" lon="3.42672">
        <ele>120</ele>
        <time>2009-06-14T11:20:47Z</time>
      </trkpt>
      <trkpt lat="49.27426" lon="3.42687">
        <ele>120</ele>
        <time>2009-06-14T11:20:55Z</time>
      </trkpt>
      <trkpt lat="49.27423" lon="3.42701">
        <ele>120</ele>
        <time>2009-06-14T11:21:03Z</time>
      </trkpt>
      <trkpt lat="49.27419" lon="3.42715">
        <ele>120</ele>
        <time>2009-06-14T11:21:10Z</time>
      </trkpt>
      <trkpt lat="49.27416" lon="3.42728">
        <ele>120</ele>
        <time>2009-06-14T11:21:18Z</time>
      </trkpt>
      <trkpt lat="49.27413" lon="3.42742">
        <ele>120</ele>
        <time>2009-06-14T11:21:25Z</time>
      </trkpt>
      <trkpt lat="49.2741" lon="3.42756">
        <ele>120</ele>
        <time>2009-06-14T11:21:32Z</time>
      </trkpt>
      <trkpt lat="49.27406" lon="3.42768">
        <ele>113</ele>
        <time>2009-06-14T11:21:40Z</time>
      </trkpt>
      <trkpt lat="49.27398" lon="3.42777">
        <ele>113</ele>
        <time>2009-06-14T11:21:47Z</time>
      </trkpt>
      <trkpt lat="49.27389" lon="3.4278">
        <ele>113</ele>
        <time>2009-06-14T11:21:54Z</time>
      </trkpt>
      <trkpt lat="49.27379" lon="3.42783">
        <ele>113</ele>
        <time>2009-06-14T11:22:00Z</time>
      </trkpt>
      <trkpt lat="49.27369" lon="3.42785">
        <ele>113</ele>
        <time>2009-06-14T11:22:08Z</time>
      </trkpt>
      <trkpt lat="49.27359" lon="3.42789">
        <ele>113</ele>
        <time>2009-06-14T11:22:15Z</time>
      </trkpt>
      <trkpt lat="49.27349" lon="3.42789">
        <ele>108</ele>
        <time>2009-06-14T11:22:23Z</time>
      </trkpt>
      <trkpt lat="49.2734" lon="3.4279">
        <ele>108</ele>
        <time>2009-06-14T11:22:31Z</time>
      </trkpt>
      <trkpt lat="49.2733" lon="3.42793">
        <ele>108</ele>
        <time>2009-06-14T11:22:38Z</time>
      </trkpt>
      <trkpt lat="49.27322" lon="3.42785">
        <ele>108</ele>
        <time>2009-06-14T11:22:47Z</time>
      </trkpt>
      <trkpt lat="49.27313" lon="3.42792">
        <ele>108</ele>
        <time>2009-06-14T11:22:56Z</time>
      </trkpt>
      <trkpt lat="49.27304" lon="3.42795">
        <ele>108</ele>
        <time>2009-06-14T11:23:04Z</time>
      </trkpt>
      <trkpt lat="49.27296" lon="3.42807">
        <ele>108</ele>
        <time>2009-06-14T11:23:10Z</time>
      </trkpt>
      <trkpt lat="49.27292" lon="3.4282">
        <ele>114</ele>
        <time>2009-06-14T11:23:16Z</time>
      </trkpt>
      <trkpt lat="49.27285" lon="3.4283">
        <ele>114</ele>
        <time>2009-06-14T11:23:22Z</time>
      </trkpt>
      <trkpt lat="49.27279" lon="3.4284">
        <ele>114</ele>
        <time>2009-06-14T11:23:27Z</time>
      </trkpt>
      <trkpt lat="49.27274" lon="3.42852">
        <ele>114</ele>
        <time>2009-06-14T11:23:33Z</time>
      </trkpt>
      <trkpt lat="49.27272" lon="3.42865">
        <ele>114</ele>
        <time>2009-06-14T11:23:41Z</time>
      </trkpt>
      <trkpt lat="49.2727" lon="3.4288">
        <ele>114</ele>
        <time>2009-06-14T11:23:51Z</time>
      </trkpt>
      <trkpt lat="49.27268" lon="3.42894">
        <ele>109</ele>
        <time>2009-06-14T11:24:00Z</time>
      </trkpt>
      <trkpt lat="49.27269" lon="3.4291">
        <ele>109</ele>
        <time>2009-06-14T11:24:09Z</time>
      </trkpt>
      <trkpt lat="49.2727" lon="3.42925">
        <ele>109</ele>
        <time>2009-06-14T11:24:17Z</time>
      </trkpt>
      <trkpt lat="49.2727" lon="3.42939">
        <ele>109</ele>
        <time>2009-06-14T11:24:25Z</time>
      </trkpt>
      <trkpt lat="49.27274" lon="3.42953">
        <ele>109</ele>
        <time>2009-06-14T11:24:34Z</time>
      </trkpt>
      <trkpt lat="49.27282" lon="3.42963">
        <ele>109</ele>
        <time>2009-06-14T11:24:41Z</time>
      </trkpt>
      <trkpt lat="49.27287" lon="3.42974">
        <ele>109</ele>
        <time>2009-06-14T11:24:49Z</time>
      </trkpt>
      <trkpt lat="49.27295" lon="3.42982">
        <ele>109</ele>
        <time>2009-06-14T11:24:58Z</time>
      </trkpt>
      <trkpt lat="49.27304" lon="3.42986">
        <ele>109</ele>
        <time>2009-06-14T11:25:03Z</time>
      </trkpt>
      <trkpt lat="49.27314" lon="3.42987">
        <ele>115</ele>
        <time>2009-06-14T11:25:10Z</time>
      </trkpt>
      <trkpt lat="49.27323" lon="3.42991">
        <ele>115</ele>
        <time>2009-06-14T11:25:18Z</time>
      </trkpt>
      <trkpt lat="49.27333" lon="3.42991">
        <ele>115</ele>
        <time>2009-06-14T11:25:27Z</time>
      </trkpt>
      <trkpt lat="49.27343" lon="3.42994">
        <ele>110</ele>
        <time>2009-06-14T11:25:33Z</time>
      </trkpt>
      <trkpt lat="49.27353" lon="3.43003">
        <ele>110</ele>
        <time>2009-06-14T11:25:53Z</time>
      </trkpt>
      <trkpt lat="49.27362" lon="3.43006">
        <ele>110</ele>
        <time>2009-06-14T11:26:00Z</time>
      </trkpt>
      <trkpt lat="49.27372" lon="3.43002">
        <ele>110</ele>
        <time>2009-06-14T11:26:06Z</time>
      </trkpt>
      <trkpt lat="49.27378" lon="3.43012">
        <ele>93</ele>
        <time>2009-06-14T11:26:27Z</time>
      </trkpt>
      <trkpt lat="49.27387" lon="3.43014">
        <ele>84</ele>
        <time>2009-06-14T11:26:39Z</time>
      </trkpt>
      <trkpt lat="49.27397" lon="3.43013">
        <ele>84</ele>
        <time>2009-06-14T11:26:45Z</time>
      </trkpt>
      <trkpt lat="49.27406" lon="3.43013">
        <ele>77</ele>
        <time>2009-06-14T11:26:52Z</time>
      </trkpt>
      <trkpt lat="49.27416" lon="3.43014">
        <ele>77</ele>
        <time>2009-06-14T11:26:57Z</time>
      </trkpt>
      <trkpt lat="49.27426" lon="3.43015">
        <ele>77</ele>
        <time>2009-06-14T11:27:01Z</time>
      </trkpt>
      <trkpt lat="49.27435" lon="3.43014">
        <ele>77</ele>
        <time>2009-06-14T11:27:08Z</time>
      </trkpt>
      <trkpt lat="49.27446" lon="3.43009">
        <ele>77</ele>
        <time>2009-06-14T11:27:16Z</time>
      </trkpt>
      <trkpt lat="49.27457" lon="3.43009">
        <ele>92</ele>
        <time>2009-06-14T11:27:23Z</time>
      </trkpt>
      <trkpt lat="49.27466" lon="3.43011">
        <ele>102</ele>
        <time>2009-06-14T11:27:32Z</time>
      </trkpt>
      <trkpt lat="49.27477" lon="3.4301">
        <ele>102</ele>
        <time>2009-06-14T11:27:41Z</time>
      </trkpt>
      <trkpt lat="49.27486" lon="3.43013">
        <ele>102</ele>
        <time>2009-06-14T11:27:50Z</time>
      </trkpt>
      <trkpt lat="49.27496" lon="3.43014">
        <ele>95</ele>
        <time>2009-06-14T11:28:01Z</time>
      </trkpt>
      <trkpt lat="49.27507" lon="3.43013">
        <ele>95</ele>
        <time>2009-06-14T11:28:09Z</time>
      </trkpt>
      <trkpt lat="49.27517" lon="3.43016">
        <ele>100</ele>
        <time>2009-06-14T11:28:15Z</time>
      </trkpt>
      <trkpt lat="49.27527" lon="3.4302">
        <ele>100</ele>
        <time>2009-06-14T11:28:25Z</time>
      </trkpt>
      <trkpt lat="49.27536" lon="3.43028">
        <ele>100</ele>
        <time>2009-06-14T11:28:34Z</time>
      </trkpt>
      <trkpt lat="49.27544" lon="3.43036">
        <ele>100</ele>
        <time>2009-06-14T11:28:44Z</time>
      </trkpt>
      <trkpt lat="49.27553" lon="3.43044">
        <ele>100</ele>
        <time>2009-06-14T11:28:53Z</time>
      </trkpt>
      <trkpt lat="49.2756" lon="3.43052">
        <ele>100</ele>
        <time>2009-06-14T11:29:01Z</time>
      </trkpt>
      <trkpt lat="49.27568" lon="3.43059">
        <ele>100</ele>
        <time>2009-06-14T11:29:09Z</time>
      </trkpt>
      <trkpt lat="49.27578" lon="3.43064">
        <ele>100</ele>
        <time>2009-06-14T11:29:18Z</time>
      </trkpt>
      <trkpt lat="49.27588" lon="3.43066">
        <ele>100</ele>
        <time>2009-06-14T11:29:28Z</time>
      </trkpt>
      <trkpt lat="49.27601" lon="3.43064">
        <ele>100</ele>
        <time>2009-06-14T11:29:35Z</time>
      </trkpt>
      <trkpt lat="49.2761" lon="3.43059">
        <ele>100</ele>
        <time>2009-06-14T11:29:43Z</time>
      </trkpt>
      <trkpt lat="49.27617" lon="3.4305">
        <ele>106</ele>
        <time>2009-06-14T11:30:00Z</time>
      </trkpt>
      <trkpt lat="49.27623" lon="3.43039">
        <ele>106</ele>
        <time>2009-06-14T11:30:07Z</time>
      </trkpt>
      <trkpt lat="49.27629" lon="3.43028">
        <ele>98</ele>
        <time>2009-06-14T11:30:15Z</time>
      </trkpt>
      <trkpt lat="49.27638" lon="3.43019">
        <ele>98</ele>
        <time>2009-06-14T11:30:23Z</time>
      </trkpt>
      <trkpt lat="49.27645" lon="3.4301">
        <ele>98</ele>
        <time>2009-06-14T11:30:30Z</time>
      </trkpt>
      <trkpt lat="49.2765" lon="3.42997">
        <ele>106</ele>
        <time>2009-06-14T11:30:38Z</time>
      </trkpt>
      <trkpt lat="49.27651" lon="3.42982">
        <ele>106</ele>
        <time>2009-06-14T11:30:47Z</time>
      </trkpt>
      <trkpt lat="49.27655" lon="3.4297">
        <ele>106</ele>
        <time>2009-06-14T11:30:57Z</time>
      </trkpt>
      <trkpt lat="49.27665" lon="3.42964">
        <ele>118</ele>
        <time>2009-06-14T11:31:57Z</time>
      </trkpt>
      <trkpt lat="49.27657" lon="3.42968">
        <ele>107</ele>
        <time>2009-06-14T11:32:31Z</time>
      </trkpt>
      <trkpt lat="49.27666" lon="3.42965">
        <ele>119</ele>
        <time>2009-06-14T11:32:39Z</time>
      </trkpt>
      <trkpt lat="49.27656" lon="3.42959">
        <ele>105</ele>
        <time>2009-06-14T11:33:07Z</time>
      </trkpt>
      <trkpt lat="49.27665" lon="3.42963">
        <ele>105</ele>
        <time>2009-06-14T11:33:31Z</time>
      </trkpt>
      <trkpt lat="49.27655" lon="3.42962">
        <ele>105</ele>
        <time>2009-06-14T11:34:05Z</time>
      </trkpt>
      <trkpt lat="49.27665" lon="3.42955">
        <ele>113</ele>
        <time>2009-06-14T11:34:24Z</time>
      </trkpt>
      <trkpt lat="49.27674" lon="3.42947">
        <ele>113</ele>
        <time>2009-06-14T11:34:31Z</time>
      </trkpt>
      <trkpt lat="49.2768" lon="3.42936">
        <ele>113</ele>
        <time>2009-06-14T11:34:38Z</time>
      </trkpt>
      <trkpt lat="49.27687" lon="3.42925">
        <ele>113</ele>
        <time>2009-06-14T11:34:50Z</time>
      </trkpt>
      <trkpt lat="49.27697" lon="3.42921">
        <ele>113</ele>
        <time>2009-06-14T11:34:55Z</time>
      </trkpt>
      <trkpt lat="49.27707" lon="3.42917">
        <ele>113</ele>
        <time>2009-06-14T11:35:00Z</time>
      </trkpt>
      <trkpt lat="49.27717" lon="3.42918">
        <ele>108</ele>
        <time>2009-06-14T11:35:06Z</time>
      </trkpt>
      <trkpt lat="49.27725" lon="3.42906">
        <ele>108</ele>
        <time>2009-06-14T11:35:17Z</time>
      </trkpt>
      <trkpt lat="49.27731" lon="3.42894">
        <ele>108</ele>
        <time>2009-06-14T11:35:25Z</time>
      </trkpt>
      <trkpt lat="49.27738" lon="3.42883">
        <ele>108</ele>
        <time>2009-06-14T11:35:34Z</time>
      </trkpt>
      <trkpt lat="49.27747" lon="3.4288">
        <ele>108</ele>
        <time>2009-06-14T11:35:47Z</time>
      </trkpt>
      <trkpt lat="49.27756" lon="3.42883">
        <ele>108</ele>
        <time>2009-06-14T11:35:52Z</time>
      </trkpt>
      <trkpt lat="49.27762" lon="3.42872">
        <ele>113</ele>
        <time>2009-06-14T11:36:00Z</time>
      </trkpt>
      <trkpt lat="49.27772" lon="3.42869">
        <ele>113</ele>
        <time>2009-06-14T11:36:07Z</time>
      </trkpt>
      <trkpt lat="49.27782" lon="3.42865">
        <ele>113</ele>
        <time>2009-06-14T11:36:17Z</time>
      </trkpt>
      <trkpt lat="49.27792" lon="3.42861">
        <ele>113</ele>
        <time>2009-06-14T11:36:25Z</time>
      </trkpt>
      <trkpt lat="49.278" lon="3.42855">
        <ele>113</ele>
        <time>2009-06-14T11:36:32Z</time>
      </trkpt>
      <trkpt lat="49.27805" lon="3.42843">
        <ele>120</ele>
        <time>2009-06-14T11:36:42Z</time>
      </trkpt>
      <trkpt lat="49.27814" lon="3.42836">
        <ele>120</ele>
        <time>2009-06-14T11:36:50Z</time>
      </trkpt>
      <trkpt lat="49.27824" lon="3.4283">
        <ele>120</ele>
        <time>2009-06-14T11:36:54Z</time>
      </trkpt>
      <trkpt lat="49.27832" lon="3.42821">
        <ele>120</ele>
        <time>2009-06-14T11:37:06Z</time>
      </trkpt>
      <trkpt lat="49.27842" lon="3.42816">
        <ele>120</ele>
        <time>2009-06-14T11:37:13Z</time>
      </trkpt>
      <trkpt lat="49.27851" lon="3.42812">
        <ele>120</ele>
        <time>2009-06-14T11:37:21Z</time>
      </trkpt>
      <trkpt lat="49.27859" lon="3.42805">
        <ele>120</ele>
        <time>2009-06-14T11:37:32Z</time>
      </trkpt>
      <trkpt lat="49.27867" lon="3.42797">
        <ele>120</ele>
        <time>2009-06-14T11:37:40Z</time>
      </trkpt>
      <trkpt lat="49.27877" lon="3.42794">
        <ele>120</ele>
        <time>2009-06-14T11:37:52Z</time>
      </trkpt>
      <trkpt lat="49.27887" lon="3.42792">
        <ele>120</ele>
        <time>2009-06-14T11:38:00Z</time>
      </trkpt>
      <trkpt lat="49.27897" lon="3.4279">
        <ele>120</ele>
        <time>2009-06-14T11:38:07Z</time>
      </trkpt>
      <trkpt lat="49.27907" lon="3.42788">
        <ele>120</ele>
        <time>2009-06-14T11:38:16Z</time>
      </trkpt>
      <trkpt lat="49.27916" lon="3.42785">
        <ele>120</ele>
        <time>2009-06-14T11:38:21Z</time>
      </trkpt>
      <trkpt lat="49.27925" lon="3.42779">
        <ele>120</ele>
        <time>2009-06-14T11:38:35Z</time>
      </trkpt>
      <trkpt lat="49.27934" lon="3.42777">
        <ele>120</ele>
        <time>2009-06-14T11:38:40Z</time>
      </trkpt>
      <trkpt lat="49.27943" lon="3.42776">
        <ele>111</ele>
        <time>2009-06-14T11:38:52Z</time>
      </trkpt>
      <trkpt lat="49.27954" lon="3.42772">
        <ele>111</ele>
        <time>2009-06-14T11:39:04Z</time>
      </trkpt>
      <trkpt lat="49.27966" lon="3.42771">
        <ele>111</ele>
        <time>2009-06-14T11:39:13Z</time>
      </trkpt>
      <trkpt lat="49.27976" lon="3.42768">
        <ele>117</ele>
        <time>2009-06-14T11:39:18Z</time>
      </trkpt>
      <trkpt lat="49.27985" lon="3.42763">
        <ele>117</ele>
        <time>2009-06-14T11:39:25Z</time>
      </trkpt>
      <trkpt lat="49.27993" lon="3.42757">
        <ele>127</ele>
        <time>2009-06-14T11:39:37Z</time>
      </trkpt>
      <trkpt lat="49.28003" lon="3.42753">
        <ele>133</ele>
        <time>2009-06-14T11:39:41Z</time>
      </trkpt>
      <trkpt lat="49.28012" lon="3.42748">
        <ele>133</ele>
        <time>2009-06-14T11:39:50Z</time>
      </trkpt>
      <trkpt lat="49.28019" lon="3.42738">
        <ele>133</ele>
        <time>2009-06-14T11:40:03Z</time>
      </trkpt>
      <trkpt lat="49.28027" lon="3.42729">
        <ele>139</ele>
        <time>2009-06-14T11:40:10Z</time>
      </trkpt>
      <trkpt lat="49.28037" lon="3.42723">
        <ele>133</ele>
        <time>2009-06-14T11:40:20Z</time>
      </trkpt>
      <trkpt lat="49.28045" lon="3.42714">
        <ele>133</ele>
        <time>2009-06-14T11:40:31Z</time>
      </trkpt>
      <trkpt lat="49.28055" lon="3.42709">
        <ele>124</ele>
        <time>2009-06-14T11:40:41Z</time>
      </trkpt>
      <trkpt lat="49.28064" lon="3.42706">
        <ele>124</ele>
        <time>2009-06-14T11:40:46Z</time>
      </trkpt>
      <trkpt lat="49.28072" lon="3.42698">
        <ele>124</ele>
        <time>2009-06-14T11:40:53Z</time>
      </trkpt>
      <trkpt lat="49.28082" lon="3.42691">
        <ele>124</ele>
        <time>2009-06-14T11:40:59Z</time>
      </trkpt>
      <trkpt lat="49.2809" lon="3.42684">
        <ele>124</ele>
        <time>2009-06-14T11:41:07Z</time>
      </trkpt>
      <trkpt lat="49.28098" lon="3.42674">
        <ele>124</ele>
        <time>2009-06-14T11:41:17Z</time>
      </trkpt>
      <trkpt lat="49.28106" lon="3.42666">
        <ele>124</ele>
        <time>2009-06-14T11:41:25Z</time>
      </trkpt>
      <trkpt lat="49.28114" lon="3.42658">
        <ele>124</ele>
        <time>2009-06-14T11:41:34Z</time>
      </trkpt>
      <trkpt lat="49.28123" lon="3.42649">
        <ele>124</ele>
        <time>2009-06-14T11:41:41Z</time>
      </trkpt>
      <trkpt lat="49.28131" lon="3.42643">
        <ele>124</ele>
        <time>2009-06-14T11:41:48Z</time>
      </trkpt>
      <trkpt lat="49.2814" lon="3.42634">
        <ele>124</ele>
        <time>2009-06-14T11:41:58Z</time>
      </trkpt>
      <trkpt lat="49.28149" lon="3.42627">
        <ele>124</ele>
        <time>2009-06-14T11:42:08Z</time>
      </trkpt>
      <trkpt lat="49.28157" lon="3.42622">
        <ele>124</ele>
        <time>2009-06-14T11:42:15Z</time>
      </trkpt>
      <trkpt lat="49.28166" lon="3.42616">
        <ele>124</ele>
        <time>2009-06-14T11:42:25Z</time>
      </trkpt>
      <trkpt lat="49.28176" lon="3.42612">
        <ele>124</ele>
        <time>2009-06-14T11:42:32Z</time>
      </trkpt>
      <trkpt lat="49.28185" lon="3.42609">
        <ele>124</ele>
        <time>2009-06-14T11:42:41Z</time>
      </trkpt>
      <trkpt lat="49.28194" lon="3.42606">
        <ele>124</ele>
        <time>2009-06-14T11:42:48Z</time>
      </trkpt>
      <trkpt lat="49.28204" lon="3.426">
        <ele>124</ele>
        <time>2009-06-14T11:42:59Z</time>
      </trkpt>
      <trkpt lat="49.28214" lon="3.426">
        <ele>124</ele>
        <time>2009-06-14T11:43:06Z</time>
      </trkpt>
      <trkpt lat="49.28226" lon="3.42598">
        <ele>124</ele>
        <time>2009-06-14T11:43:14Z</time>
      </trkpt>
      <trkpt lat="49.28236" lon="3.42597">
        <ele>124</ele>
        <time>2009-06-14T11:43:23Z</time>
      </trkpt>
      <trkpt lat="49.28246" lon="3.42595">
        <ele>124</ele>
        <time>2009-06-14T11:43:31Z</time>
      </trkpt>
      <trkpt lat="49.28255" lon="3.42596">
        <ele>124</ele>
        <time>2009-06-14T11:43:48Z</time>
      </trkpt>
      <trkpt lat="49.28265" lon="3.42593">
        <ele>124</ele>
        <time>2009-06-14T11:43:57Z</time>
      </trkpt>
      <trkpt lat="49.28276" lon="3.4259">
        <ele>129</ele>
        <time>2009-06-14T11:44:04Z</time>
      </trkpt>
      <trkpt lat="49.28285" lon="3.42589">
        <ele>129</ele>
        <time>2009-06-14T11:44:09Z</time>
      </trkpt>
      <trkpt lat="49.28295" lon="3.42587">
        <ele>123</ele>
        <time>2009-06-14T11:44:19Z</time>
      </trkpt>
      <trkpt lat="49.28305" lon="3.42583">
        <ele>123</ele>
        <time>2009-06-14T11:44:29Z</time>
      </trkpt>
      <trkpt lat="49.28315" lon="3.42581">
        <ele>123</ele>
        <time>2009-06-14T11:44:35Z</time>
      </trkpt>
      <trkpt lat="49.28324" lon="3.42575">
        <ele>123</ele>
        <time>2009-06-14T11:44:44Z</time>
      </trkpt>
      <trkpt lat="49.28334" lon="3.42573">
        <ele>123</ele>
        <time>2009-06-14T11:44:50Z</time>
      </trkpt>
      <trkpt lat="49.28342" lon="3.42567">
        <ele>123</ele>
        <time>2009-06-14T11:44:59Z</time>
      </trkpt>
      <trkpt lat="49.28351" lon="3.42561">
        <ele>123</ele>
        <time>2009-06-14T11:45:12Z</time>
      </trkpt>
      <trkpt lat="49.28361" lon="3.42562">
        <ele>123</ele>
        <time>2009-06-14T11:45:17Z</time>
      </trkpt>
      <trkpt lat="49.28371" lon="3.42562">
        <ele>123</ele>
        <time>2009-06-14T11:45:22Z</time>
      </trkpt>
      <trkpt lat="49.2837" lon="3.42547">
        <ele>131</ele>
        <time>2009-06-14T11:45:46Z</time>
      </trkpt>
      <trkpt lat="49.28378" lon="3.42557">
        <ele>119</ele>
        <time>2009-06-14T11:46:03Z</time>
      </trkpt>
      <trkpt lat="49.28387" lon="3.42553">
        <ele>119</ele>
        <time>2009-06-14T11:46:09Z</time>
      </trkpt>
      <trkpt lat="49.28397" lon="3.4255">
        <ele>125</ele>
        <time>2009-06-14T11:46:16Z</time>
      </trkpt>
      <trkpt lat="49.28407" lon="3.42547">
        <ele>125</ele>
        <time>2009-06-14T11:46:24Z</time>
      </trkpt>
      <trkpt lat="49.28415" lon="3.42541">
        <ele>125</ele>
        <time>2009-06-14T11:46:32Z</time>
      </trkpt>
      <trkpt lat="49.28428" lon="3.42538">
        <ele>125</ele>
        <time>2009-06-14T11:46:41Z</time>
      </trkpt>
      <trkpt lat="49.28438" lon="3.42537">
        <ele>125</ele>
        <time>2009-06-14T11:46:49Z</time>
      </trkpt>
      <trkpt lat="49.28448" lon="3.42535">
        <ele>125</ele>
        <time>2009-06-14T11:46:57Z</time>
      </trkpt>
      <trkpt lat="49.28456" lon="3.42531">
        <ele>125</ele>
        <time>2009-06-14T11:47:04Z</time>
      </trkpt>
      <trkpt lat="49.28466" lon="3.42527">
        <ele>125</ele>
        <time>2009-06-14T11:47:10Z</time>
      </trkpt>
      <trkpt lat="49.28479" lon="3.42522">
        <ele>136</ele>
        <time>2009-06-14T11:47:23Z</time>
      </trkpt>
      <trkpt lat="49.28487" lon="3.42514">
        <ele>136</ele>
        <time>2009-06-14T11:47:29Z</time>
      </trkpt>
      <trkpt lat="49.28492" lon="3.42502">
        <ele>130</ele>
        <time>2009-06-14T11:47:36Z</time>
      </trkpt>
      <trkpt lat="49.2849" lon="3.42488">
        <ele>130</ele>
        <time>2009-06-14T11:48:26Z</time>
      </trkpt>
      <trkpt lat="49.28492" lon="3.42474">
        <ele>130</ele>
        <time>2009-06-14T11:48:45Z</time>
      </trkpt>
      <trkpt lat="49.28498" lon="3.42462">
        <ele>130</ele>
        <time>2009-06-14T11:48:56Z</time>
      </trkpt>
      <trkpt lat="49.28504" lon="3.42451">
        <ele>130</ele>
        <time>2009-06-14T11:49:18Z</time>
      </trkpt>
      <trkpt lat="49.28503" lon="3.42437">
        <ele>120</ele>
        <time>2009-06-14T11:49:36Z</time>
      </trkpt>
      <trkpt lat="49.28508" lon="3.42424">
        <ele>120</ele>
        <time>2009-06-14T11:49:47Z</time>
      </trkpt>
      <trkpt lat="49.28515" lon="3.42414">
        <ele>125</ele>
        <time>2009-06-14T11:49:57Z</time>
      </trkpt>
      <trkpt lat="49.28516" lon="3.424">
        <ele>119</ele>
        <time>2009-06-14T11:50:08Z</time>
      </trkpt>
      <trkpt lat="49.28521" lon="3.42388">
        <ele>119</ele>
        <time>2009-06-14T11:50:17Z</time>
      </trkpt>
      <trkpt lat="49.28528" lon="3.42375">
        <ele>119</ele>
        <time>2009-06-14T11:50:25Z</time>
      </trkpt>
      <trkpt lat="49.28525" lon="3.42361">
        <ele>119</ele>
        <time>2009-06-14T11:50:34Z</time>
      </trkpt>
      <trkpt lat="49.28531" lon="3.42348">
        <ele>105</ele>
        <time>2009-06-14T11:50:44Z</time>
      </trkpt>
      <trkpt lat="49.28537" lon="3.42335">
        <ele>105</ele>
        <time>2009-06-14T11:50:57Z</time>
      </trkpt>
      <trkpt lat="49.28543" lon="3.42325">
        <ele>113</ele>
        <time>2009-06-14T11:51:03Z</time>
      </trkpt>
      <trkpt lat="49.28539" lon="3.42312">
        <ele>113</ele>
        <time>2009-06-14T11:51:14Z</time>
      </trkpt>
      <trkpt lat="49.28536" lon="3.42297">
        <ele>122</ele>
        <time>2009-06-14T11:51:26Z</time>
      </trkpt>
      <trkpt lat="49.28536" lon="3.42282">
        <ele>116</ele>
        <time>2009-06-14T11:51:38Z</time>
      </trkpt>
      <trkpt lat="49.2853" lon="3.42271">
        <ele>103</ele>
        <time>2009-06-14T11:51:53Z</time>
      </trkpt>
      <trkpt lat="49.28538" lon="3.42262">
        <ele>94</ele>
        <time>2009-06-14T11:52:01Z</time>
      </trkpt>
      <trkpt lat="49.28541" lon="3.42248">
        <ele>94</ele>
        <time>2009-06-14T11:52:04Z</time>
      </trkpt>
      <trkpt lat="49.28541" lon="3.42232">
        <ele>94</ele>
        <time>2009-06-14T11:52:10Z</time>
      </trkpt>
      <trkpt lat="49.28544" lon="3.42219">
        <ele>94</ele>
        <time>2009-06-14T11:52:20Z</time>
      </trkpt>
      <trkpt lat="49.28548" lon="3.42205">
        <ele>94</ele>
        <time>2009-06-14T11:52:30Z</time>
      </trkpt>
      <trkpt lat="49.28553" lon="3.42193">
        <ele>94</ele>
        <time>2009-06-14T11:52:38Z</time>
      </trkpt>
      <trkpt lat="49.28561" lon="3.42184">
        <ele>94</ele>
        <time>2009-06-14T11:52:46Z</time>
      </trkpt>
      <trkpt lat="49.28565" lon="3.42171">
        <ele>94</ele>
        <time>2009-06-14T11:52:57Z</time>
      </trkpt>
      <trkpt lat="49.28572" lon="3.42161">
        <ele>94</ele>
        <time>2009-06-14T11:53:04Z</time>
      </trkpt>
      <trkpt lat="49.28578" lon="3.42149">
        <ele>94</ele>
        <time>2009-06-14T11:53:12Z</time>
      </trkpt>
      <trkpt lat="49.28584" lon="3.42138">
        <ele>88</ele>
        <time>2009-06-14T11:53:22Z</time>
      </trkpt>
      <trkpt lat="49.28589" lon="3.42125">
        <ele>88</ele>
        <time>2009-06-14T11:53:33Z</time>
      </trkpt>
      <trkpt lat="49.28598" lon="3.42117">
        <ele>88</ele>
        <time>2009-06-14T11:53:42Z</time>
      </trkpt>
      <trkpt lat="49.28605" lon="3.42109">
        <ele>88</ele>
        <time>2009-06-14T11:54:17Z</time>
      </trkpt>
      <trkpt lat="49.28609" lon="3.42096">
        <ele>88</ele>
        <time>2009-06-14T11:54:31Z</time>
      </trkpt>
      <trkpt lat="49.28616" lon="3.42087">
        <ele>88</ele>
        <time>2009-06-14T11:54:42Z</time>
      </trkpt>
      <trkpt lat="49.28625" lon="3.42079">
        <ele>88</ele>
        <time>2009-06-14T11:54:52Z</time>
      </trkpt>
      <trkpt lat="49.28631" lon="3.42067">
        <ele>96</ele>
        <time>2009-06-14T11:55:02Z</time>
      </trkpt>
      <trkpt lat="49.28638" lon="3.42056">
        <ele>96</ele>
        <time>2009-06-14T11:55:08Z</time>
      </trkpt>
      <trkpt lat="49.28643" lon="3.42043">
        <ele>88</ele>
        <time>2009-06-14T11:55:18Z</time>
      </trkpt>
      <trkpt lat="49.28652" lon="3.42034">
        <ele>88</ele>
        <time>2009-06-14T11:55:24Z</time>
      </trkpt>
      <trkpt lat="49.28661" lon="3.42031">
        <ele>88</ele>
        <time>2009-06-14T11:55:30Z</time>
      </trkpt>
      <trkpt lat="49.28667" lon="3.42021">
        <ele>88</ele>
        <time>2009-06-14T11:55:36Z</time>
      </trkpt>
      <trkpt lat="49.2867" lon="3.42008">
        <ele>88</ele>
        <time>2009-06-14T11:55:45Z</time>
      </trkpt>
      <trkpt lat="49.28665" lon="3.41996">
        <ele>88</ele>
        <time>2009-06-14T11:55:53Z</time>
      </trkpt>
      <trkpt lat="49.28659" lon="3.41984">
        <ele>88</ele>
        <time>2009-06-14T11:56:00Z</time>
      </trkpt>
      <trkpt lat="49.28655" lon="3.41971">
        <ele>88</ele>
        <time>2009-06-14T11:56:07Z</time>
      </trkpt>
      <trkpt lat="49.28652" lon="3.41957">
        <ele>88</ele>
        <time>2009-06-14T11:56:14Z</time>
      </trkpt>
      <trkpt lat="49.28645" lon="3.41947">
        <ele>88</ele>
        <time>2009-06-14T11:56:19Z</time>
      </trkpt>
      <trkpt lat="49.28638" lon="3.41937">
        <ele>80</ele>
        <time>2009-06-14T11:56:27Z</time>
      </trkpt>
      <trkpt lat="49.28639" lon="3.41921">
        <ele>89</ele>
        <time>2009-06-14T11:56:34Z</time>
      </trkpt>
      <trkpt lat="49.28633" lon="3.4191">
        <ele>89</ele>
        <time>2009-06-14T11:56:41Z</time>
      </trkpt>
      <trkpt lat="49.28634" lon="3.41893">
        <ele>98</ele>
        <time>2009-06-14T11:56:50Z</time>
      </trkpt>
      <trkpt lat="49.28625" lon="3.41885">
        <ele>98</ele>
        <time>2009-06-14T11:56:56Z</time>
      </trkpt>
      <trkpt lat="49.28619" lon="3.41875">
        <ele>98</ele>
        <time>2009-06-14T11:57:04Z</time>
      </trkpt>
      <trkpt lat="49.2861" lon="3.41867">
        <ele>90</ele>
        <time>2009-06-14T11:57:11Z</time>
      </trkpt>
      <trkpt lat="49.28602" lon="3.41861">
        <ele>90</ele>
        <time>2009-06-14T11:57:17Z</time>
      </trkpt>
      <trkpt lat="49.28594" lon="3.41852">
        <ele>90</ele>
        <time>2009-06-14T11:57:24Z</time>
      </trkpt>
      <trkpt lat="49.28587" lon="3.41842">
        <ele>84</ele>
        <time>2009-06-14T11:57:31Z</time>
      </trkpt>
      <trkpt lat="49.28579" lon="3.41831">
        <ele>84</ele>
        <time>2009-06-14T11:57:40Z</time>
      </trkpt>
      <trkpt lat="49.28573" lon="3.41821">
        <ele>84</ele>
        <time>2009-06-14T11:57:48Z</time>
      </trkpt>
      <trkpt lat="49.28567" lon="3.41809">
        <ele>76</ele>
        <time>2009-06-14T11:57:56Z</time>
      </trkpt>
      <trkpt lat="49.2856" lon="3.41796">
        <ele>71</ele>
        <time>2009-06-14T11:58:08Z</time>
      </trkpt>
      <trkpt lat="49.28556" lon="3.41782">
        <ele>71</ele>
        <time>2009-06-14T11:58:18Z</time>
      </trkpt>
      <trkpt lat="49.28549" lon="3.41771">
        <ele>71</ele>
        <time>2009-06-14T11:58:25Z</time>
      </trkpt>
      <trkpt lat="49.28546" lon="3.41758">
        <ele>71</ele>
        <time>2009-06-14T11:58:33Z</time>
      </trkpt>
      <trkpt lat="49.28541" lon="3.41746">
        <ele>71</ele>
        <time>2009-06-14T11:58:41Z</time>
      </trkpt>
      <trkpt lat="49.28536" lon="3.41733">
        <ele>71</ele>
        <time>2009-06-14T11:58:48Z</time>
      </trkpt>
      <trkpt lat="49.2853" lon="3.41722">
        <ele>77</ele>
        <time>2009-06-14T11:58:55Z</time>
      </trkpt>
      <trkpt lat="49.28523" lon="3.4171">
        <ele>77</ele>
        <time>2009-06-14T11:59:04Z</time>
      </trkpt>
      <trkpt lat="49.28517" lon="3.417">
        <ele>82</ele>
        <time>2009-06-14T11:59:11Z</time>
      </trkpt>
      <trkpt lat="49.28511" lon="3.4169">
        <ele>82</ele>
        <time>2009-06-14T11:59:18Z</time>
      </trkpt>
      <trkpt lat="49.28504" lon="3.4168">
        <ele>90</ele>
        <time>2009-06-14T11:59:25Z</time>
      </trkpt>
      <trkpt lat="49.28497" lon="3.4167">
        <ele>90</ele>
        <time>2009-06-14T11:59:32Z</time>
      </trkpt>
      <trkpt lat="49.28489" lon="3.41662">
        <ele>90</ele>
        <time>2009-06-14T11:59:43Z</time>
      </trkpt>
      <trkpt lat="49.28482" lon="3.41652">
        <ele>90</ele>
        <time>2009-06-14T11:59:49Z</time>
      </trkpt>
      <trkpt lat="49.28475" lon="3.41661">
        <ele>90</ele>
        <time>2009-06-14T11:59:57Z</time>
      </trkpt>
      <trkpt lat="49.28469" lon="3.41673">
        <ele>90</ele>
        <time>2009-06-14T12:00:05Z</time>
      </trkpt>
      <trkpt lat="49.28465" lon="3.41688">
        <ele>99</ele>
        <time>2009-06-14T12:00:13Z</time>
      </trkpt>
      <trkpt lat="49.28461" lon="3.417">
        <ele>105</ele>
        <time>2009-06-14T12:00:21Z</time>
      </trkpt>
      <trkpt lat="49.28452" lon="3.41706">
        <ele>96</ele>
        <time>2009-06-14T12:00:30Z</time>
      </trkpt>
    </trkseg>
  </trk>
</gpx>